Wacker, Stefan (2026): Radiosonde measurements from station Lindenberg (2023-09) [dataset]. Meteorologisches Observatorium Lindenberg - Richard-Aßmann-Observatorium, PANGAEA, https://doi.org/10.1594/PANGAEA.993502
Always quote citation above when using data! You can download the citation in several formats below.
Published: 2026-04-09 • DOI registered: 2026-05-08
Other version:
Wacker, Stefan (2026): BSRN Station-to-archive file for station Lindenberg (2023-09) [dataset]. ftp://ftp.bsrn.awi.de/lin/lin0923.dat.gz
Project(s):
Coverage:
Latitude: 52.210000 * Longitude: 14.122000
Date/Time Start: 2023-09-01T00:00:00 * Date/Time End: 2023-09-30T18:00:00
Minimum ALTITUDE: -999 m * Maximum ALTITUDE: 38170 m
Event(s):
LIN (Lindenberg) * Latitude: 52.210000 * Longitude: 14.122000 * Date/Time: 1994-09-01T00:00:00 * Elevation: 125.0 m * Location: Germany * Method/Device: Monitoring station (MONS) * Comment: BSRN station no: 12; Surface type: cultivated; Topography type: hilly, rural; Horizon: doi:10.1594/PANGAEA.669521; Station scientist: Stefan Wacker (Stefan.Wacker@dwd.de)
Comment:
*C0006
Parameter(s):
| # | Name | Short Name | Unit | Principal Investigator | Method/Device | Comment |
|---|---|---|---|---|---|---|
| 1 | DATE/TIME | Date/Time | Wacker, Stefan | Geocode | ||
| 2 | ALTITUDE | Altitude | m | Wacker, Stefan | Geocode | |
| 3 | Pressure, at given altitude | PPPP | hPa | Wacker, Stefan | Radiosonde, Vaisala, RS41 | |
| 4 | Temperature, air | TTT | °C | Wacker, Stefan | Radiosonde, Vaisala, RS41 | |
| 5 | Dew/frost point | TdTdTd | °C | Wacker, Stefan | Radiosonde, Vaisala, RS41 | |
| 6 | Wind direction | dd | deg | Wacker, Stefan | Radiosonde, Vaisala, RS41 | |
| 7 | Wind speed | ff | m/s | Wacker, Stefan | Radiosonde, Vaisala, RS41 |
License:
Status:
Curation Level: Enhanced curation (CurationLevelC)
Size:
805287 data points
Data
| 1 Date/Time | 2 Altitude [m] | 3 PPPP [hPa] | 4 TTT [°C] | 5 TdTdTd [°C] | 6 dd [deg] | 7 ff [m/s] |
|---|---|---|---|---|---|---|
| 2023-09-01T00:00 | 112 | 999 | 11.3 | 9.9 | 220 | 4 |
| 2023-09-01T00:00 | 141 | 996 | 11.8 | 9.9 | 237 | 4 |
| 2023-09-01T00:00 | 166 | 993 | 11.7 | 9.6 | 235 | 6 |
| 2023-09-01T00:00 | 195 | 990 | 11.7 | 9.5 | 235 | 7 |
| 2023-09-01T00:00 | 225 | 986 | 12.0 | 9.2 | 236 | 9 |
| 2023-09-01T00:00 | 253 | 983 | 11.7 | 9.1 | 239 | 10 |
| 2023-09-01T00:00 | 278 | 980 | 11.7 | 9.0 | 243 | 10 |
| 2023-09-01T00:00 | 303 | 977 | 11.4 | 9.0 | 248 | 11 |
| 2023-09-01T00:00 | 327 | 974 | 11.3 | 8.5 | 253 | 11 |
| 2023-09-01T00:00 | 350 | 971 | 11.8 | 7.9 | 257 | 12 |
| 2023-09-01T00:00 | 376 | 969 | 11.8 | 7.6 | 261 | 12 |
| 2023-09-01T00:00 | 397 | 966 | 11.7 | 7.4 | 264 | 13 |
| 2023-09-01T00:00 | 424 | 963 | 11.8 | 7.5 | 267 | 13 |
| 2023-09-01T00:00 | 446 | 960 | 11.6 | 7.4 | 270 | 14 |
| 2023-09-01T00:00 | 475 | 957 | 11.5 | 7.5 | 273 | 14 |
| 2023-09-01T00:00 | 506 | 954 | 11.5 | 7.5 | 276 | 14 |
| 2023-09-01T00:00 | 529 | 951 | 11.5 | 7.7 | 279 | 14 |
| 2023-09-01T00:00 | 556 | 948 | 11.6 | 7.5 | 282 | 14 |
| 2023-09-01T00:00 | 580 | 945 | 11.4 | 7.4 | 284 | 13 |
| 2023-09-01T00:00 | 597 | 943 | 11.3 | 7.3 | 284 | 13 |
| 2023-09-01T00:00 | 623 | 940 | 11.1 | 6.7 | 284 | 13 |
| 2023-09-01T00:00 | 643 | 938 | 11.0 | 6.3 | 283 | 13 |
| 2023-09-01T00:00 | 665 | 936 | 10.8 | 6.1 | 284 | 12 |
| 2023-09-01T00:00 | 688 | 933 | 10.6 | 5.7 | 284 | 12 |
| 2023-09-01T00:00 | 712 | 930 | 10.4 | 5.3 | 285 | 12 |
| 2023-09-01T00:00 | 735 | 928 | 10.3 | 5.1 | 285 | 12 |
| 2023-09-01T00:00 | 761 | 925 | 10.1 | 4.6 | 285 | 11 |
| 2023-09-01T00:00 | 786 | 922 | 9.9 | 4.4 | 284 | 11 |
| 2023-09-01T00:00 | 814 | 919 | 9.6 | 4.2 | 283 | 11 |
| 2023-09-01T00:00 | 838 | 916 | 9.5 | 4.0 | 282 | 11 |
| 2023-09-01T00:00 | 866 | 913 | 9.3 | 3.4 | 281 | 11 |
| 2023-09-01T00:00 | 890 | 911 | 9.2 | 3.3 | 279 | 11 |
| 2023-09-01T00:00 | 911 | 908 | 9.0 | 3.4 | 277 | 11 |
| 2023-09-01T00:00 | 935 | 906 | 8.9 | 3.3 | 275 | 11 |
| 2023-09-01T00:00 | 957 | 903 | 8.8 | 3.3 | 275 | 11 |
| 2023-09-01T00:00 | 982 | 900 | 8.7 | 3.0 | 275 | 12 |
| 2023-09-01T00:00 | 1006 | 898 | 8.5 | 2.9 | 275 | 12 |
| 2023-09-01T00:00 | 1030 | 895 | 8.3 | 2.8 | 276 | 12 |
| 2023-09-01T00:00 | 1056 | 893 | 8.0 | 2.7 | 277 | 12 |
| 2023-09-01T00:00 | 1078 | 890 | 7.8 | 2.6 | 278 | 12 |
| 2023-09-01T00:00 | 1105 | 887 | 7.6 | 2.3 | 278 | 12 |
| 2023-09-01T00:00 | 1127 | 885 | 7.3 | 2.6 | 278 | 12 |
| 2023-09-01T00:00 | 1156 | 882 | 7.1 | 3.3 | 277 | 12 |
| 2023-09-01T00:00 | 1179 | 879 | 7.0 | 2.9 | 276 | 13 |
| 2023-09-01T00:00 | 1203 | 877 | 6.8 | 2.4 | 276 | 13 |
| 2023-09-01T00:00 | 1228 | 874 | 6.6 | 2.2 | 275 | 13 |
| 2023-09-01T00:00 | 1255 | 871 | 6.5 | 2.0 | 275 | 13 |
| 2023-09-01T00:00 | 1283 | 868 | 6.3 | 274 | 13 | |
| 2023-09-01T00:00 | 1310 | 865 | 6.2 | 1.5 | 273 | 13 |
| 2023-09-01T00:00 | 1339 | 862 | 5.9 | 2.0 | 272 | 13 |
| 2023-09-01T00:00 | 1365 | 860 | 5.7 | 1.8 | 272 | 12 |
| 2023-09-01T00:00 | 1392 | 857 | 5.5 | 1.2 | 272 | 12 |
| 2023-09-01T00:00 | 1417 | 854 | 5.3 | 1.1 | 272 | 12 |
| 2023-09-01T00:00 | 1446 | 851 | 5.0 | 1.0 | 273 | 12 |
| 2023-09-01T00:00 | 1474 | 848 | 4.8 | 1.5 | 274 | 13 |
| 2023-09-01T00:00 | 1502 | 845 | 4.6 | 1.5 | 275 | 13 |
| 2023-09-01T00:00 | 1531 | 843 | 4.6 | 0.9 | 275 | 13 |
| 2023-09-01T00:00 | 1553 | 840 | 4.3 | 0.6 | 276 | 14 |
| 2023-09-01T00:00 | 1578 | 838 | 4.1 | 0.3 | 275 | 14 |
| 2023-09-01T00:00 | 1599 | 835 | 3.9 | 0.3 | 275 | 13 |
| 2023-09-01T00:00 | 1624 | 833 | 3.7 | 0.2 | 273 | 13 |
| 2023-09-01T00:00 | 1645 | 830 | 3.5 | 0.2 | 271 | 13 |
| 2023-09-01T00:00 | 1669 | 828 | 3.3 | 0.1 | 269 | 12 |
| 2023-09-01T00:00 | 1694 | 826 | 3.1 | 0.0 | 267 | 12 |
| 2023-09-01T00:00 | 1719 | 823 | 2.9 | 0.0 | 265 | 13 |
| 2023-09-01T00:00 | 1745 | 820 | 2.7 | 0.1 | 265 | 13 |
| 2023-09-01T00:00 | 1776 | 818 | 2.4 | 265 | 13 | |
| 2023-09-01T00:00 | 1798 | 815 | 2.2 | 0.3 | 265 | 14 |
| 2023-09-01T00:00 | 1821 | 813 | 2.0 | 0.5 | 266 | 14 |
| 2023-09-01T00:00 | 1852 | 810 | 2.0 | 0.2 | 266 | 14 |
| 2023-09-01T00:00 | 1880 | 807 | 1.8 | -0.4 | 267 | 14 |
| 2023-09-01T00:00 | 1908 | 804 | 1.5 | -0.3 | 267 | 14 |
| 2023-09-01T00:00 | 1936 | 801 | 1.2 | -0.5 | 268 | 14 |
| 2023-09-01T00:00 | 1959 | 799 | 1.0 | -0.5 | 268 | 14 |
| 2023-09-01T00:00 | 1981 | 797 | 0.9 | -1.1 | 269 | 14 |
| 2023-09-01T00:00 | 2007 | 794 | 0.8 | -1.3 | 270 | 14 |
| 2023-09-01T00:00 | 2035 | 791 | 0.6 | -1.5 | 271 | 13 |
| 2023-09-01T00:00 | 2059 | 789 | 0.4 | -1.6 | 272 | 13 |
| 2023-09-01T00:00 | 2078 | 787 | 0.2 | -1.7 | 272 | 13 |
| 2023-09-01T00:00 | 2101 | 785 | 0.0 | -1.7 | 271 | 13 |
| 2023-09-01T00:00 | 2121 | 783 | -0.1 | -1.8 | 271 | 14 |
| 2023-09-01T00:00 | 2143 | 781 | -0.3 | -1.9 | 271 | 14 |
| 2023-09-01T00:00 | 2167 | 778 | -0.5 | -1.9 | 272 | 14 |
| 2023-09-01T00:00 | 2192 | 776 | -0.7 | -2.0 | 274 | 15 |
| 2023-09-01T00:00 | 2219 | 774 | -0.9 | -2.3 | 275 | 15 |
| 2023-09-01T00:00 | 2239 | 772 | -1.1 | -2.5 | 275 | 15 |
| 2023-09-01T00:00 | 2261 | 770 | -1.2 | -2.6 | 274 | 16 |
| 2023-09-01T00:00 | 2281 | 767 | -1.4 | -2.7 | 272 | 17 |
| 2023-09-01T00:00 | 2302 | 765 | -1.5 | -2.7 | 271 | 17 |
| 2023-09-01T00:00 | 2324 | 763 | -1.7 | -2.8 | 272 | 17 |
| 2023-09-01T00:00 | 2345 | 761 | -1.7 | -2.9 | 273 | 17 |
| 2023-09-01T00:00 | 2365 | 759 | -1.7 | -3.2 | 276 | 17 |
| 2023-09-01T00:00 | 2389 | 757 | -1.7 | -3.5 | 278 | 16 |
| 2023-09-01T00:00 | 2416 | 755 | -1.7 | -3.8 | 280 | 15 |
| 2023-09-01T00:00 | 2444 | 752 | -1.8 | -4.1 | 281 | 15 |
| 2023-09-01T00:00 | 2467 | 750 | -2.0 | -4.2 | 281 | 14 |
| 2023-09-01T00:00 | 2494 | 747 | -2.2 | -4.3 | 281 | 14 |
| 2023-09-01T00:00 | 2518 | 745 | -2.4 | -4.5 | 281 | 13 |
| 2023-09-01T00:00 | 2538 | 743 | -2.6 | -4.4 | 281 | 13 |
| 2023-09-01T00:00 | 2560 | 741 | -2.8 | -4.4 | 281 | 12 |
| 2023-09-01T00:00 | 2582 | 739 | -3.0 | -4.5 | 281 | 12 |
| 2023-09-01T00:00 | 2611 | 736 | -3.3 | -4.7 | 281 | 13 |
| 2023-09-01T00:00 | 2632 | 734 | -3.4 | -4.7 | 280 | 13 |
| 2023-09-01T00:00 | 2657 | 732 | -3.5 | -5.1 | 280 | 13 |
| 2023-09-01T00:00 | 2679 | 730 | -3.5 | -5.1 | 279 | 14 |
| 2023-09-01T00:00 | 2708 | 727 | -3.6 | -5.5 | 279 | 14 |
| 2023-09-01T00:00 | 2730 | 725 | -3.7 | -5.6 | 280 | 14 |
| 2023-09-01T00:00 | 2756 | 723 | -3.9 | -5.8 | 281 | 14 |
| 2023-09-01T00:00 | 2783 | 721 | -4.2 | -6.0 | 282 | 15 |
| 2023-09-01T00:00 | 2801 | 719 | -4.3 | -6.1 | 282 | 15 |
| 2023-09-01T00:00 | 2828 | 716 | -4.5 | -6.1 | 281 | 15 |
| 2023-09-01T00:00 | 2852 | 714 | -4.8 | -6.2 | 281 | 16 |
| 2023-09-01T00:00 | 2879 | 712 | -5.0 | -6.2 | 280 | 16 |
| 2023-09-01T00:00 | 2907 | 709 | -5.3 | -6.4 | 280 | 16 |
| 2023-09-01T00:00 | 2936 | 707 | -5.5 | -6.5 | 280 | 16 |
| 2023-09-01T00:00 | 2959 | 704 | -5.7 | -6.7 | 280 | 16 |
| 2023-09-01T00:00 | 2984 | 702 | -5.9 | -7.0 | 279 | 16 |
| 2023-09-01T00:00 | 3010 | 700 | -6.1 | -7.1 | 278 | 16 |
| 2023-09-01T00:00 | 3036 | 698 | -6.1 | -7.5 | 277 | 17 |
| 2023-09-01T00:00 | 3056 | 696 | -6.1 | -8.5 | 276 | 17 |
| 2023-09-01T00:00 | 3087 | 693 | -6.1 | -8.3 | 275 | 18 |
| 2023-09-01T00:00 | 3107 | 691 | -6.2 | -8.7 | 274 | 18 |
| 2023-09-01T00:00 | 3136 | 689 | -6.4 | -9.1 | 274 | 17 |
| 2023-09-01T00:00 | 3168 | 686 | -6.6 | -9.6 | 274 | 17 |
| 2023-09-01T00:00 | 3195 | 684 | -6.8 | -9.8 | 274 | 16 |
| 2023-09-01T00:00 | 3218 | 682 | -7.0 | -10.1 | 273 | 16 |
| 2023-09-01T00:00 | 3238 | 680 | -7.1 | -10.2 | 272 | 15 |
| 2023-09-01T00:00 | 3259 | 678 | -7.3 | -10.4 | 272 | 15 |
| 2023-09-01T00:00 | 3285 | 676 | -7.5 | -10.1 | 272 | 16 |
| 2023-09-01T00:00 | 3315 | 673 | -7.8 | -9.9 | 272 | 16 |
| 2023-09-01T00:00 | 3340 | 671 | -8.1 | -10.4 | 273 | 17 |
| 2023-09-01T00:00 | 3363 | 669 | -8.2 | -10.6 | 274 | 17 |
| 2023-09-01T00:00 | 3392 | 666 | -8.3 | -10.6 | 276 | 18 |
| 2023-09-01T00:00 | 3420 | 664 | -8.5 | -10.3 | 277 | 18 |
| 2023-09-01T00:00 | 3451 | 661 | -8.7 | -10.0 | 278 | 19 |
| 2023-09-01T00:00 | 3481 | 659 | -8.7 | -11.5 | 278 | 19 |
| 2023-09-01T00:00 | 3511 | 656 | -9.0 | -11.4 | 277 | 19 |
| 2023-09-01T00:00 | 3545 | 654 | -9.2 | -11.3 | 277 | 19 |
| 2023-09-01T00:00 | 3574 | 651 | -9.4 | -12.4 | 277 | 18 |
| 2023-09-01T00:00 | 3601 | 649 | -9.5 | -12.7 | 277 | 18 |
| 2023-09-01T00:00 | 3624 | 647 | -9.7 | -13.6 | 278 | 18 |
| 2023-09-01T00:00 | 3646 | 645 | -9.9 | -13.4 | 279 | 18 |
| 2023-09-01T00:00 | 3680 | 642 | -10.1 | -13.2 | 279 | 18 |
| 2023-09-01T00:00 | 3705 | 640 | -10.3 | -12.6 | 279 | 18 |
| 2023-09-01T00:00 | 3733 | 638 | -10.5 | -12.4 | 279 | 17 |
| 2023-09-01T00:00 | 3760 | 636 | -10.6 | -11.6 | 279 | 17 |
| 2023-09-01T00:00 | 3784 | 634 | -10.6 | -11.9 | 278 | 17 |
| 2023-09-01T00:00 | 3809 | 631 | -10.8 | -12.1 | 278 | 17 |
| 2023-09-01T00:00 | 3835 | 629 | -10.9 | -12.2 | 277 | 17 |
| 2023-09-01T00:00 | 3860 | 627 | -11.1 | -12.3 | 276 | 17 |
| 2023-09-01T00:00 | 3886 | 625 | -11.3 | -12.6 | 274 | 18 |
| 2023-09-01T00:00 | 3905 | 623 | -11.5 | -12.8 | 273 | 18 |
| 2023-09-01T00:00 | 3932 | 621 | -11.5 | -14.1 | 273 | 19 |
| 2023-09-01T00:00 | 3960 | 619 | -11.6 | -17.9 | 272 | 19 |
| 2023-09-01T00:00 | 3983 | 617 | -11.8 | -15.2 | 271 | 19 |
| 2023-09-01T00:00 | 4009 | 615 | -11.9 | -19.1 | 271 | 20 |
| 2023-09-01T00:00 | 4026 | 614 | -12.0 | -19.5 | 270 | 20 |
| 2023-09-01T00:00 | 4043 | 612 | -12.2 | -19.5 | 270 | 20 |
| 2023-09-01T00:00 | 4076 | 610 | -12.4 | -20.6 | 270 | 20 |
| 2023-09-01T00:00 | 4105 | 608 | -12.7 | -17.0 | 270 | 20 |
| 2023-09-01T00:00 | 4129 | 606 | -12.9 | -15.7 | 270 | 21 |
| 2023-09-01T00:00 | 4148 | 604 | -13.1 | -15.6 | 270 | 21 |
| 2023-09-01T00:00 | 4171 | 602 | -13.2 | -15.8 | 270 | 21 |
| 2023-09-01T00:00 | 4199 | 600 | -13.4 | -17.4 | 270 | 20 |
| 2023-09-01T00:00 | 4223 | 598 | -13.6 | -17.1 | 271 | 20 |
| 2023-09-01T00:00 | 4251 | 596 | -13.9 | -16.9 | 272 | 20 |
| 2023-09-01T00:00 | 4278 | 594 | -14.1 | -17.5 | 274 | 19 |
| 2023-09-01T00:00 | 4306 | 592 | -14.3 | -16.6 | 275 | 19 |
| 2023-09-01T00:00 | 4331 | 590 | -14.4 | -16.0 | 276 | 19 |
| 2023-09-01T00:00 | 4358 | 588 | -14.6 | -15.9 | 276 | 18 |
| 2023-09-01T00:00 | 4386 | 586 | -14.8 | -16.0 | 276 | 18 |
| 2023-09-01T00:00 | 4405 | 584 | -15.0 | -16.1 | 276 | 18 |
| 2023-09-01T00:00 | 4436 | 582 | -15.0 | -16.6 | 276 | 19 |
| 2023-09-01T00:00 | 4462 | 580 | -15.1 | -16.8 | 277 | 19 |
| 2023-09-01T00:00 | 4488 | 578 | -15.4 | -16.9 | 278 | 20 |
| 2023-09-01T00:00 | 4505 | 576 | -15.5 | -16.8 | 279 | 20 |
| 2023-09-01T00:00 | 4527 | 575 | -15.7 | -16.8 | 279 | 21 |
| 2023-09-01T00:00 | 4559 | 572 | -16.0 | -17.1 | 280 | 21 |
| 2023-09-01T00:00 | 4585 | 570 | -16.1 | -17.3 | 280 | 21 |
| 2023-09-01T00:00 | 4607 | 569 | -16.3 | -17.3 | 280 | 21 |
| 2023-09-01T00:00 | 4628 | 567 | -16.5 | -17.4 | 280 | 21 |
| 2023-09-01T00:00 | 4651 | 565 | -16.7 | -17.6 | 280 | 22 |
| 2023-09-01T00:00 | 4678 | 563 | -16.8 | -18.3 | 280 | 22 |
| 2023-09-01T00:00 | 4702 | 561 | -16.9 | -19.5 | 280 | 22 |
| 2023-09-01T00:00 | 4730 | 559 | -17.1 | -19.7 | 279 | 21 |
| 2023-09-01T00:00 | 4758 | 557 | -17.4 | -19.8 | 279 | 21 |
| 2023-09-01T00:00 | 4783 | 555 | -17.6 | -20.3 | 279 | 21 |
| 2023-09-01T00:00 | 4808 | 554 | -17.8 | -20.2 | 279 | 21 |
| 2023-09-01T00:00 | 4832 | 552 | -18.0 | -21.0 | 279 | 21 |
| 2023-09-01T00:00 | 4856 | 550 | -18.2 | -20.8 | 279 | 22 |
| 2023-09-01T00:00 | 4887 | 548 | -18.5 | -19.3 | 279 | 22 |
| 2023-09-01T00:00 | 4905 | 546 | -18.7 | -19.5 | 278 | 22 |
| 2023-09-01T00:00 | 4930 | 545 | -18.9 | -19.6 | 278 | 22 |
| 2023-09-01T00:00 | 4956 | 543 | -19.0 | -20.2 | 277 | 22 |
| 2023-09-01T00:00 | 4980 | 541 | -19.1 | -20.7 | 275 | 22 |
| 2023-09-01T00:00 | 5004 | 539 | -19.2 | -21.0 | 274 | 22 |
| 2023-09-01T00:00 | 5024 | 538 | -19.3 | -21.0 | 273 | 21 |
| 2023-09-01T00:00 | 5043 | 536 | -19.4 | -21.6 | 272 | 22 |
| 2023-09-01T00:00 | 5076 | 534 | -19.7 | -21.7 | 272 | 22 |
| 2023-09-01T00:00 | 5107 | 532 | -20.0 | -21.8 | 273 | 22 |
| 2023-09-01T00:00 | 5133 | 530 | -20.2 | -21.8 | 275 | 22 |
| 2023-09-01T00:00 | 5159 | 528 | -20.5 | -22.1 | 277 | 23 |
| 2023-09-01T00:00 | 5188 | 526 | -20.7 | -22.2 | 279 | 23 |
| 2023-09-01T00:00 | 5213 | 524 | -20.9 | -22.6 | 279 | 23 |
| 2023-09-01T00:00 | 5230 | 523 | -21.1 | -22.6 | 279 | 23 |
| 2023-09-01T00:00 | 5256 | 521 | -21.3 | -23.0 | 278 | 23 |
| 2023-09-01T00:00 | 5273 | 520 | -21.4 | -23.1 | 277 | 23 |
| 2023-09-01T00:00 | 5304 | 518 | -21.7 | -23.3 | 276 | 24 |
| 2023-09-01T00:00 | 5334 | 516 | -22.0 | -23.5 | 276 | 24 |
| 2023-09-01T00:00 | 5358 | 514 | -22.2 | -23.6 | 276 | 24 |
| 2023-09-01T00:00 | 5380 | 513 | -22.4 | -23.7 | 276 | 23 |
| 2023-09-01T00:00 | 5401 | 511 | -22.6 | -23.8 | 275 | 23 |
| 2023-09-01T00:00 | 5430 | 509 | -22.8 | -23.9 | 272 | 22 |
| 2023-09-01T00:00 | 5454 | 507 | -23.0 | -24.5 | 270 | 22 |
| 2023-09-01T00:00 | 5473 | 506 | -23.0 | -24.0 | 268 | 21 |
| 2023-09-01T00:00 | 5500 | 504 | -23.1 | -25.2 | 266 | 22 |
| 2023-09-01T00:00 | 5522 | 503 | -23.1 | -28.5 | 266 | 22 |
| 2023-09-01T00:00 | 5548 | 501 | -23.1 | -28.2 | 267 | 22 |
| 2023-09-01T00:00 | 5575 | 499 | -23.3 | -26.5 | 268 | 22 |
| 2023-09-01T00:00 | 5610 | 497 | -23.5 | -27.6 | 269 | 21 |
| 2023-09-01T00:00 | 5637 | 495 | -23.7 | -28.7 | 269 | 21 |
| 2023-09-01T00:00 | 5659 | 493 | -23.9 | -29.1 | 269 | 22 |
| 2023-09-01T00:00 | 5689 | 491 | -24.2 | -28.6 | 269 | 22 |
| 2023-09-01T00:00 | 5713 | 490 | -24.4 | -28.6 | 269 | 22 |
| 2023-09-01T00:00 | 5736 | 488 | -24.6 | -28.9 | 269 | 22 |
| 2023-09-01T00:00 | 5754 | 487 | -24.7 | -28.9 | 270 | 22 |
| 2023-09-01T00:00 | 5785 | 485 | -25.0 | -28.9 | 270 | 22 |
| 2023-09-01T00:00 | 5806 | 483 | -25.3 | -29.3 | 271 | 22 |
| 2023-09-01T00:00 | 5831 | 482 | -25.5 | -29.4 | 271 | 22 |
| 2023-09-01T00:00 | 5850 | 480 | -25.7 | -29.3 | 271 | 21 |
| 2023-09-01T00:00 | 5878 | 479 | -25.9 | -29.5 | 271 | 21 |
| 2023-09-01T00:00 | 5905 | 477 | -26.2 | -29.9 | 271 | 21 |
| 2023-09-01T00:00 | 5930 | 475 | -26.4 | -30.2 | 271 | 21 |
| 2023-09-01T00:00 | 5957 | 474 | -26.6 | -30.9 | 272 | 21 |
| 2023-09-01T00:00 | 5974 | 472 | -26.8 | -31.4 | 272 | 21 |
| 2023-09-01T00:00 | 5994 | 471 | -26.9 | -31.6 | 271 | 21 |
| 2023-09-01T00:00 | 6024 | 469 | -27.2 | -31.3 | 271 | 21 |
| 2023-09-01T00:00 | 6045 | 468 | -27.3 | -31.5 | 269 | 21 |
| 2023-09-01T00:00 | 6072 | 466 | -27.6 | -32.0 | 268 | 21 |
| 2023-09-01T00:00 | 6097 | 464 | -27.8 | -31.9 | 268 | 21 |
| 2023-09-01T00:00 | 6120 | 463 | -28.0 | -32.0 | 269 | 21 |
| 2023-09-01T00:00 | 6140 | 462 | -28.2 | -32.0 | 269 | 22 |
| 2023-09-01T00:00 | 6165 | 460 | -28.5 | -32.2 | 270 | 22 |
| 2023-09-01T00:00 | 6190 | 459 | -28.7 | -32.3 | 270 | 22 |
| 2023-09-01T00:00 | 6211 | 457 | -28.9 | -32.2 | 270 | 21 |
| 2023-09-01T00:00 | 6239 | 455 | -29.1 | -31.8 | 269 | 21 |
| 2023-09-01T00:00 | 6269 | 453 | -29.3 | -32.3 | 269 | 21 |
| 2023-09-01T00:00 | 6288 | 452 | -29.4 | -32.1 | 269 | 21 |
| 2023-09-01T00:00 | 6309 | 451 | -29.6 | -32.5 | 270 | 21 |
| 2023-09-01T00:00 | 6337 | 449 | -29.8 | -33.3 | 270 | 21 |
| 2023-09-01T00:00 | 6366 | 447 | -30.1 | -33.6 | 269 | 22 |
| 2023-09-01T00:00 | 6387 | 446 | -30.2 | -33.6 | 269 | 22 |
| 2023-09-01T00:00 | 6419 | 444 | -30.5 | -33.5 | 269 | 22 |
| 2023-09-01T00:00 | 6445 | 442 | -30.8 | -33.8 | 269 | 23 |
| 2023-09-01T00:00 | 6460 | 441 | -31.0 | -33.8 | 269 | 23 |
| 2023-09-01T00:00 | 6493 | 439 | -31.2 | -33.7 | 269 | 23 |
| 2023-09-01T00:00 | 6531 | 437 | -31.6 | -33.8 | 269 | 22 |
| 2023-09-01T00:00 | 6556 | 435 | -31.8 | -34.0 | 270 | 22 |
| 2023-09-01T00:00 | 6579 | 434 | -32.0 | -34.0 | 270 | 22 |
| 2023-09-01T00:00 | 6601 | 433 | -32.2 | -34.4 | 271 | 22 |
| 2023-09-01T00:00 | 6628 | 431 | -32.4 | -34.4 | 271 | 22 |
| 2023-09-01T00:00 | 6646 | 430 | -32.6 | -34.9 | 270 | 22 |
| 2023-09-01T00:00 | 6664 | 429 | -32.7 | -36.3 | 270 | 22 |
| 2023-09-01T00:00 | 6684 | 427 | -32.8 | -37.3 | 269 | 23 |
| 2023-09-01T00:00 | 6710 | 426 | -32.9 | -38.6 | 267 | 23 |
| 2023-09-01T00:00 | 6734 | 425 | -33.1 | -39.1 | 266 | 23 |
| 2023-09-01T00:00 | 6758 | 423 | -33.3 | -39.7 | 265 | 23 |
| 2023-09-01T00:00 | 6780 | 422 | -33.4 | -40.0 | 265 | 24 |
| 2023-09-01T00:00 | 6808 | 420 | -33.7 | -40.4 | 265 | 24 |
| 2023-09-01T00:00 | 6838 | 418 | -33.9 | -40.6 | 266 | 24 |
| 2023-09-01T00:00 | 6868 | 417 | -34.1 | -41.0 | 267 | 24 |
| 2023-09-01T00:00 | 6887 | 415 | -34.3 | -41.1 | 269 | 24 |
| 2023-09-01T00:00 | 6905 | 414 | -34.5 | -41.0 | 270 | 24 |
| 2023-09-01T00:00 | 6927 | 413 | -34.7 | -40.9 | 270 | 24 |
| 2023-09-01T00:00 | 6955 | 411 | -34.9 | -41.1 | 271 | 24 |
| 2023-09-01T00:00 | 6981 | 410 | -35.1 | -41.6 | 271 | 23 |
| 2023-09-01T00:00 | 7013 | 408 | -35.3 | -42.6 | 271 | 23 |
| 2023-09-01T00:00 | 7033 | 407 | -35.5 | -42.6 | 271 | 23 |
| 2023-09-01T00:00 | 7053 | 406 | -35.6 | -42.6 | 271 | 23 |
| 2023-09-01T00:00 | 7074 | 404 | -35.8 | -42.8 | 271 | 23 |
| 2023-09-01T00:00 | 7106 | 403 | -36.0 | -43.3 | 271 | 23 |
| 2023-09-01T00:00 | 7124 | 401 | -36.1 | -42.4 | 270 | 24 |
| 2023-09-01T00:00 | 7147 | 400 | -36.4 | -41.5 | 270 | 24 |
| 2023-09-01T00:00 | 7176 | 399 | -36.6 | -40.6 | 270 | 25 |
| 2023-09-01T00:00 | 7193 | 398 | -36.8 | -40.6 | 270 | 25 |
| 2023-09-01T00:00 | 7212 | 396 | -36.9 | -40.4 | 270 | 26 |
| 2023-09-01T00:00 | 7230 | 395 | -37.0 | -40.0 | 270 | 26 |
| 2023-09-01T00:00 | 7249 | 394 | -37.2 | -40.7 | 270 | 26 |
| 2023-09-01T00:00 | 7268 | 393 | -37.3 | -40.9 | 270 | 25 |
| 2023-09-01T00:00 | 7287 | 392 | -37.5 | -41.3 | 269 | 26 |
| 2023-09-01T00:00 | 7307 | 391 | -37.6 | -41.9 | 269 | 26 |
| 2023-09-01T00:00 | 7337 | 389 | -37.8 | -42.0 | 268 | 27 |
| 2023-09-01T00:00 | 7364 | 388 | -37.8 | -44.1 | 268 | 28 |
| 2023-09-01T00:00 | 7383 | 387 | -37.7 | -45.0 | 269 | 29 |
| 2023-09-01T00:00 | 7416 | 385 | -37.9 | -44.9 | 270 | 30 |
| 2023-09-01T00:00 | 7439 | 384 | -38.0 | -45.3 | 272 | 30 |
| 2023-09-01T00:00 | 7460 | 382 | -38.0 | -46.1 | 273 | 31 |
| 2023-09-01T00:00 | 7481 | 381 | -38.0 | -47.3 | 274 | 32 |
| 2023-09-01T00:00 | 7503 | 380 | -37.9 | -48.3 | 274 | 32 |
| 2023-09-01T00:00 | 7531 | 379 | -38.0 | -48.9 | 274 | 33 |
| 2023-09-01T00:00 | 7561 | 377 | -38.2 | -49.7 | 274 | 34 |
| 2023-09-01T00:00 | 7590 | 375 | -38.1 | -51.7 | 274 | 35 |
| 2023-09-01T00:00 | 7626 | 373 | -37.5 | -56.5 | 274 | 35 |
| 2023-09-01T00:00 | 7652 | 372 | -37.2 | -56.7 | 275 | 36 |
| 2023-09-01T00:00 | 7671 | 371 | -37.1 | -56.3 | 276 | 36 |
| 2023-09-01T00:00 | 7692 | 370 | -37.2 | -56.4 | 276 | 36 |
| 2023-09-01T00:00 | 7710 | 369 | -37.0 | -56.8 | 276 | 36 |
| 2023-09-01T00:00 | 7731 | 368 | -36.7 | -57.6 | 275 | 36 |
| 2023-09-01T00:00 | 7752 | 367 | -36.6 | -57.8 | 275 | 36 |
| 2023-09-01T00:00 | 7772 | 365 | -36.5 | -57.9 | 275 | 36 |
| 2023-09-01T00:00 | 7798 | 364 | -36.7 | -58.1 | 275 | 36 |
| 2023-09-01T00:00 | 7831 | 362 | -36.7 | -58.1 | 275 | 36 |
| 2023-09-01T00:00 | 7871 | 360 | -36.8 | -58.1 | 275 | 36 |
| 2023-09-01T00:00 | 7897 | 359 | -37.0 | -58.4 | 276 | 35 |
| 2023-09-01T00:00 | 7918 | 358 | -37.1 | -58.3 | 276 | 35 |
| 2023-09-01T00:00 | 7948 | 356 | -37.3 | -58.3 | 276 | 35 |
| 2023-09-01T00:00 | 7971 | 355 | -37.5 | -58.4 | 276 | 35 |
| 2023-09-01T00:00 | 7991 | 354 | -37.7 | -58.6 | 276 | 35 |
| 2023-09-01T00:00 | 8010 | 353 | -37.9 | -58.6 | 276 | 35 |
| 2023-09-01T00:00 | 8030 | 352 | -38.0 | -58.7 | 276 | 35 |
| 2023-09-01T00:00 | 8052 | 351 | -38.0 | -58.9 | 275 | 35 |
| 2023-09-01T00:00 | 8069 | 350 | -38.0 | -59.0 | 275 | 35 |
| 2023-09-01T00:00 | 8089 | 349 | -37.9 | -59.1 | 275 | 34 |
| 2023-09-01T00:00 | 8109 | 348 | -37.9 | -59.3 | 275 | 34 |
| 2023-09-01T00:00 | 8130 | 347 | -38.0 | -59.5 | 275 | 33 |
| 2023-09-01T00:00 | 8157 | 346 | -38.1 | -59.5 | 276 | 33 |
| 2023-09-01T00:00 | 8188 | 344 | -38.4 | -59.6 | 276 | 33 |
| 2023-09-01T00:00 | 8215 | 343 | -38.5 | -59.7 | 277 | 34 |
| 2023-09-01T00:00 | 8252 | 341 | -38.8 | -59.7 | 278 | 34 |
| 2023-09-01T00:00 | 8276 | 340 | -39.0 | -59.7 | 279 | 35 |
| 2023-09-01T00:00 | 8297 | 339 | -39.1 | -59.8 | 280 | 35 |
| 2023-09-01T00:00 | 8318 | 338 | -39.1 | -60.2 | 280 | 35 |
| 2023-09-01T00:00 | 8343 | 336 | -39.0 | -60.9 | 281 | 36 |
| 2023-09-01T00:00 | 8370 | 335 | -38.9 | -61.2 | 281 | 36 |
| 2023-09-01T00:00 | 8405 | 334 | -38.9 | -61.3 | 281 | 37 |
| 2023-09-01T00:00 | 8421 | 333 | -39.0 | -61.5 | 281 | 37 |
| 2023-09-01T00:00 | 8446 | 331 | -38.9 | -61.6 | 281 | 37 |
| 2023-09-01T00:00 | 8467 | 330 | -38.8 | -61.7 | 281 | 37 |
| 2023-09-01T00:00 | 8490 | 329 | -38.7 | -62.1 | 281 | 36 |
| 2023-09-01T00:00 | 8511 | 328 | -38.4 | -62.4 | 281 | 36 |
| 2023-09-01T00:00 | 8532 | 327 | -38.4 | -62.4 | 281 | 36 |
| 2023-09-01T00:00 | 8553 | 326 | -38.6 | -62.4 | 281 | 36 |
| 2023-09-01T00:00 | 8575 | 325 | -38.8 | -62.7 | 281 | 36 |
| 2023-09-01T00:00 | 8598 | 324 | -38.7 | -63.2 | 281 | 36 |
| 2023-09-01T00:00 | 8623 | 323 | -38.5 | -63.5 | 281 | 36 |
| 2023-09-01T00:00 | 8651 | 322 | -38.7 | -63.7 | 280 | 36 |
| 2023-09-01T00:00 | 8690 | 320 | -38.8 | -63.9 | 280 | 36 |
| 2023-09-01T00:00 | 8718 | 319 | -39.0 | -64.1 | 279 | 36 |
| 2023-09-01T00:00 | 8739 | 318 | -39.2 | -64.1 | 279 | 37 |
| 2023-09-01T00:00 | 8760 | 316 | -39.4 | -64.1 | 279 | 37 |
| 2023-09-01T00:00 | 8792 | 315 | -39.6 | -64.2 | 279 | 37 |
| 2023-09-01T00:00 | 8811 | 314 | -39.7 | -64.3 | 279 | 38 |
| 2023-09-01T00:00 | 8831 | 313 | -39.8 | -64.5 | 279 | 38 |
| 2023-09-01T00:00 | 8853 | 312 | -39.9 | -64.5 | 279 | 39 |
| 2023-09-01T00:00 | 8873 | 311 | -40.1 | -64.5 | 279 | 39 |
| 2023-09-01T00:00 | 8894 | 310 | -40.3 | -64.6 | 279 | 39 |
| 2023-09-01T00:00 | 8924 | 309 | -40.3 | -64.9 | 279 | 39 |
| 2023-09-01T00:00 | 8946 | 308 | -40.2 | -65.4 | 279 | 40 |
| 2023-09-01T00:00 | 8971 | 307 | -40.2 | -65.5 | 280 | 40 |
| 2023-09-01T00:00 | 8996 | 306 | -40.2 | -65.7 | 281 | 41 |
| 2023-09-01T00:00 | 9017 | 305 | -40.1 | -65.8 | 281 | 41 |
| 2023-09-01T00:00 | 9043 | 304 | -40.1 | -66.0 | 282 | 42 |
| 2023-09-01T00:00 | 9076 | 302 | -40.0 | -66.5 | 282 | 42 |
| 2023-09-01T00:00 | 9101 | 301 | -40.0 | -66.9 | 283 | 41 |
| 2023-09-01T00:00 | 9129 | 300 | -40.0 | -67.1 | 284 | 41 |
| 2023-09-01T00:00 | 9161 | 299 | -40.0 | -67.4 | 284 | 42 |
| 2023-09-01T00:00 | 9188 | 297 | -40.1 | -67.5 | 285 | 42 |
| 2023-09-01T00:00 | 9217 | 296 | -40.1 | -67.9 | 285 | 42 |
| 2023-09-01T00:00 | 9249 | 295 | -40.2 | -68.3 | 285 | 42 |
| 2023-09-01T00:00 | 9279 | 293 | -40.3 | -68.3 | 285 | 41 |
| 2023-09-01T00:00 | 9310 | 292 | -40.5 | -68.7 | 284 | 41 |
| 2023-09-01T00:00 | 9331 | 291 | -40.5 | -68.7 | 284 | 40 |
| 2023-09-01T00:00 | 9358 | 290 | -40.7 | -68.9 | 283 | 38 |
| 2023-09-01T00:00 | 9376 | 289 | -40.8 | -69.0 | 282 | 37 |
| 2023-09-01T00:00 | 9395 | 288 | -40.5 | -69.0 | 282 | 37 |
| 2023-09-01T00:00 | 9416 | 288 | -39.9 | -68.8 | 282 | 36 |
| 2023-09-01T00:00 | 9436 | 287 | -39.9 | -68.5 | 282 | 36 |
| 2023-09-01T00:00 | 9455 | 286 | -40.0 | -68.6 | 282 | 36 |
| 2023-09-01T00:00 | 9474 | 285 | -40.0 | -68.6 | 282 | 35 |
| 2023-09-01T00:00 | 9493 | 284 | -40.0 | -68.9 | 282 | 35 |
| 2023-09-01T00:00 | 9514 | 283 | -40.1 | -69.3 | 283 | 34 |
| 2023-09-01T00:00 | 9535 | 283 | -40.1 | -69.9 | 283 | 34 |
| 2023-09-01T00:00 | 9553 | 282 | -40.2 | -70.3 | 283 | 33 |
| 2023-09-01T00:00 | 9573 | 281 | -40.1 | -70.2 | 283 | 33 |
| 2023-09-01T00:00 | 9592 | 280 | -40.2 | -70.6 | 284 | 33 |
| 2023-09-01T00:00 | 9612 | 279 | -40.2 | -70.6 | 283 | 32 |
| 2023-09-01T00:00 | 9631 | 279 | -40.2 | -71.0 | 282 | 32 |
| 2023-09-01T00:00 | 9651 | 278 | -40.3 | -71.1 | 281 | 32 |
| 2023-09-01T00:00 | 9685 | 277 | -40.1 | -70.9 | 279 | 31 |
| 2023-09-01T00:00 | 9707 | 276 | -40.1 | -70.9 | 278 | 31 |
| 2023-09-01T00:00 | 9729 | 275 | -40.1 | -70.9 | 277 | 31 |
| 2023-09-01T00:00 | 9751 | 274 | -40.3 | -71.1 | 276 | 30 |
| 2023-09-01T00:00 | 9771 | 273 | -40.4 | -71.1 | 275 | 29 |
| 2023-09-01T00:00 | 9790 | 272 | -40.4 | -71.1 | 274 | 29 |
| 2023-09-01T00:00 | 9810 | 271 | -40.3 | -71.4 | 274 | 28 |
| 2023-09-01T00:00 | 9831 | 271 | -40.2 | -71.4 | 273 | 28 |
| 2023-09-01T00:00 | 9851 | 270 | -40.3 | -71.8 | 273 | 28 |
| 2023-09-01T00:00 | 9872 | 269 | -40.4 | -71.9 | 273 | 28 |
| 2023-09-01T00:00 | 9892 | 268 | -40.4 | -71.5 | 273 | 28 |
| 2023-09-01T00:00 | 9913 | 267 | -40.5 | -72.0 | 273 | 28 |
| 2023-09-01T00:00 | 9933 | 267 | -40.6 | -71.7 | 274 | 28 |
| 2023-09-01T00:00 | 9950 | 266 | -40.7 | -71.7 | 274 | 28 |
| 2023-09-01T00:00 | 9972 | 265 | -40.8 | -71.8 | 275 | 28 |
| 2023-09-01T00:00 | 9989 | 264 | -40.9 | -71.9 | 276 | 27 |
| 2023-09-01T00:00 | 10012 | 264 | -41.0 | -72.0 | 277 | 27 |
| 2023-09-01T00:00 | 10034 | 263 | -40.9 | -71.9 | 278 | 27 |
| 2023-09-01T00:00 | 10053 | 262 | -41.0 | -72.0 | 279 | 26 |
| 2023-09-01T00:00 | 10076 | 261 | -40.8 | -71.8 | 280 | 26 |
| 2023-09-01T00:00 | 10097 | 260 | -40.8 | -72.2 | 280 | 26 |
| 2023-09-01T00:00 | 10117 | 259 | -40.9 | -72.3 | 281 | 26 |
| 2023-09-01T00:00 | 10137 | 259 | -40.9 | -72.7 | 281 | 26 |
| 2023-09-01T00:00 | 10158 | 258 | -41.0 | -72.8 | 280 | 25 |
| 2023-09-01T00:00 | 10179 | 257 | -41.1 | -72.9 | 280 | 25 |
| 2023-09-01T00:00 | 10200 | 256 | -41.1 | -72.9 | 278 | 25 |
| 2023-09-01T00:00 | 10221 | 256 | -41.2 | -72.9 | 277 | 25 |
| 2023-09-01T00:00 | 10241 | 255 | -41.0 | -73.2 | 276 | 24 |
| 2023-09-01T00:00 | 10262 | 254 | -41.1 | -73.3 | 274 | 24 |
| 2023-09-01T00:00 | 10282 | 253 | -41.1 | -73.3 | 273 | 24 |
| 2023-09-01T00:00 | 10304 | 252 | -41.2 | -73.4 | 272 | 24 |
| 2023-09-01T00:00 | 10326 | 252 | -41.3 | -73.5 | 271 | 24 |
| 2023-09-01T00:00 | 10347 | 251 | -41.4 | -73.5 | 270 | 24 |
| 2023-09-01T00:00 | 10369 | 250 | -41.4 | -73.5 | 269 | 24 |
| 2023-09-01T00:00 | 10387 | 249 | -41.4 | -74.0 | 268 | 25 |
| 2023-09-01T00:00 | 10409 | 249 | -41.4 | -73.5 | 267 | 25 |
| 2023-09-01T00:00 | 10429 | 248 | -41.5 | -73.6 | 267 | 25 |
| 2023-09-01T00:00 | 10449 | 247 | -41.3 | -73.5 | 266 | 25 |
| 2023-09-01T00:00 | 10474 | 246 | -41.3 | -73.5 | 266 | 26 |
| 2023-09-01T00:00 | 10512 | 245 | -41.4 | -74.0 | 266 | 26 |
| 2023-09-01T00:00 | 10537 | 244 | -41.6 | -74.2 | 266 | 26 |
| 2023-09-01T00:00 | 10557 | 243 | -41.8 | -74.3 | 266 | 26 |
| 2023-09-01T00:00 | 10576 | 242 | -41.9 | -74.4 | 266 | 27 |
| 2023-09-01T00:00 | 10597 | 242 | -42.0 | -74.5 | 266 | 27 |
| 2023-09-01T00:00 | 10617 | 241 | -42.0 | -75.0 | 267 | 27 |
| 2023-09-01T00:00 | 10638 | 240 | -42.0 | -75.0 | 268 | 27 |
| 2023-09-01T00:00 | 10658 | 240 | -42.0 | -75.0 | 269 | 26 |
| 2023-09-01T00:00 | 10679 | 239 | -42.0 | -75.0 | 271 | 26 |
| 2023-09-01T00:00 | 10701 | 238 | -41.9 | -74.9 | 271 | 25 |
| 2023-09-01T00:00 | 10726 | 237 | -41.6 | -74.7 | 272 | 24 |
| 2023-09-01T00:00 | 10750 | 236 | -41.3 | -75.0 | 273 | 23 |
| 2023-09-01T00:00 | 10769 | 236 | -41.0 | -74.2 | 273 | 22 |
| 2023-09-01T00:00 | 10789 | 235 | -40.9 | -74.2 | 273 | 22 |
| 2023-09-01T00:00 | 10809 | 234 | -40.9 | -74.7 | 274 | 21 |
| 2023-09-01T00:00 | 10832 | 234 | -40.7 | -74.6 | 274 | 20 |
| 2023-09-01T00:00 | 10856 | 233 | -40.7 | -74.6 | 274 | 20 |
| 2023-09-01T00:00 | 10876 | 232 | -40.6 | -74.5 | 273 | 19 |
| 2023-09-01T00:00 | 10896 | 231 | -40.4 | -75.0 | 272 | 19 |
| 2023-09-01T00:00 | 10917 | 231 | -40.4 | -75.0 | 272 | 19 |
| 2023-09-01T00:00 | 10937 | 230 | -40.5 | -75.0 | 272 | 18 |
| 2023-09-01T00:00 | 10957 | 229 | -40.6 | -75.1 | 272 | 18 |
| 2023-09-01T00:00 | 10977 | 229 | -40.7 | -75.2 | 272 | 19 |
| 2023-09-01T00:00 | 10999 | 228 | -40.9 | -75.3 | 271 | 19 |
| 2023-09-01T00:00 | 11022 | 227 | -40.9 | -75.3 | 270 | 19 |
| 2023-09-01T00:00 | 11046 | 226 | -41.0 | -74.8 | 270 | 20 |
| 2023-09-01T00:00 | 11072 | 225 | -41.2 | -74.9 | 269 | 20 |
| 2023-09-01T00:00 | 11096 | 225 | -41.4 | -75.1 | 269 | 20 |
| 2023-09-01T00:00 | 11122 | 224 | -41.6 | -75.2 | 268 | 20 |
| 2023-09-01T00:00 | 11143 | 223 | -41.8 | -75.4 | 268 | 20 |
| 2023-09-01T00:00 | 11166 | 222 | -42.0 | -75.5 | 267 | 21 |
| 2023-09-01T00:00 | 11186 | 222 | -42.2 | -75.7 | 265 | 21 |
| 2023-09-01T00:00 | 11209 | 221 | -42.3 | -75.8 | 264 | 21 |
| 2023-09-01T00:00 | 11230 | 220 | -42.4 | -75.8 | 263 | 21 |
| 2023-09-01T00:00 | 11253 | 220 | -42.5 | -75.9 | 263 | 22 |
| 2023-09-01T00:00 | 11276 | 219 | -42.6 | -76.0 | 264 | 22 |
| 2023-09-01T00:00 | 11297 | 218 | -42.7 | -76.0 | 265 | 22 |
| 2023-09-01T00:00 | 11319 | 217 | -42.8 | -76.1 | 267 | 22 |
| 2023-09-01T00:00 | 11341 | 217 | -42.8 | -75.6 | 268 | 22 |
| 2023-09-01T00:00 | 11362 | 216 | -42.9 | -75.6 | 269 | 22 |
| 2023-09-01T00:00 | 11382 | 215 | -42.9 | -75.6 | 270 | 22 |
| 2023-09-01T00:00 | 11403 | 215 | -43.0 | -75.7 | 270 | 22 |
| 2023-09-01T00:00 | 11425 | 214 | -43.1 | -75.8 | 270 | 23 |
| 2023-09-01T00:00 | 11444 | 213 | -43.0 | -75.7 | 269 | 23 |
| 2023-09-01T00:00 | 11464 | 213 | -42.8 | -75.6 | 269 | 23 |
| 2023-09-01T00:00 | 11485 | 212 | -42.9 | -75.6 | 268 | 23 |
| 2023-09-01T00:00 | 11505 | 211 | -43.1 | -75.8 | 268 | 23 |
| 2023-09-01T00:00 | 11523 | 211 | -43.2 | -75.9 | 268 | 23 |
| 2023-09-01T00:00 | 11544 | 210 | -43.1 | -75.8 | 269 | 23 |
| 2023-09-01T00:00 | 11562 | 210 | -43.2 | -75.9 | 269 | 22 |
| 2023-09-01T00:00 | 11581 | 209 | -42.9 | -76.2 | 270 | 22 |
| 2023-09-01T00:00 | 11602 | 208 | -42.9 | -76.2 | 271 | 22 |
| 2023-09-01T00:00 | 11623 | 208 | -42.8 | -76.1 | 271 | 22 |
| 2023-09-01T00:00 | 11640 | 207 | -42.5 | -75.9 | 272 | 21 |
| 2023-09-01T00:00 | 11661 | 207 | -42.3 | -76.4 | 273 | 21 |
| 2023-09-01T00:00 | 11682 | 206 | -42.4 | -76.4 | 274 | 21 |
| 2023-09-01T00:00 | 11699 | 205 | -42.5 | -76.5 | 275 | 21 |
| 2023-09-01T00:00 | 11716 | 205 | -42.5 | -75.9 | 276 | 21 |
| 2023-09-01T00:00 | 11737 | 204 | -42.7 | -76.0 | 277 | 21 |
| 2023-09-01T00:00 | 11757 | 204 | -42.8 | -76.7 | 278 | 21 |
| 2023-09-01T00:00 | 11775 | 203 | -42.8 | -76.7 | 278 | 21 |
| 2023-09-01T00:00 | 11797 | 202 | -42.8 | -76.7 | 278 | 21 |
| 2023-09-01T00:00 | 11817 | 202 | -42.9 | -76.8 | 278 | 20 |
| 2023-09-01T00:00 | 11839 | 201 | -42.8 | -76.7 | 277 | 20 |
| 2023-09-01T00:00 | 11860 | 201 | -42.8 | -76.7 | 276 | 20 |
| 2023-09-01T00:00 | 11880 | 200 | -42.9 | -76.8 | 275 | 19 |
| 2023-09-01T00:00 | 11901 | 199 | -43.0 | -76.9 | 274 | 19 |
| 2023-09-01T00:00 | 11922 | 199 | -43.1 | -76.9 | 273 | 19 |
| 2023-09-01T00:00 | 11942 | 198 | -43.2 | -77.0 | 272 | 18 |
| 2023-09-01T00:00 | 11963 | 198 | -43.4 | -77.2 | 272 | 18 |
| 2023-09-01T00:00 | 11985 | 197 | -43.4 | -77.2 | 271 | 18 |
| 2023-09-01T00:00 | 12004 | 196 | -43.3 | -77.1 | 271 | 18 |
| 2023-09-01T00:00 | 12026 | 196 | -43.3 | -77.1 | 270 | 18 |
| 2023-09-01T00:00 | 12045 | 195 | -43.4 | -77.2 | 269 | 18 |
| 2023-09-01T00:00 | 12066 | 195 | -43.4 | -77.2 | 268 | 17 |
| 2023-09-01T00:00 | 12089 | 194 | -43.4 | -77.2 | 267 | 17 |
| 2023-09-01T00:00 | 12110 | 193 | -43.4 | -77.2 | 266 | 17 |
| 2023-09-01T00:00 | 12132 | 193 | -43.4 | -77.2 | 265 | 17 |
| 2023-09-01T00:00 | 12152 | 192 | -43.4 | -77.8 | 265 | 17 |
| 2023-09-01T00:00 | 12172 | 191 | -43.5 | -77.9 | 265 | 17 |
| 2023-09-01T00:00 | 12197 | 191 | -43.4 | -77.8 | 265 | 17 |
| 2023-09-01T00:00 | 12218 | 190 | -43.6 | -78.0 | 264 | 18 |
| 2023-09-01T00:00 | 12242 | 190 | -43.8 | -77.4 | 264 | 18 |
| 2023-09-01T00:00 | 12264 | 189 | -44.0 | -77.6 | 264 | 18 |
| 2023-09-01T00:00 | 12285 | 188 | -44.1 | -77.7 | 264 | 19 |
| 2023-09-01T00:00 | 12308 | 188 | -44.2 | -77.7 | 263 | 19 |
| 2023-09-01T00:00 | 12329 | 187 | -44.3 | -77.8 | 263 | 19 |
| 2023-09-01T00:00 | 12349 | 186 | -44.4 | -77.9 | 264 | 19 |
| 2023-09-01T00:00 | 12371 | 186 | -44.6 | -78.0 | 264 | 19 |
| 2023-09-01T00:00 | 12392 | 185 | -44.8 | -78.2 | 264 | 20 |
| 2023-09-01T00:00 | 12413 | 185 | -45.0 | -77.7 | 264 | 19 |
| 2023-09-01T00:00 | 12438 | 184 | -45.0 | -77.7 | 264 | 19 |
| 2023-09-01T00:00 | 12459 | 183 | -45.2 | -77.9 | 264 | 19 |
| 2023-09-01T00:00 | 12484 | 183 | -45.2 | -77.9 | 264 | 19 |
| 2023-09-01T00:00 | 12509 | 182 | -45.3 | -78.0 | 264 | 19 |
| 2023-09-01T00:00 | 12530 | 182 | -45.4 | -78.0 | 263 | 19 |
| 2023-09-01T00:00 | 12551 | 181 | -45.5 | -78.1 | 263 | 20 |
| 2023-09-01T00:00 | 12575 | 180 | -45.7 | -78.2 | 263 | 20 |
| 2023-09-01T00:00 | 12600 | 180 | -45.9 | -78.4 | 263 | 20 |
| 2023-09-01T00:00 | 12622 | 179 | -46.1 | -78.5 | 263 | 20 |
| 2023-09-01T00:00 | 12644 | 178 | -46.2 | -78.1 | 263 | 20 |
| 2023-09-01T00:00 | 12668 | 178 | -46.4 | -78.2 | 263 | 19 |
| 2023-09-01T00:00 | 12689 | 177 | -46.4 | -78.8 | 263 | 19 |
| 2023-09-01T00:00 | 12710 | 177 | -46.5 | -78.8 | 263 | 18 |
| 2023-09-01T00:00 | 12731 | 176 | -46.1 | -79.1 | 263 | 18 |
| 2023-09-01T00:00 | 12753 | 176 | -46.0 | -79.1 | 263 | 18 |
| 2023-09-01T00:00 | 12773 | 175 | -46.2 | -79.2 | 262 | 19 |
| 2023-09-01T00:00 | 12795 | 174 | -46.1 | -79.1 | 262 | 19 |
| 2023-09-01T00:00 | 12817 | 174 | -45.8 | -78.9 | 261 | 19 |
| 2023-09-01T00:00 | 12837 | 173 | -45.9 | -78.4 | 261 | 18 |
| 2023-09-01T00:00 | 12859 | 173 | -45.7 | -78.2 | 261 | 18 |
| 2023-09-01T00:00 | 12877 | 172 | -45.6 | -78.8 | 262 | 17 |
| 2023-09-01T00:00 | 12897 | 172 | -45.6 | -78.8 | 262 | 17 |
| 2023-09-01T00:00 | 12918 | 171 | -45.6 | -78.8 | 263 | 16 |
| 2023-09-01T00:00 | 12939 | 171 | -45.7 | -78.8 | 264 | 16 |
| 2023-09-01T00:00 | 12959 | 170 | -45.4 | -79.3 | 265 | 16 |
| 2023-09-01T00:00 | 12979 | 170 | -44.8 | -78.8 | 267 | 16 |
| 2023-09-01T00:00 | 13001 | 169 | -44.7 | -78.8 | 268 | 16 |
| 2023-09-01T00:00 | 13021 | 169 | -44.6 | -78.7 | 270 | 15 |
| 2023-09-01T00:00 | 13041 | 168 | -44.6 | -78.7 | 271 | 15 |
| 2023-09-01T00:00 | 13060 | 168 | -44.7 | -78.8 | 272 | 15 |
| 2023-09-01T00:00 | 13081 | 167 | -44.8 | -78.8 | 273 | 15 |
| 2023-09-01T00:00 | 13102 | 167 | -44.9 | -78.9 | 273 | 15 |
| 2023-09-01T00:00 | 13124 | 166 | -45.0 | -79.0 | 272 | 15 |
| 2023-09-01T00:00 | 13147 | 165 | -45.2 | -79.1 | 272 | 14 |
| 2023-09-01T00:00 | 13167 | 165 | -45.3 | -79.2 | 271 | 14 |
| 2023-09-01T00:00 | 13188 | 164 | -45.5 | -79.3 | 271 | 14 |
| 2023-09-01T00:00 | 13210 | 164 | -45.7 | -79.5 | 271 | 14 |
| 2023-09-01T00:00 | 13230 | 163 | -45.9 | -79.6 | 270 | 14 |
| 2023-09-01T00:00 | 13252 | 163 | -45.9 | -79.6 | 270 | 13 |
| 2023-09-01T00:00 | 13273 | 162 | -46.0 | -79.7 | 269 | 13 |
| 2023-09-01T00:00 | 13296 | 162 | -46.2 | -79.8 | 267 | 12 |
| 2023-09-01T00:00 | 13319 | 161 | -46.0 | -79.7 | 266 | 12 |
| 2023-09-01T00:00 | 13339 | 161 | -46.1 | -79.8 | 264 | 12 |
| 2023-09-01T00:00 | 13358 | 160 | -46.2 | -79.8 | 262 | 12 |
| 2023-09-01T00:00 | 13380 | 160 | -46.4 | -80.0 | 259 | 12 |
| 2023-09-01T00:00 | 13404 | 159 | -46.6 | -80.1 | 258 | 12 |
| 2023-09-01T00:00 | 13422 | 159 | -46.8 | -80.3 | 257 | 12 |
| 2023-09-01T00:00 | 13445 | 158 | -47.0 | -79.8 | 257 | 12 |
| 2023-09-01T00:00 | 13467 | 158 | -47.1 | -79.9 | 257 | 12 |
| 2023-09-01T00:00 | 13487 | 157 | -47.1 | -79.9 | 256 | 12 |
| 2023-09-01T00:00 | 13506 | 157 | -47.2 | -80.6 | 255 | 12 |
| 2023-09-01T00:00 | 13529 | 156 | -47.2 | -80.6 | 253 | 12 |
| 2023-09-01T00:00 | 13547 | 156 | -47.1 | -80.5 | 251 | 12 |
| 2023-09-01T00:00 | 13570 | 155 | -47.2 | -80.6 | 249 | 12 |
| 2023-09-01T00:00 | 13590 | 155 | -47.2 | -80.6 | 246 | 12 |
| 2023-09-01T00:00 | 13609 | 154 | -47.3 | -80.6 | 245 | 12 |
| 2023-09-01T00:00 | 13630 | 154 | -47.4 | -80.7 | 244 | 13 |
| 2023-09-01T00:00 | 13651 | 153 | -47.6 | -80.2 | 244 | 13 |
| 2023-09-01T00:00 | 13670 | 153 | -47.6 | -80.2 | 244 | 13 |
| 2023-09-01T00:00 | 13691 | 152 | -47.7 | -80.3 | 245 | 13 |
| 2023-09-01T00:00 | 13711 | 152 | -47.8 | -80.4 | 246 | 13 |
| 2023-09-01T00:00 | 13733 | 151 | -48.0 | -81.2 | 248 | 13 |
| 2023-09-01T00:00 | 13752 | 151 | -47.9 | -81.1 | 249 | 13 |
| 2023-09-01T00:00 | 13775 | 151 | -47.8 | -81.0 | 250 | 14 |
| 2023-09-01T00:00 | 13798 | 150 | -47.7 | -80.9 | 251 | 14 |
| 2023-09-01T00:00 | 13819 | 150 | -47.8 | -81.0 | 252 | 14 |
| 2023-09-01T00:00 | 13842 | 149 | -47.6 | -80.9 | 252 | 14 |
| 2023-09-01T00:00 | 13862 | 149 | -47.4 | -80.7 | 253 | 14 |
| 2023-09-01T00:00 | 13885 | 148 | -47.6 | -80.9 | 254 | 14 |
| 2023-09-01T00:00 | 13908 | 148 | -47.5 | -80.8 | 256 | 14 |
| 2023-09-01T00:00 | 13930 | 147 | -47.6 | -80.9 | 258 | 14 |
| 2023-09-01T00:00 | 13952 | 147 | -47.7 | -80.9 | 260 | 14 |
| 2023-09-01T00:00 | 13974 | 146 | -47.8 | -81.0 | 262 | 14 |
| 2023-09-01T00:00 | 13998 | 146 | -47.8 | -81.0 | 263 | 13 |
| 2023-09-01T00:00 | 14020 | 145 | -47.7 | -80.9 | 263 | 13 |
| 2023-09-01T00:00 | 14042 | 145 | -47.8 | -81.0 | 263 | 13 |
| 2023-09-01T00:00 | 14067 | 144 | -47.6 | -80.9 | 263 | 13 |
| 2023-09-01T00:00 | 14090 | 144 | -47.8 | -81.0 | 263 | 13 |
| 2023-09-01T00:00 | 14111 | 143 | -47.9 | -81.1 | 263 | 13 |
| 2023-09-01T00:00 | 14135 | 143 | -47.8 | -81.0 | 262 | 14 |
| 2023-09-01T00:00 | 14158 | 142 | -47.8 | -81.0 | 262 | 14 |
| 2023-09-01T00:00 | 14179 | 142 | -47.9 | -81.1 | 261 | 14 |
| 2023-09-01T00:00 | 14203 | 141 | -47.9 | -81.1 | 261 | 14 |
| 2023-09-01T00:00 | 14225 | 141 | -48.1 | -81.2 | 261 | 15 |
| 2023-09-01T00:00 | 14247 | 140 | -48.0 | -81.2 | 261 | 15 |
| 2023-09-01T00:00 | 14269 | 140 | -48.0 | -81.2 | 262 | 15 |
| 2023-09-01T00:00 | 14291 | 139 | -47.7 | -81.6 | 263 | 15 |
| 2023-09-01T00:00 | 14312 | 139 | -47.5 | -81.5 | 264 | 14 |
| 2023-09-01T00:00 | 14338 | 138 | -47.4 | -81.4 | 265 | 14 |
| 2023-09-01T00:00 | 14359 | 138 | -47.4 | -81.4 | 266 | 13 |
| 2023-09-01T00:00 | 14384 | 137 | -47.6 | -81.6 | 267 | 13 |
| 2023-09-01T00:00 | 14408 | 137 | -47.7 | -81.6 | 268 | 12 |
| 2023-09-01T00:00 | 14432 | 136 | -47.7 | -81.6 | 268 | 11 |
| 2023-09-01T00:00 | 14452 | 136 | -47.8 | -81.7 | 267 | 11 |
| 2023-09-01T00:00 | 14478 | 135 | -48.1 | -81.9 | 267 | 10 |
| 2023-09-01T00:00 | 14502 | 135 | -48.0 | -81.9 | 266 | 10 |
| 2023-09-01T00:00 | 14524 | 134 | -48.2 | -82.0 | 265 | 9 |
| 2023-09-01T00:00 | 14548 | 134 | -48.3 | -82.1 | 265 | 9 |
| 2023-09-01T00:00 | 14571 | 133 | -48.4 | -81.4 | 264 | 8 |
| 2023-09-01T00:00 | 14595 | 133 | -48.6 | -81.6 | 263 | 8 |
| 2023-09-01T00:00 | 14616 | 132 | -48.7 | -81.7 | 262 | 8 |
| 2023-09-01T00:00 | 14640 | 132 | -48.9 | -81.8 | 261 | 8 |
| 2023-09-01T00:00 | 14661 | 132 | -49.1 | -82.0 | 261 | 8 |
| 2023-09-01T00:00 | 14681 | 131 | -49.1 | -82.0 | 260 | 8 |
| 2023-09-01T00:00 | 14703 | 131 | -49.2 | -82.0 | 260 | 8 |
| 2023-09-01T00:00 | 14724 | 130 | -49.0 | -81.9 | 258 | 8 |
| 2023-09-01T00:00 | 14748 | 130 | -49.1 | -82.0 | 256 | 8 |
| 2023-09-01T00:00 | 14770 | 129 | -48.9 | -82.5 | 253 | 9 |
| 2023-09-01T00:00 | 14796 | 129 | -48.8 | -82.4 | 250 | 9 |
| 2023-09-01T00:00 | 14816 | 129 | -48.7 | -82.4 | 249 | 9 |
| 2023-09-01T00:00 | 14838 | 128 | -48.9 | -82.5 | 248 | 9 |
| 2023-09-01T00:00 | 14862 | 128 | -49.0 | -82.6 | 248 | 9 |
| 2023-09-01T00:00 | 14885 | 127 | -49.2 | -82.7 | 250 | 10 |
| 2023-09-01T00:00 | 14908 | 127 | -48.7 | -82.4 | 252 | 10 |
| 2023-09-01T00:00 | 14931 | 126 | -48.6 | -82.3 | 254 | 10 |
| 2023-09-01T00:00 | 14955 | 126 | -48.3 | -82.1 | 257 | 10 |
| 2023-09-01T00:00 | 14976 | 125 | -48.2 | -82.0 | 258 | 10 |
| 2023-09-01T00:00 | 15000 | 125 | -48.3 | -82.1 | 259 | 9 |
| 2023-09-01T00:00 | 15022 | 125 | -48.3 | -82.1 | 259 | 9 |
| 2023-09-01T00:00 | 15049 | 124 | -48.3 | -82.1 | 257 | 8 |
| 2023-09-01T00:00 | 15073 | 124 | -47.9 | -82.6 | 255 | 8 |
| 2023-09-01T00:00 | 15097 | 123 | -47.8 | -82.5 | 253 | 7 |
| 2023-09-01T00:00 | 15119 | 123 | -47.9 | -81.8 | 251 | 7 |
| 2023-09-01T00:00 | 15143 | 122 | -48.0 | -81.9 | 251 | 7 |
| 2023-09-01T00:00 | 15165 | 122 | -48.2 | -82.0 | 250 | 8 |
| 2023-09-01T00:00 | 15190 | 121 | -48.4 | -82.2 | 249 | 8 |
| 2023-09-01T00:00 | 15218 | 121 | -48.6 | -82.3 | 247 | 9 |
| 2023-09-01T00:00 | 15247 | 120 | -48.8 | -82.4 | 245 | 9 |
| 2023-09-01T00:00 | 15271 | 120 | -49.0 | -82.6 | 244 | 10 |
| 2023-09-01T00:00 | 15293 | 120 | -49.2 | -82.7 | 242 | 10 |
| 2023-09-01T00:00 | 15320 | 119 | -49.5 | -82.3 | 242 | 11 |
| 2023-09-01T00:00 | 15343 | 119 | -49.7 | -82.4 | 241 | 11 |
| 2023-09-01T00:00 | 15368 | 118 | -49.8 | -82.5 | 240 | 10 |
| 2023-09-01T00:00 | 15389 | 118 | -49.9 | -82.5 | 240 | 10 |
| 2023-09-01T00:00 | 15412 | 117 | -50.1 | -82.7 | 240 | 9 |
| 2023-09-01T00:00 | 15434 | 117 | -49.9 | -83.2 | 239 | 9 |
| 2023-09-01T00:00 | 15456 | 117 | -49.4 | -82.9 | 238 | 8 |
| 2023-09-01T00:00 | 15480 | 116 | -49.1 | -82.7 | 236 | 7 |
| 2023-09-01T00:00 | 15502 | 116 | -49.1 | -82.7 | 234 | 7 |
| 2023-09-01T00:00 | 15525 | 115 | -49.1 | -82.7 | 230 | 6 |
| 2023-09-01T00:00 | 15551 | 115 | -49.0 | -82.6 | 225 | 6 |
| 2023-09-01T00:00 | 15572 | 115 | -49.0 | -82.6 | 220 | 6 |
| 2023-09-01T00:00 | 15596 | 114 | -49.2 | -82.7 | 215 | 6 |
| 2023-09-01T00:00 | 15617 | 114 | -49.4 | -82.2 | 211 | 6 |
| 2023-09-01T00:00 | 15639 | 113 | -49.5 | -82.3 | 208 | 6 |
| 2023-09-01T00:00 | 15661 | 113 | -49.7 | -82.4 | 206 | 6 |
| 2023-09-01T00:00 | 15682 | 113 | -49.9 | -82.5 | 207 | 7 |
| 2023-09-01T00:00 | 15704 | 112 | -50.1 | -82.7 | 208 | 7 |
| 2023-09-01T00:00 | 15725 | 112 | -50.2 | -82.8 | 211 | 7 |
| 2023-09-01T00:00 | 15746 | 112 | -50.4 | -82.9 | 214 | 7 |
| 2023-09-01T00:00 | 15767 | 111 | -50.4 | -82.9 | 218 | 7 |
| 2023-09-01T00:00 | 15786 | 111 | -50.6 | -83.1 | 221 | 7 |
| 2023-09-01T00:00 | 15807 | 110 | -50.6 | -83.1 | 223 | 7 |
| 2023-09-01T00:00 | 15827 | 110 | -50.5 | -83.0 | 224 | 8 |
| 2023-09-01T00:00 | 15850 | 110 | -50.4 | -82.9 | 222 | 8 |
| 2023-09-01T00:00 | 15871 | 109 | -50.4 | -82.9 | 220 | 8 |
| 2023-09-01T00:00 | 15892 | 109 | -50.4 | -82.9 | 218 | 8 |
| 2023-09-01T00:00 | 15912 | 109 | -50.2 | -83.5 | 217 | 9 |
| 2023-09-01T00:00 | 15933 | 108 | -50.1 | -83.4 | 217 | 9 |
| 2023-09-01T00:00 | 15954 | 108 | -50.2 | -83.5 | 219 | 9 |
| 2023-09-01T00:00 | 15979 | 108 | -49.9 | -83.2 | 221 | 9 |
| 2023-09-01T00:00 | 15998 | 107 | -49.8 | -83.2 | 222 | 9 |
| 2023-09-01T00:00 | 16017 | 107 | -49.6 | -83.0 | 223 | 9 |
| 2023-09-01T00:00 | 16041 | 107 | -49.7 | -83.1 | 224 | 9 |
| 2023-09-01T00:00 | 16063 | 106 | -49.8 | -83.2 | 224 | 9 |
| 2023-09-01T00:00 | 16087 | 106 | -49.6 | -83.0 | 225 | 9 |
| 2023-09-01T00:00 | 16109 | 106 | -49.4 | -83.7 | 224 | 8 |
| 2023-09-01T00:00 | 16133 | 105 | -49.5 | -83.7 | 223 | 7 |
| 2023-09-01T00:00 | 16154 | 105 | -49.3 | -83.6 | 221 | 6 |
| 2023-09-01T00:00 | 16179 | 104 | -49.0 | -83.4 | 219 | 6 |
| 2023-09-01T00:00 | 16202 | 104 | -48.9 | -83.3 | 218 | 5 |
| 2023-09-01T00:00 | 16225 | 104 | -48.6 | -83.1 | 220 | 5 |
| 2023-09-01T00:00 | 16251 | 103 | -48.6 | -83.1 | 223 | 5 |
| 2023-09-01T00:00 | 16272 | 103 | -48.6 | -83.1 | 226 | 5 |
| 2023-09-01T00:00 | 16295 | 103 | -48.7 | -83.2 | 229 | 6 |
| 2023-09-01T00:00 | 16318 | 102 | -48.8 | -83.2 | 232 | 6 |
| 2023-09-01T00:00 | 16343 | 102 | -48.9 | -83.3 | 233 | 6 |
| 2023-09-01T00:00 | 16365 | 101 | -49.0 | -83.4 | 234 | 6 |
| 2023-09-01T00:00 | 16388 | 101 | -49.1 | -82.7 | 235 | 6 |
| 2023-09-01T00:00 | 16410 | 101 | -49.4 | -82.9 | 236 | 6 |
| 2023-09-01T00:00 | 16437 | 100 | -49.6 | -83.0 | 236 | 7 |
| 2023-09-01T00:00 | 16461 | 100 | -49.7 | -83.1 | 236 | 7 |
| 2023-09-01T00:00 | 16486 | 100 | -50.0 | -83.3 | 235 | 7 |
| 2023-09-01T00:00 | 16511 | 99 | -50.1 | -83.4 | 234 | 7 |
| 2023-09-01T00:00 | 16536 | 99 | -50.3 | -83.5 | 232 | 7 |
| 2023-09-01T00:00 | 16558 | 99 | -50.5 | -83.7 | 230 | 7 |
| 2023-09-01T00:00 | 16582 | 98 | -50.6 | -83.7 | 229 | 7 |
| 2023-09-01T00:00 | 16607 | 98 | -50.6 | -83.7 | 228 | 7 |
| 2023-09-01T00:00 | 16633 | 97 | -50.8 | -83.9 | 227 | 7 |
| 2023-09-01T00:00 | 16655 | 97 | -51.0 | -84.0 | 227 | 7 |
| 2023-09-01T00:00 | 16677 | 97 | -51.1 | -84.1 | 226 | 6 |
| 2023-09-01T00:00 | 16700 | 96 | -51.2 | -84.2 | 225 | 6 |
| 2023-09-01T00:00 | 16725 | 96 | -51.2 | -84.2 | 224 | 6 |
| 2023-09-01T00:00 | 16748 | 96 | -51.3 | -84.3 | 223 | 6 |
| 2023-09-01T00:00 | 16772 | 95 | -51.3 | -83.6 | 221 | 6 |
| 2023-09-01T00:00 | 16797 | 95 | -51.4 | -83.6 | 218 | 6 |
| 2023-09-01T00:00 | 16822 | 95 | -51.5 | -83.7 | 216 | 6 |
| 2023-09-01T00:00 | 16845 | 94 | -51.7 | -83.9 | 214 | 6 |
| 2023-09-01T00:00 | 16868 | 94 | -51.9 | -84.0 | 214 | 6 |
| 2023-09-01T00:00 | 16894 | 94 | -51.9 | -84.0 | 214 | 7 |
| 2023-09-01T00:00 | 16917 | 93 | -51.9 | -84.7 | 216 | 7 |
| 2023-09-01T00:00 | 16941 | 93 | -51.6 | -84.5 | 218 | 7 |
| 2023-09-01T00:00 | 16964 | 93 | -51.4 | -84.3 | 222 | 7 |
| 2023-09-01T00:00 | 16986 | 92 | -51.5 | -84.4 | 226 | 7 |
| 2023-09-01T00:00 | 17007 | 92 | -51.3 | -84.3 | 230 | 8 |
| 2023-09-01T00:00 | 17030 | 92 | -51.3 | -84.3 | 234 | 8 |
| 2023-09-01T00:00 | 17055 | 91 | -51.5 | -84.4 | 238 | 7 |
| 2023-09-01T00:00 | 17077 | 91 | -51.6 | -84.5 | 242 | 7 |
| 2023-09-01T00:00 | 17100 | 91 | -51.7 | -84.5 | 247 | 7 |
| 2023-09-01T00:00 | 17124 | 90 | -51.5 | -84.4 | 251 | 7 |
| 2023-09-01T00:00 | 17147 | 90 | -51.4 | -84.3 | 254 | 6 |
| 2023-09-01T00:00 | 17169 | 90 | -51.2 | -84.2 | 256 | 6 |
| 2023-09-01T00:00 | 17194 | 89 | -51.0 | -84.8 | 256 | 5 |
| 2023-09-01T00:00 | 17222 | 89 | -50.6 | -84.5 | 255 | 4 |
| 2023-09-01T00:00 | 17250 | 89 | -50.5 | -84.5 | 252 | 4 |
| 2023-09-01T00:00 | 17275 | 88 | -50.5 | -84.5 | 246 | 3 |
| 2023-09-01T00:00 | 17303 | 88 | -50.5 | -83.7 | 237 | 2 |
| 2023-09-01T00:00 | 17328 | 88 | -50.7 | -83.8 | 225 | 2 |
| 2023-09-01T00:00 | 17350 | 87 | -50.9 | -84.0 | 214 | 2 |
| 2023-09-01T00:00 | 17373 | 87 | -51.1 | -84.1 | 207 | 3 |
| 2023-09-01T00:00 | 17396 | 87 | -51.2 | -84.2 | 202 | 3 |
| 2023-09-01T00:00 | 17419 | 86 | -51.3 | -84.3 | 199 | 3 |
| 2023-09-01T00:00 | 17442 | 86 | -51.5 | -84.4 | 196 | 4 |
| 2023-09-01T00:00 | 17467 | 86 | -51.6 | -84.5 | 195 | 4 |
| 2023-09-01T00:00 | 17488 | 85 | -51.7 | -84.5 | 194 | 4 |
| 2023-09-01T00:00 | 17510 | 85 | -51.7 | -84.5 | 194 | 5 |
| 2023-09-01T00:00 | 17537 | 85 | -51.9 | -84.7 | 195 | 5 |
| 2023-09-01T00:00 | 17560 | 84 | -51.9 | -84.7 | 197 | 5 |
| 2023-09-01T00:00 | 17582 | 84 | -51.9 | -84.7 | 201 | 4 |
| 2023-09-01T00:00 | 17606 | 84 | -51.9 | -84.7 | 205 | 4 |
| 2023-09-01T00:00 | 17627 | 84 | -51.9 | -84.7 | 210 | 4 |
| 2023-09-01T00:00 | 17652 | 83 | -51.9 | -84.7 | 214 | 4 |
| 2023-09-01T00:00 | 17675 | 83 | -51.8 | -84.6 | 218 | 4 |
| 2023-09-01T00:00 | 17699 | 83 | -51.7 | -84.5 | 219 | 4 |
| 2023-09-01T00:00 | 17720 | 82 | -51.6 | -84.5 | 220 | 4 |
| 2023-09-01T00:00 | 17747 | 82 | -51.4 | -84.3 | 218 | 4 |
| 2023-09-01T00:00 | 17769 | 82 | -51.6 | -84.5 | 216 | 4 |
| 2023-09-01T00:00 | 17795 | 81 | -51.7 | -84.5 | 212 | 4 |
| 2023-09-01T00:00 | 17818 | 81 | -51.8 | -84.6 | 206 | 4 |
| 2023-09-01T00:00 | 17843 | 81 | -51.9 | -84.7 | 200 | 4 |
| 2023-09-01T00:00 | 17870 | 81 | -52.0 | -84.8 | 194 | 4 |
| 2023-09-01T00:00 | 17892 | 80 | -52.1 | -84.2 | 190 | 5 |
| 2023-09-01T00:00 | 17917 | 80 | -52.3 | -84.3 | 187 | 5 |
| 2023-09-01T00:00 | 17943 | 80 | -52.5 | -84.4 | 186 | 5 |
| 2023-09-01T00:00 | 17961 | 79 | -52.7 | -84.6 | 186 | 5 |
| 2023-09-01T00:00 | 17987 | 79 | -52.8 | -84.7 | 187 | 5 |
| 2023-09-01T00:00 | 18011 | 79 | -52.7 | -84.6 | 189 | 5 |
| 2023-09-01T00:00 | 18033 | 78 | -52.7 | -84.6 | 190 | 4 |
| 2023-09-01T00:00 | 18058 | 78 | -52.5 | -84.4 | 191 | 4 |
| 2023-09-01T00:00 | 18079 | 78 | -52.5 | -85.1 | 190 | 4 |
| 2023-09-01T00:00 | 18102 | 78 | -52.5 | -85.1 | 189 | 5 |
| 2023-09-01T00:00 | 18125 | 77 | -52.5 | -85.1 | 187 | 5 |
| 2023-09-01T00:00 | 18150 | 77 | -52.6 | -85.2 | 185 | 5 |
| 2023-09-01T00:00 | 18173 | 77 | -52.5 | -85.1 | 183 | 5 |
| 2023-09-01T00:00 | 18197 | 77 | -52.5 | -85.1 | 182 | 5 |
| 2023-09-01T00:00 | 18220 | 76 | -52.6 | -85.2 | 182 | 5 |
| 2023-09-01T00:00 | 18244 | 76 | -52.6 | -85.2 | 183 | 5 |
| 2023-09-01T00:00 | 18266 | 76 | -52.7 | -85.3 | 187 | 5 |
| 2023-09-01T00:00 | 18289 | 75 | -52.7 | -84.6 | 192 | 5 |
| 2023-09-01T00:00 | 18313 | 75 | -52.9 | -84.7 | 199 | 5 |
| 2023-09-01T00:00 | 18336 | 75 | -52.9 | -84.7 | 205 | 5 |
| 2023-09-01T00:00 | 18357 | 75 | -52.9 | -84.7 | 212 | 5 |
| 2023-09-01T00:00 | 18381 | 74 | -53.0 | -84.8 | 217 | 5 |
| 2023-09-01T00:00 | 18405 | 74 | -53.1 | -84.9 | 221 | 5 |
| 2023-09-01T00:00 | 18429 | 74 | -53.1 | -84.9 | 224 | 5 |
| 2023-09-01T00:00 | 18446 | 74 | -53.0 | -85.5 | 227 | 5 |
| 2023-09-01T00:00 | 18475 | 73 | -52.9 | -85.4 | 230 | 5 |
| 2023-09-01T00:00 | 18497 | 73 | -52.8 | -85.3 | 234 | 5 |
| 2023-09-01T00:00 | 18519 | 73 | -52.8 | -85.3 | 236 | 5 |
| 2023-09-01T00:00 | 18545 | 73 | -52.5 | -85.1 | 237 | 4 |
| 2023-09-01T00:00 | 18570 | 72 | -52.5 | -85.1 | 236 | 4 |
| 2023-09-01T00:00 | 18590 | 72 | -52.5 | -85.1 | 233 | 4 |
| 2023-09-01T00:00 | 18614 | 72 | -52.6 | -85.2 | 226 | 4 |
| 2023-09-01T00:00 | 18635 | 71 | -52.8 | -85.3 | 219 | 3 |
| 2023-09-01T00:00 | 18660 | 71 | -52.8 | -85.3 | 212 | 4 |
| 2023-09-01T00:00 | 18683 | 71 | -52.7 | -85.3 | 207 | 4 |
| 2023-09-01T00:00 | 18708 | 71 | -52.5 | -85.1 | 202 | 4 |
| 2023-09-01T00:00 | 18729 | 70 | -52.4 | -85.1 | 198 | 4 |
| 2023-09-01T00:00 | 18751 | 70 | -52.6 | -85.2 | 195 | 5 |
| 2023-09-01T00:00 | 18775 | 70 | -52.8 | -85.3 | 193 | 5 |
| 2023-09-01T00:00 | 18800 | 70 | -52.9 | -85.4 | 192 | 5 |
| 2023-09-01T00:00 | 18820 | 69 | -53.0 | -85.5 | 192 | 6 |
| 2023-09-01T00:00 | 18841 | 69 | -53.1 | -85.6 | 194 | 6 |
| 2023-09-01T00:00 | 18870 | 69 | -53.3 | -85.7 | 196 | 6 |
| 2023-09-01T00:00 | 18894 | 69 | -53.3 | -85.7 | 200 | 6 |
| 2023-09-01T00:00 | 18917 | 68 | -53.1 | -85.6 | 204 | 5 |
| 2023-09-01T00:00 | 18939 | 68 | -52.6 | -85.2 | 210 | 5 |
| 2023-09-01T00:00 | 18963 | 68 | -52.3 | -85.0 | 217 | 4 |
| 2023-09-01T00:00 | 18983 | 68 | -52.1 | -85.6 | 225 | 4 |
| 2023-09-01T00:00 | 19009 | 67 | -52.2 | -85.7 | 234 | 4 |
| 2023-09-01T00:00 | 19032 | 67 | -52.3 | -85.0 | 242 | 3 |
| 2023-09-01T00:00 | 19059 | 67 | -52.3 | -85.0 | 250 | 3 |
| 2023-09-01T00:00 | 19081 | 67 | -52.3 | -85.0 | 256 | 3 |
| 2023-09-01T00:00 | 19106 | 66 | -52.4 | -85.1 | 260 | 3 |
| 2023-09-01T00:00 | 19129 | 66 | -52.2 | -84.9 | 262 | 3 |
| 2023-09-01T00:00 | 19158 | 66 | -52.1 | -84.8 | 260 | 3 |
| 2023-09-01T00:00 | 19181 | 66 | -52.3 | -85.0 | 254 | 2 |
| 2023-09-01T00:00 | 19211 | 65 | -52.2 | -84.9 | 242 | 2 |
| 2023-09-01T00:00 | 19234 | 65 | -52.2 | -84.9 | 218 | 1 |
| 2023-09-01T00:00 | 19258 | 65 | -52.3 | -85.0 | 187 | 1 |
| 2023-09-01T00:00 | 19283 | 65 | -52.4 | -85.1 | 168 | 2 |
| 2023-09-01T00:00 | 19306 | 64 | -52.4 | -85.1 | 160 | 2 |
| 2023-09-01T00:00 | 19333 | 64 | -52.4 | -85.1 | 160 | 3 |
| 2023-09-01T00:00 | 19359 | 64 | -52.4 | -85.1 | 162 | 3 |
| 2023-09-01T00:00 | 19383 | 64 | -52.2 | -84.9 | 165 | 4 |
| 2023-09-01T00:00 | 19405 | 63 | -52.0 | -84.8 | 169 | 4 |
| 2023-09-01T00:00 | 19430 | 63 | -52.0 | -84.8 | 173 | 5 |
| 2023-09-01T00:00 | 19453 | 63 | -52.1 | -84.8 | 176 | 5 |
| 2023-09-01T00:00 | 19478 | 63 | -52.3 | -85.0 | 179 | 6 |
| 2023-09-01T00:00 | 19505 | 63 | -52.4 | -85.1 | 182 | 6 |
| 2023-09-01T00:00 | 19528 | 62 | -52.6 | -85.2 | 185 | 6 |
| 2023-09-01T00:00 | 19557 | 62 | -52.8 | -85.3 | 190 | 7 |
| 2023-09-01T00:00 | 19578 | 62 | -53.0 | -85.5 | 196 | 7 |
| 2023-09-01T00:00 | 19602 | 62 | -52.7 | -85.3 | 203 | 7 |
| 2023-09-01T00:00 | 19624 | 61 | -52.5 | -85.1 | 211 | 7 |
| 2023-09-01T00:00 | 19651 | 61 | -52.4 | -85.1 | 218 | 7 |
| 2023-09-01T00:00 | 19676 | 61 | -52.4 | -85.1 | 226 | 7 |
| 2023-09-01T00:00 | 19698 | 61 | -52.3 | -85.8 | 233 | 6 |
| 2023-09-01T00:00 | 19721 | 60 | -52.2 | -85.7 | 241 | 6 |
| 2023-09-01T00:00 | 19748 | 60 | -51.9 | -85.5 | 248 | 6 |
| 2023-09-01T00:00 | 19772 | 60 | -51.8 | -85.4 | 254 | 5 |
| 2023-09-01T00:00 | 19793 | 60 | -51.6 | -85.2 | 259 | 5 |
| 2023-09-01T00:00 | 19819 | 60 | -51.4 | -85.1 | 262 | 4 |
| 2023-09-01T00:00 | 19841 | 59 | -51.4 | -85.1 | 263 | 4 |
| 2023-09-01T00:00 | 19868 | 59 | -51.3 | -85.0 | 262 | 3 |
| 2023-09-01T00:00 | 19893 | 59 | -51.4 | -85.1 | 259 | 3 |
| 2023-09-01T00:00 | 19917 | 59 | -51.5 | -85.2 | 254 | 2 |
| 2023-09-01T00:00 | 19939 | 58 | -51.6 | -85.2 | 247 | 2 |
| 2023-09-01T00:00 | 19963 | 58 | -51.7 | -85.3 | 233 | 1 |
| 2023-09-01T00:00 | 19989 | 58 | -51.7 | -85.3 | 207 | 1 |
| 2023-09-01T00:00 | 20013 | 58 | -51.8 | -85.4 | 182 | 1 |
| 2023-09-01T00:00 | 20037 | 58 | -51.8 | -85.4 | 170 | 1 |
| 2023-09-01T00:00 | 20061 | 57 | -51.8 | -85.4 | 166 | 2 |
| 2023-09-01T00:00 | 20083 | 57 | -51.7 | -85.3 | 166 | 2 |
| 2023-09-01T00:00 | 20110 | 57 | -51.6 | -85.2 | 163 | 2 |
| 2023-09-01T00:00 | 20130 | 57 | -51.5 | -85.2 | 157 | 2 |
| 2023-09-01T00:00 | 20155 | 57 | -51.4 | -85.1 | 147 | 2 |
| 2023-09-01T00:00 | 20179 | 56 | -51.2 | -85.0 | 134 | 2 |
| 2023-09-01T00:00 | 20203 | 56 | -51.1 | -84.9 | 117 | 1 |
| 2023-09-01T00:00 | 20229 | 56 | -51.1 | -84.9 | 87 | 1 |
| 2023-09-01T00:00 | 20251 | 56 | -50.9 | -84.7 | 37 | 1 |
| 2023-09-01T00:00 | 20274 | 56 | -50.8 | -84.7 | 4 | 1 |
| 2023-09-01T00:00 | 20301 | 55 | -50.8 | -84.7 | 353 | 1 |
| 2023-09-01T00:00 | 20324 | 55 | -50.9 | -84.7 | 353 | 1 |
| 2023-09-01T00:00 | 20352 | 55 | -50.7 | -84.6 | 1 | 1 |
| 2023-09-01T00:00 | 20376 | 55 | -50.7 | -84.6 | 19 | 1 |
| 2023-09-01T00:00 | 20402 | 54 | -50.8 | -84.7 | 54 | 1 |
| 2023-09-01T00:00 | 20426 | 54 | -50.9 | -84.7 | 95 | 1 |
| 2023-09-01T00:00 | 20453 | 54 | -51.1 | -84.9 | 118 | 2 |
| 2023-09-01T00:00 | 20476 | 54 | -51.3 | -85.0 | 128 | 2 |
| 2023-09-01T00:00 | 20503 | 54 | -51.2 | -85.0 | 132 | 3 |
| 2023-09-01T00:00 | 20530 | 53 | -51.0 | -84.8 | 135 | 4 |
| 2023-09-01T00:00 | 20558 | 53 | -51.1 | -84.9 | 137 | 5 |
| 2023-09-01T00:00 | 20581 | 53 | -51.3 | -85.0 | 139 | 6 |
| 2023-09-01T00:00 | 20601 | 53 | -51.3 | -85.0 | 142 | 6 |
| 2023-09-01T00:00 | 20629 | 53 | -51.3 | -85.0 | 145 | 6 |
| 2023-09-01T00:00 | 20657 | 52 | -51.1 | -84.9 | 149 | 6 |
| 2023-09-01T00:00 | 20681 | 52 | -50.9 | -84.7 | 153 | 6 |
| 2023-09-01T00:00 | 20705 | 52 | -50.9 | -84.7 | 157 | 5 |
| 2023-09-01T00:00 | 20731 | 52 | -50.9 | -84.7 | 161 | 5 |
| 2023-09-01T00:00 | 20760 | 52 | -51.0 | -84.8 | 166 | 4 |
| 2023-09-01T00:00 | 20784 | 51 | -50.9 | -84.7 | 170 | 4 |
| 2023-09-01T00:00 | 20812 | 51 | -51.0 | -84.8 | 173 | 3 |
| 2023-09-01T00:00 | 20838 | 51 | -51.1 | -84.9 | 175 | 3 |
| 2023-09-01T00:00 | 20860 | 51 | -51.1 | -84.9 | 176 | 3 |
| 2023-09-01T00:00 | 20886 | 51 | -51.1 | -84.9 | 178 | 2 |
| 2023-09-01T00:00 | 20916 | 50 | -51.3 | -85.0 | 181 | 2 |
| 2023-09-01T00:00 | 20941 | 50 | -51.4 | -85.1 | 185 | 2 |
| 2023-09-01T00:00 | 20968 | 50 | -51.4 | -85.1 | 190 | 2 |
| 2023-09-01T00:00 | 20993 | 50 | -51.5 | -85.2 | 196 | 2 |
| 2023-09-01T00:00 | 21019 | 50 | -51.3 | -85.0 | 207 | 2 |
| 2023-09-01T00:00 | 21048 | 49 | -51.2 | -85.0 | 226 | 1 |
| 2023-09-01T00:00 | 21071 | 49 | -51.1 | -84.9 | 256 | 1 |
| 2023-09-01T00:00 | 21100 | 49 | -51.1 | -84.9 | 288 | 1 |
| 2023-09-01T00:00 | 21127 | 49 | -51.2 | -85.0 | 310 | 1 |
| 2023-09-01T00:00 | 21151 | 49 | -51.1 | -84.9 | 330 | 1 |
| 2023-09-01T00:00 | 21175 | 48 | -51.1 | -84.9 | 358 | 1 |
| 2023-09-01T00:00 | 21200 | 48 | -51.2 | -85.0 | 36 | 1 |
| 2023-09-01T00:00 | 21225 | 48 | -51.2 | -85.0 | 61 | 1 |
| 2023-09-01T00:00 | 21250 | 48 | -51.2 | -85.0 | 67 | 2 |
| 2023-09-01T00:00 | 21275 | 48 | -51.2 | -85.0 | 65 | 2 |
| 2023-09-01T00:00 | 21298 | 47 | -51.3 | -85.0 | 60 | 3 |
| 2023-09-01T00:00 | 21324 | 47 | -51.5 | -85.2 | 56 | 3 |
| 2023-09-01T00:00 | 21351 | 47 | -51.6 | -85.2 | 54 | 4 |
| 2023-09-01T00:00 | 21377 | 47 | -51.7 | -85.3 | 56 | 4 |
| 2023-09-01T00:00 | 21403 | 47 | -51.8 | -85.4 | 60 | 4 |
| 2023-09-01T00:00 | 21427 | 46 | -52.0 | -85.5 | 66 | 5 |
| 2023-09-01T00:00 | 21457 | 46 | -52.2 | -85.7 | 73 | 5 |
| 2023-09-01T00:00 | 21481 | 46 | -52.2 | -85.7 | 81 | 5 |
| 2023-09-01T00:00 | 21504 | 46 | -52.0 | -85.5 | 89 | 5 |
| 2023-09-01T00:00 | 21530 | 46 | -51.9 | -85.5 | 97 | 5 |
| 2023-09-01T00:00 | 21557 | 46 | -51.9 | -85.5 | 104 | 4 |
| 2023-09-01T00:00 | 21584 | 45 | -52.0 | -85.5 | 111 | 4 |
| 2023-09-01T00:00 | 21610 | 45 | -52.1 | -85.6 | 117 | 4 |
| 2023-09-01T00:00 | 21638 | 45 | -52.3 | -85.8 | 122 | 3 |
| 2023-09-01T00:00 | 21661 | 45 | -52.4 | -85.8 | 125 | 3 |
| 2023-09-01T00:00 | 21685 | 45 | -52.1 | -85.6 | 127 | 3 |
| 2023-09-01T00:00 | 21713 | 45 | -51.9 | -85.5 | 126 | 3 |
| 2023-09-01T00:00 | 21737 | 44 | -51.9 | -85.5 | 125 | 3 |
| 2023-09-01T00:00 | 21766 | 44 | -51.8 | -85.4 | 124 | 3 |
| 2023-09-01T00:00 | 21790 | 44 | -51.8 | -85.4 | 125 | 4 |
| 2023-09-01T00:00 | 21811 | 44 | -51.8 | -85.4 | 129 | 4 |
| 2023-09-01T00:00 | 21842 | 44 | -51.7 | -85.3 | 136 | 4 |
| 2023-09-01T00:00 | 21862 | 43 | -51.7 | -85.3 | 143 | 4 |
| 2023-09-01T00:00 | 21892 | 43 | -51.8 | -85.4 | 150 | 4 |
| 2023-09-01T00:00 | 21917 | 43 | -51.9 | -85.5 | 156 | 4 |
| 2023-09-01T00:00 | 21940 | 43 | -51.8 | -85.4 | 161 | 4 |
| 2023-09-01T00:00 | 21965 | 43 | -51.7 | -85.3 | 166 | 4 |
| 2023-09-01T00:00 | 21994 | 43 | -51.7 | -85.3 | 170 | 4 |
| 2023-09-01T00:00 | 22021 | 42 | -51.9 | -85.5 | 174 | 4 |
| 2023-09-01T00:00 | 22043 | 42 | -51.9 | -85.5 | 177 | 4 |
| 2023-09-01T00:00 | 22070 | 42 | -51.9 | -85.5 | 178 | 4 |
| 2023-09-01T00:00 | 22098 | 42 | -51.9 | -85.5 | 177 | 4 |
| 2023-09-01T00:00 | 22124 | 42 | -51.9 | -85.5 | 176 | 4 |
| 2023-09-01T00:00 | 22148 | 42 | -51.9 | -85.5 | 175 | 4 |
| 2023-09-01T00:00 | 22178 | 41 | -51.8 | -85.4 | 176 | 3 |
| 2023-09-01T00:00 | 22204 | 41 | -51.8 | -85.4 | 179 | 3 |
| 2023-09-01T00:00 | 22227 | 41 | -51.7 | -85.3 | 183 | 3 |
| 2023-09-01T00:00 | 22259 | 41 | -51.7 | -85.3 | 187 | 3 |
| 2023-09-01T00:00 | 22285 | 41 | -51.7 | -85.3 | 190 | 3 |
| 2023-09-01T00:00 | 22307 | 41 | -51.6 | -85.2 | 191 | 3 |
| 2023-09-01T00:00 | 22337 | 40 | -51.5 | -85.2 | 192 | 3 |
| 2023-09-01T00:00 | 22365 | 40 | -51.6 | -85.2 | 193 | 3 |
| 2023-09-01T00:00 | 22391 | 40 | -51.6 | -85.2 | 195 | 4 |
| 2023-09-01T00:00 | 22418 | 40 | -51.6 | -85.2 | 197 | 4 |
| 2023-09-01T00:00 | 22443 | 40 | -51.7 | -85.3 | 199 | 5 |
| 2023-09-01T00:00 | 22469 | 40 | -51.8 | -85.4 | 201 | 5 |
| 2023-09-01T00:00 | 22496 | 39 | -51.7 | -85.3 | 201 | 5 |
| 2023-09-01T00:00 | 22519 | 39 | -51.5 | -85.2 | 201 | 4 |
| 2023-09-01T00:00 | 22541 | 39 | -51.4 | -85.1 | 201 | 4 |
| 2023-09-01T00:00 | 22570 | 39 | -51.5 | -85.2 | 202 | 3 |
| 2023-09-01T00:00 | 22599 | 39 | -51.7 | -85.3 | 204 | 3 |
| 2023-09-01T00:00 | 22621 | 39 | -51.6 | -85.2 | 206 | 3 |
| 2023-09-01T00:00 | 22648 | 39 | -51.7 | -85.3 | 208 | 3 |
| 2023-09-01T00:00 | 22670 | 38 | -51.7 | -85.3 | 210 | 3 |
| 2023-09-01T00:00 | 22695 | 38 | -51.7 | -85.3 | 211 | 3 |
| 2023-09-01T00:00 | 22724 | 38 | -51.7 | -85.3 | 212 | 3 |
| 2023-09-01T00:00 | 22747 | 38 | -51.7 | -85.3 | 214 | 3 |
| 2023-09-01T00:00 | 22775 | 38 | -51.6 | -85.2 | 216 | 3 |
| 2023-09-01T00:00 | 22800 | 38 | -51.6 | -85.2 | 218 | 2 |
| 2023-09-01T00:00 | 22824 | 37 | -51.8 | -85.4 | 219 | 2 |
| 2023-09-01T00:00 | 22851 | 37 | -51.9 | -85.5 | 216 | 1 |
| 2023-09-01T00:00 | 22877 | 37 | -51.8 | -85.4 | 204 | 1 |
| 2023-09-01T00:00 | 22901 | 37 | -51.7 | -85.3 | 184 | 1 |
| 2023-09-01T00:00 | 22928 | 37 | -51.7 | -85.3 | 167 | 1 |
| 2023-09-01T00:00 | 22949 | 37 | -51.5 | -86.1 | 155 | 1 |
| 2023-09-01T00:00 | 22977 | 37 | -51.4 | -86.0 | 141 | 1 |
| 2023-09-01T00:00 | 23004 | 36 | -51.3 | -85.9 | 122 | 1 |
| 2023-09-01T00:00 | 23029 | 36 | -51.2 | -85.8 | 100 | 1 |
| 2023-09-01T00:00 | 23049 | 36 | -51.3 | -85.9 | 83 | 2 |
| 2023-09-01T00:00 | 23076 | 36 | -51.3 | -85.9 | 73 | 2 |
| 2023-09-01T00:00 | 23101 | 36 | -51.4 | -86.0 | 68 | 2 |
| 2023-09-01T00:00 | 23125 | 36 | -51.2 | -85.8 | 67 | 2 |
| 2023-09-01T00:00 | 23154 | 36 | -51.2 | -85.8 | 68 | 3 |
| 2023-09-01T00:00 | 23175 | 36 | -51.1 | -85.8 | 71 | 3 |
| 2023-09-01T00:00 | 23196 | 35 | -51.1 | -85.8 | 75 | 3 |
| 2023-09-01T00:00 | 23220 | 35 | -51.0 | -85.7 | 82 | 3 |
| 2023-09-01T00:00 | 23247 | 35 | -50.9 | -85.6 | 93 | 3 |
| 2023-09-01T00:00 | 23271 | 35 | -50.8 | -85.6 | 105 | 3 |
| 2023-09-01T00:00 | 23296 | 35 | -50.8 | -85.6 | 117 | 3 |
| 2023-09-01T00:00 | 23320 | 35 | -50.8 | -85.6 | 128 | 3 |
| 2023-09-01T00:00 | 23348 | 35 | -50.9 | -85.6 | 138 | 3 |
| 2023-09-01T00:00 | 23373 | 34 | -51.0 | -85.7 | 150 | 3 |
| 2023-09-01T00:00 | 23390 | 34 | -50.7 | -85.5 | 163 | 2 |
| 2023-09-01T00:00 | 23413 | 34 | -50.5 | -85.3 | 178 | 2 |
| 2023-09-01T00:00 | 23443 | 34 | -50.3 | -85.2 | 191 | 2 |
| 2023-09-01T00:00 | 23468 | 34 | -50.2 | -85.1 | 201 | 2 |
| 2023-09-01T00:00 | 23494 | 34 | -50.1 | -85.1 | 209 | 2 |
| 2023-09-01T00:00 | 23518 | 34 | -50.1 | -85.1 | 216 | 1 |
| 2023-09-01T00:00 | 23545 | 34 | -50.1 | -85.1 | 229 | 1 |
| 2023-09-01T00:00 | 23569 | 33 | -49.9 | -84.9 | 326 | 0 |
| 2023-09-01T00:00 | 23597 | 33 | -49.9 | -84.9 | 21 | 1 |
| 2023-09-01T00:00 | 23617 | 33 | -49.8 | -84.8 | 34 | 1 |
| 2023-09-01T00:00 | 23643 | 33 | -49.9 | -84.9 | 46 | 2 |
| 2023-09-01T00:00 | 23667 | 33 | -50.1 | -85.1 | 59 | 2 |
| 2023-09-01T00:00 | 23701 | 33 | -50.1 | -85.1 | 72 | 3 |
| 2023-09-01T00:00 | 23726 | 33 | -50.0 | -85.0 | 83 | 3 |
| 2023-09-01T00:00 | 23752 | 33 | -49.5 | -84.6 | 93 | 4 |
| 2023-09-01T00:00 | 23780 | 32 | -49.3 | -84.5 | 101 | 4 |
| 2023-09-01T00:00 | 23805 | 32 | -49.4 | -84.6 | 108 | 5 |
| 2023-09-01T00:00 | 23835 | 32 | -49.5 | -84.6 | 113 | 5 |
| 2023-09-01T00:00 | 23863 | 32 | -49.7 | -84.8 | 118 | 6 |
| 2023-09-01T00:00 | 23891 | 32 | -49.7 | -84.8 | 121 | 6 |
| 2023-09-01T00:00 | 23914 | 32 | -49.7 | -84.8 | 124 | 6 |
| 2023-09-01T00:00 | 23943 | 32 | -49.6 | -84.7 | 126 | 6 |
| 2023-09-01T00:00 | 23976 | 31 | -49.3 | -85.5 | 129 | 7 |
| 2023-09-01T00:00 | 24003 | 31 | -49.0 | -85.3 | 133 | 7 |
| 2023-09-01T00:00 | 24034 | 31 | -49.0 | -85.3 | 138 | 7 |
| 2023-09-01T00:00 | 24060 | 31 | -49.0 | -85.3 | 143 | 8 |
| 2023-09-01T00:00 | 24088 | 31 | -49.1 | -85.4 | 150 | 9 |
| 2023-09-01T00:00 | 24121 | 31 | -49.0 | -85.3 | 156 | 9 |
| 2023-09-01T00:00 | 24145 | 31 | -48.8 | -85.2 | 161 | 9 |
| 2023-09-01T00:00 | 24177 | 30 | -48.7 | -85.1 | 166 | 9 |
| 2023-09-01T00:00 | 24205 | 30 | -48.9 | -85.3 | 170 | 10 |
| 2023-09-01T00:00 | 24233 | 30 | -49.0 | -85.3 | 173 | 10 |
| 2023-09-01T00:00 | 24267 | 30 | -49.1 | -85.4 | 175 | 9 |
| 2023-09-01T00:00 | 24291 | 30 | -49.0 | -85.3 | 177 | 9 |
| 2023-09-01T00:00 | 24322 | 30 | -48.9 | -85.3 | 179 | 8 |
| 2023-09-01T00:00 | 24347 | 30 | -48.8 | -85.2 | 183 | 7 |
| 2023-09-01T00:00 | 24384 | 30 | -48.9 | -85.3 | 188 | 6 |
| 2023-09-01T00:00 | 24407 | 29 | -48.9 | -85.3 | 193 | 5 |
| 2023-09-01T00:00 | 24437 | 29 | -48.9 | -85.3 | 198 | 5 |
| 2023-09-01T00:00 | 24464 | 29 | -48.9 | -85.3 | 201 | 5 |
| 2023-09-01T00:00 | 24488 | 29 | -48.9 | -85.3 | 202 | 5 |
| 2023-09-01T00:00 | 24518 | 29 | -48.8 | -85.2 | 203 | 6 |
| 2023-09-01T00:00 | 24539 | 29 | -48.8 | -85.2 | 204 | 6 |
| 2023-09-01T00:00 | 24570 | 29 | -48.9 | -85.3 | 205 | 6 |
| 2023-09-01T00:00 | 24596 | 29 | -48.7 | -85.1 | 206 | 5 |
| 2023-09-01T00:00 | 24621 | 28 | -48.4 | -84.9 | 207 | 5 |
| 2023-09-01T00:00 | 24647 | 28 | -48.3 | -84.8 | 207 | 4 |
| 2023-09-01T00:00 | 24672 | 28 | -48.1 | -84.7 | 206 | 4 |
| 2023-09-01T00:00 | 24702 | 28 | -47.8 | -84.5 | 206 | 4 |
| 2023-09-01T00:00 | 24726 | 28 | -48.0 | -84.6 | 206 | 4 |
| 2023-09-01T00:00 | 24755 | 28 | -48.2 | -84.8 | 206 | 4 |
| 2023-09-01T00:00 | 24775 | 28 | -48.5 | -85.0 | 207 | 4 |
| 2023-09-01T00:00 | 24804 | 28 | -48.7 | -85.1 | 209 | 4 |
| 2023-09-01T00:00 | 24828 | 28 | -48.8 | -85.2 | 211 | 4 |
| 2023-09-01T00:00 | 24858 | 27 | -48.7 | -85.1 | 214 | 4 |
| 2023-09-01T00:00 | 24882 | 27 | -48.6 | -85.0 | 217 | 5 |
| 2023-09-01T00:00 | 24910 | 27 | -48.7 | -85.1 | 220 | 5 |
| 2023-09-01T00:00 | 24934 | 27 | -48.7 | -85.1 | 223 | 5 |
| 2023-09-01T00:00 | 24958 | 27 | -48.7 | -85.1 | 225 | 5 |
| 2023-09-01T00:00 | 24980 | 27 | -48.7 | -85.1 | 225 | 5 |
| 2023-09-01T00:00 | 25010 | 27 | -48.6 | -85.0 | 224 | 5 |
| 2023-09-01T00:00 | 25035 | 27 | -48.7 | -85.1 | 223 | 5 |
| 2023-09-01T00:00 | 25070 | 27 | -48.6 | -85.0 | 222 | 5 |
| 2023-09-01T00:00 | 25090 | 27 | -48.3 | -84.8 | 220 | 5 |
| 2023-09-01T00:00 | 25119 | 26 | -48.0 | -84.6 | 218 | 5 |
| 2023-09-01T00:00 | 25143 | 26 | -47.9 | -84.6 | 217 | 5 |
| 2023-09-01T00:00 | 25166 | 26 | -47.9 | -84.6 | 217 | 5 |
| 2023-09-01T00:00 | 25197 | 26 | -48.0 | -84.6 | 218 | 6 |
| 2023-09-01T00:00 | 25225 | 26 | -47.9 | -84.6 | 220 | 6 |
| 2023-09-01T00:00 | 25249 | 26 | -47.8 | -84.5 | 222 | 6 |
| 2023-09-01T00:00 | 25278 | 26 | -47.8 | -84.5 | 225 | 6 |
| 2023-09-01T00:00 | 25299 | 26 | -47.8 | -84.5 | 228 | 7 |
| 2023-09-01T00:00 | 25332 | 26 | -47.8 | -84.5 | 230 | 7 |
| 2023-09-01T00:00 | 25356 | 25 | -47.8 | -84.5 | 231 | 8 |
| 2023-09-01T00:00 | 25386 | 25 | -47.9 | -84.6 | 232 | 8 |
| 2023-09-01T00:00 | 25416 | 25 | -47.8 | -84.5 | 233 | 8 |
| 2023-09-01T00:00 | 25437 | 25 | -47.9 | -84.6 | 234 | 8 |
| 2023-09-01T00:00 | 25461 | 25 | -47.8 | -84.5 | 235 | 8 |
| 2023-09-01T00:00 | 25499 | 25 | -47.6 | -84.3 | 237 | 7 |
| 2023-09-01T00:00 | 25522 | 25 | -47.6 | -84.3 | 240 | 7 |
| 2023-09-01T00:00 | 25548 | 25 | -47.6 | -84.3 | 244 | 7 |
| 2023-09-01T00:00 | 25576 | 25 | -47.6 | -84.3 | 248 | 7 |
| 2023-09-01T00:00 | 25607 | 25 | -47.4 | -84.2 | 252 | 7 |
| 2023-09-01T00:00 | 25634 | 24 | -47.2 | -84.1 | 256 | 7 |
| 2023-09-01T00:00 | 25665 | 24 | -47.0 | -83.9 | 260 | 7 |
| 2023-09-01T00:00 | 25690 | 24 | -47.0 | -83.9 | 263 | 7 |
| 2023-09-01T00:00 | 25723 | 24 | -47.0 | -83.9 | 267 | 8 |
| 2023-09-01T00:00 | 25744 | 24 | -47.0 | -83.9 | 271 | 8 |
| 2023-09-01T00:00 | 25774 | 24 | -47.2 | -84.1 | 274 | 7 |
| 2023-09-01T00:00 | 25806 | 24 | -47.3 | -84.1 | 278 | 7 |
| 2023-09-01T00:00 | 25830 | 24 | -47.4 | -84.2 | 281 | 7 |
| 2023-09-01T00:00 | 25861 | 24 | -47.3 | -84.1 | 284 | 7 |
| 2023-09-01T00:00 | 25883 | 24 | -47.3 | -84.1 | 288 | 6 |
| 2023-09-01T00:00 | 25913 | 23 | -47.3 | -84.1 | 291 | 6 |
| 2023-09-01T00:00 | 25933 | 23 | -47.2 | -84.1 | 294 | 6 |
| 2023-09-01T00:00 | 25966 | 23 | -47.1 | -84.0 | 297 | 5 |
| 2023-09-01T00:00 | 25986 | 23 | -47.1 | -84.0 | 300 | 5 |
| 2023-09-01T00:00 | 26024 | 23 | -47.1 | -84.0 | 303 | 5 |
| 2023-09-01T00:00 | 26046 | 23 | -47.0 | -83.9 | 306 | 4 |
| 2023-09-01T00:00 | 26074 | 23 | -47.0 | -83.9 | 310 | 4 |
| 2023-09-01T00:00 | 26100 | 23 | -47.0 | -83.9 | 315 | 4 |
| 2023-09-01T00:00 | 26126 | 23 | -46.9 | -83.9 | 321 | 3 |
| 2023-09-01T00:00 | 26163 | 23 | -46.8 | -83.8 | 327 | 3 |
| 2023-09-01T00:00 | 26187 | 22 | -46.5 | -83.6 | 335 | 2 |
| 2023-09-01T00:00 | 26209 | 22 | -46.3 | -83.4 | 349 | 1 |
| 2023-09-01T00:00 | 26234 | 22 | -46.2 | -83.4 | 21 | 1 |
| 2023-09-01T00:00 | 26267 | 22 | -46.1 | -83.3 | 61 | 1 |
| 2023-09-01T00:00 | 26296 | 22 | -46.0 | -83.2 | 76 | 1 |
| 2023-09-01T00:00 | 26321 | 22 | -46.1 | -83.3 | 80 | 1 |
| 2023-09-01T00:00 | 26351 | 22 | -46.0 | -83.2 | 82 | 1 |
| 2023-09-01T00:00 | 26379 | 22 | -46.1 | -83.3 | 87 | 1 |
| 2023-09-01T00:00 | 26403 | 22 | -46.2 | -83.4 | 101 | 1 |
| 2023-09-01T00:00 | 26439 | 22 | -46.3 | -83.4 | 121 | 1 |
| 2023-09-01T00:00 | 26455 | 22 | -46.3 | -83.4 | 137 | 1 |
| 2023-09-01T00:00 | 26490 | 21 | -46.3 | -83.4 | 151 | 1 |
| 2023-09-01T00:00 | 26514 | 21 | -46.4 | -83.5 | 181 | 0 |
| 2023-09-01T00:00 | 26548 | 21 | -46.1 | -83.3 | 307 | 0 |
| 2023-09-01T00:00 | 26573 | 21 | -46.1 | -83.3 | 325 | 1 |
| 2023-09-01T00:00 | 26606 | 21 | -45.9 | -83.2 | 334 | 1 |
| 2023-09-01T00:00 | 26631 | 21 | -45.8 | -83.1 | 343 | 2 |
| 2023-09-01T00:00 | 26657 | 21 | -45.6 | -82.9 | 354 | 2 |
| 2023-09-01T00:00 | 26683 | 21 | -45.6 | -82.9 | 10 | 2 |
| 2023-09-01T00:00 | 26719 | 21 | -45.5 | -82.9 | 32 | 2 |
| 2023-09-01T00:00 | 26739 | 21 | -45.1 | -82.6 | 60 | 2 |
| 2023-09-01T00:00 | 26765 | 21 | -45.2 | -82.7 | 86 | 2 |
| 2023-09-01T00:00 | 26806 | 21 | -45.2 | -82.7 | 101 | 3 |
| 2023-09-01T00:00 | 26830 | 20 | -45.2 | -82.7 | 106 | 3 |
| 2023-09-01T00:00 | 26856 | 20 | -45.3 | -82.7 | 105 | 3 |
| 2023-09-01T00:00 | 26888 | 20 | -45.2 | -82.7 | 98 | 3 |
| 2023-09-01T00:00 | 26911 | 20 | -44.8 | -82.4 | 84 | 3 |
| 2023-09-01T00:00 | 26942 | 20 | -44.6 | -82.2 | 65 | 2 |
| 2023-09-01T00:00 | 26970 | 20 | -44.6 | -82.2 | 49 | 3 |
| 2023-09-01T00:00 | 26986 | 20 | -44.7 | -82.3 | 41 | 3 |
| 2023-09-01T00:00 | 27029 | 20 | -44.8 | -82.4 | 42 | 3 |
| 2023-09-01T00:00 | 27051 | 20 | -44.7 | -82.3 | 51 | 3 |
| 2023-09-01T00:00 | 27074 | 20 | -44.6 | -82.2 | 65 | 3 |
| 2023-09-01T00:00 | 27117 | 20 | -44.3 | -82.0 | 80 | 4 |
| 2023-09-01T00:00 | 27132 | 20 | -44.2 | -82.0 | 94 | 4 |
| 2023-09-01T00:00 | 27168 | 19 | -44.2 | -82.0 | 105 | 5 |
| 2023-09-01T00:00 | 27192 | 19 | -44.3 | -82.0 | 115 | 5 |
| 2023-09-01T00:00 | 27223 | 19 | -44.3 | -82.0 | 123 | 5 |
| 2023-09-01T00:00 | 27254 | 19 | -44.3 | -82.0 | 131 | 6 |
| 2023-09-01T00:00 | 27276 | 19 | -44.4 | -82.1 | 138 | 6 |
| 2023-09-01T00:00 | 27315 | 19 | -44.2 | -82.0 | 143 | 6 |
| 2023-09-01T00:00 | 27341 | 19 | -44.3 | -82.0 | 147 | 6 |
| 2023-09-01T00:00 | 27368 | 19 | -44.5 | -82.2 | 149 | 6 |
| 2023-09-01T00:00 | 27397 | 19 | -44.6 | -82.2 | 150 | 6 |
| 2023-09-01T00:00 | 27424 | 19 | -44.4 | -82.1 | 149 | 6 |
| 2023-09-01T00:00 | 27454 | 19 | -44.2 | -82.0 | 148 | 5 |
| 2023-09-01T00:00 | 27477 | 19 | -44.3 | -82.0 | 148 | 5 |
| 2023-09-01T00:00 | 27505 | 18 | -44.3 | -82.0 | 150 | 5 |
| 2023-09-01T00:00 | 27535 | 18 | -43.9 | -81.8 | 153 | 6 |
| 2023-09-01T00:00 | 27560 | 18 | -43.9 | -81.8 | 157 | 6 |
| 2023-09-01T00:00 | 27588 | 18 | -44.0 | -81.8 | 161 | 6 |
| 2023-09-01T00:00 | 27629 | 18 | -44.1 | -81.9 | 164 | 7 |
| 2023-09-01T00:00 | 27648 | 18 | -44.3 | -82.0 | 167 | 7 |
| 2023-09-01T00:00 | 27689 | 18 | -44.5 | -82.2 | 170 | 7 |
| 2023-09-01T00:00 | 27713 | 18 | -44.7 | -82.3 | 173 | 8 |
| 2023-09-01T00:00 | 27740 | 18 | -44.8 | -82.4 | 175 | 8 |
| 2023-09-01T00:00 | 27777 | 18 | -45.0 | -82.5 | 178 | 8 |
| 2023-09-01T00:00 | 27802 | 18 | -45.1 | -82.6 | 181 | 9 |
| 2023-09-01T00:00 | 27837 | 18 | -45.3 | -82.7 | 184 | 9 |
| 2023-09-01T00:00 | 27864 | 18 | -45.5 | -82.9 | 188 | 9 |
| 2023-09-01T00:00 | 27891 | 17 | -45.7 | -83.0 | 192 | 8 |
| 2023-09-01T00:00 | 27923 | 17 | -45.8 | -83.1 | 196 | 8 |
| 2023-09-01T00:00 | 27951 | 17 | -45.8 | -83.1 | 202 | 7 |
| 2023-09-01T00:00 | 27984 | 17 | -45.8 | -83.1 | 208 | 7 |
| 2023-09-01T00:00 | 28009 | 17 | -45.8 | -83.1 | 217 | 6 |
| 2023-09-01T00:00 | 28048 | 17 | -45.8 | -83.1 | 227 | 5 |
| 2023-09-01T00:00 | 28072 | 17 | -45.5 | -82.9 | 240 | 5 |
| 2023-09-01T00:00 | 28104 | 17 | -45.1 | -82.6 | 256 | 4 |
| 2023-09-01T00:00 | 28134 | 17 | -44.8 | -82.4 | 274 | 4 |
| 2023-09-01T00:00 | 28162 | 17 | -44.3 | -82.0 | 293 | 3 |
| 2023-09-01T00:00 | 28189 | 17 | -44.2 | -82.0 | 310 | 3 |
| 2023-09-01T00:00 | 28218 | 17 | -44.1 | -81.9 | 328 | 2 |
| 2023-09-01T00:00 | 28247 | 17 | -44.0 | -81.8 | 349 | 2 |
| 2023-09-01T00:00 | 28271 | 16 | -43.4 | -81.4 | 13 | 2 |
| 2023-09-01T00:00 | 28305 | 16 | -43.3 | -81.3 | 35 | 2 |
| 2023-09-01T00:00 | 28334 | 16 | -43.1 | -81.2 | 50 | 2 |
| 2023-09-01T00:00 | 28360 | 16 | -42.9 | -81.1 | 61 | 2 |
| 2023-09-01T00:00 | 28386 | 16 | -42.6 | -80.8 | 72 | 2 |
| 2023-09-01T00:00 | 28418 | 16 | -42.6 | -80.8 | 90 | 1 |
| 2023-09-01T00:00 | 28447 | 16 | -42.7 | -80.9 | 125 | 1 |
| 2023-09-01T00:00 | 28472 | 16 | -42.9 | -81.1 | 166 | 1 |
| 2023-09-01T00:00 | 28499 | 16 | -43.1 | -81.2 | 190 | 2 |
| 2023-09-01T00:00 | 28536 | 16 | -43.3 | -81.3 | 201 | 3 |
| 2023-09-01T00:00 | 28551 | 16 | -43.4 | -81.4 | 208 | 3 |
| 2023-09-01T00:00 | 28582 | 16 | -43.6 | -81.5 | 213 | 4 |
| 2023-09-01T00:00 | 28615 | 16 | -43.8 | -81.7 | 216 | 5 |
| 2023-09-01T00:00 | 28637 | 16 | -44.0 | -81.8 | 218 | 5 |
| 2023-09-01T00:00 | 28681 | 16 | -44.1 | -81.9 | 219 | 5 |
| 2023-09-01T00:00 | 28698 | 15 | -44.1 | -81.9 | 219 | 5 |
| 2023-09-01T00:00 | 28730 | 15 | -43.9 | -81.8 | 218 | 5 |
| 2023-09-01T00:00 | 28752 | 15 | -43.8 | -81.7 | 215 | 4 |
| 2023-09-01T00:00 | 28782 | 15 | -43.9 | -81.8 | 209 | 4 |
| 2023-09-01T00:00 | 28817 | 15 | -43.8 | -81.7 | 201 | 3 |
| 2023-09-01T00:00 | 28837 | 15 | -44.0 | -81.8 | 194 | 3 |
| 2023-09-01T00:00 | 28866 | 15 | -44.0 | -81.8 | 189 | 3 |
| 2023-09-01T00:00 | 28906 | 15 | -44.0 | -81.8 | 187 | 4 |
| 2023-09-01T00:00 | 28921 | 15 | -43.7 | -81.6 | 187 | 4 |
| 2023-09-01T00:00 | 28962 | 15 | -43.4 | -81.4 | 190 | 4 |
| 2023-09-01T00:00 | 28983 | 15 | -43.4 | -81.4 | 193 | 4 |
| 2023-09-01T00:00 | 29008 | 15 | -43.4 | -81.4 | 197 | 4 |
| 2023-09-01T00:00 | 29034 | 15 | -43.4 | -81.4 | 200 | 4 |
| 2023-09-01T00:00 | 29072 | 15 | -43.5 | -81.5 | 202 | 4 |
| 2023-09-01T00:00 | 29095 | 15 | -43.5 | -81.5 | 202 | 3 |
| 2023-09-01T00:00 | 29125 | 15 | -43.4 | -81.4 | 196 | 3 |
| 2023-09-01T00:00 | 29156 | 14 | -43.4 | -81.4 | 179 | 2 |
| 2023-09-01T00:00 | 29173 | 14 | -43.4 | -81.4 | 151 | 2 |
| 2023-09-01T00:00 | 29210 | 14 | -43.4 | -81.4 | 127 | 3 |
| 2023-09-01T00:00 | 29241 | 14 | -43.4 | -81.4 | 116 | 4 |
| 2023-09-01T00:00 | 29271 | 14 | -43.3 | -81.3 | 113 | 5 |
| 2023-09-01T00:00 | 29303 | 14 | -42.9 | -81.1 | 114 | 6 |
| 2023-09-01T00:00 | 29326 | 14 | -42.8 | -81.0 | 117 | 6 |
| 2023-09-01T00:00 | 29351 | 14 | -42.7 | -80.9 | 121 | 7 |
| 2023-09-01T00:00 | 29387 | 14 | -42.8 | -81.0 | 125 | 7 |
| 2023-09-01T00:00 | 29420 | 14 | -42.9 | -81.1 | 129 | 7 |
| 2023-09-01T00:00 | 29438 | 14 | -43.1 | -81.2 | 133 | 8 |
| 2023-09-01T00:00 | 29478 | 14 | -43.2 | -81.3 | 136 | 8 |
| 2023-09-01T00:00 | 29506 | 14 | -43.4 | -81.4 | 138 | 7 |
| 2023-09-01T00:00 | 29528 | 14 | -43.5 | -81.5 | 141 | 7 |
| 2023-09-01T00:00 | 29559 | 14 | -43.6 | -81.5 | 145 | 7 |
| 2023-09-01T00:00 | 29593 | 14 | -43.7 | -81.6 | 149 | 7 |
| 2023-09-01T00:00 | 29610 | 13 | -44.0 | -81.8 | 154 | 6 |
| 2023-09-01T00:00 | 29648 | 13 | -44.1 | -81.9 | 158 | 6 |
| 2023-09-01T00:00 | 29672 | 13 | -44.2 | -82.0 | 163 | 6 |
| 2023-09-01T00:00 | 29712 | 13 | -44.4 | -82.1 | 168 | 5 |
| 2023-09-01T00:00 | 29736 | 13 | -44.6 | -82.2 | 173 | 5 |
| 2023-09-01T00:00 | 29764 | 13 | -44.7 | -82.3 | 178 | 4 |
| 2023-09-01T00:00 | 29799 | 13 | -44.9 | -82.5 | 181 | 4 |
| 2023-09-01T00:00 | 29819 | 13 | -44.9 | -82.5 | 180 | 4 |
| 2023-09-01T00:00 | 29852 | 13 | -44.9 | -82.5 | 178 | 4 |
| 2023-09-01T00:00 | 29883 | 13 | -44.5 | -82.2 | 175 | 4 |
| 2023-09-01T00:00 | 29903 | 13 | -44.6 | -82.2 | 174 | 4 |
| 2023-09-01T00:00 | 29940 | 13 | -44.7 | -82.3 | 176 | 4 |
| 2023-09-01T00:00 | 29978 | 13 | -44.6 | -82.2 | 180 | 4 |
| 2023-09-01T00:00 | 30005 | 13 | -44.4 | -82.1 | 187 | 4 |
| 2023-09-01T00:00 | 30017 | 13 | -44.4 | -82.1 | 196 | 4 |
| 2023-09-01T00:00 | 30064 | 13 | -44.4 | -82.1 | 207 | 3 |
| 2023-09-01T00:00 | 30090 | 13 | -44.5 | -82.2 | 223 | 3 |
| 2023-09-01T00:00 | 30110 | 13 | -44.5 | -82.2 | 244 | 3 |
| 2023-09-01T00:00 | 30140 | 12 | -44.2 | -82.0 | 268 | 3 |
| 2023-09-01T00:00 | 30174 | 12 | -43.9 | -81.8 | 290 | 3 |
| 2023-09-01T00:00 | 30198 | 12 | -43.7 | -81.6 | 305 | 4 |
| 2023-09-01T00:00 | 30226 | 12 | -43.4 | -81.4 | 316 | 4 |
| 2023-09-01T00:00 | 30252 | 12 | -42.9 | -81.1 | 324 | 5 |
| 2023-09-01T00:00 | 30278 | 12 | -42.7 | -80.9 | 332 | 5 |
| 2023-09-01T00:00 | 30304 | 12 | -42.5 | -80.8 | 339 | 5 |
| 2023-09-01T00:00 | 30331 | 12 | -42.4 | -80.7 | 346 | 6 |
| 2023-09-01T00:00 | 30345 | 12 | -42.1 | -80.5 | 353 | 6 |
| 2023-09-01T00:00 | 30389 | 12 | -41.9 | -80.4 | 359 | 6 |
| 2023-09-01T00:00 | 30407 | 12 | -41.7 | -80.2 | 5 | 6 |
| 2023-09-01T00:00 | 30441 | 12 | -41.5 | -80.1 | 12 | 6 |
| 2023-09-01T00:00 | 30464 | 12 | -40.9 | -79.7 | 21 | 5 |
| 2023-09-01T00:00 | 30500 | 12 | -40.9 | -79.7 | 31 | 5 |
| 2023-09-01T00:00 | 30506 | 12 | -40.9 | -79.7 | 44 | 5 |
| 2023-09-01T00:00 | 30549 | 12 | -40.8 | -79.6 | 58 | 4 |
| 2023-09-01T00:00 | 30575 | 12 | -40.8 | -79.6 | 72 | 4 |
| 2023-09-01T00:00 | 30616 | 12 | -40.9 | -79.7 | 87 | 4 |
| 2023-09-01T00:00 | 30632 | 12 | -41.1 | -79.8 | 101 | 4 |
| 2023-09-01T00:00 | 30657 | 12 | -41.1 | -79.8 | 115 | 4 |
| 2023-09-01T00:00 | 30695 | 12 | -41.2 | -79.9 | 127 | 4 |
| 2023-09-01T00:00 | 30710 | 11 | -41.1 | -79.8 | 138 | 4 |
| 2023-09-01T00:00 | 30750 | 11 | -41.1 | -79.8 | 146 | 4 |
| 2023-09-01T00:00 | 30778 | 11 | -41.1 | -79.8 | 152 | 5 |
| 2023-09-01T00:00 | 30804 | 11 | -41.0 | -79.7 | 155 | 5 |
| 2023-09-01T00:00 | 30829 | 11 | -41.1 | -79.8 | 157 | 6 |
| 2023-09-01T00:00 | 30861 | 11 | -41.3 | -79.9 | 160 | 6 |
| 2023-09-01T00:00 | 30892 | 11 | -41.4 | -80.0 | 162 | 6 |
| 2023-09-01T00:00 | 30906 | 11 | -41.6 | -80.1 | 163 | 6 |
| 2023-09-01T00:00 | 30958 | 11 | -41.8 | -80.3 | 164 | 6 |
| 2023-09-01T00:00 | 30966 | 11 | -42.0 | -80.4 | 163 | 5 |
| 2023-09-01T00:00 | 31008 | 11 | -42.1 | -80.5 | 161 | 5 |
| 2023-09-01T00:00 | 31033 | 11 | -42.2 | -80.6 | 157 | 4 |
| 2023-09-01T00:00 | 31054 | 11 | -42.1 | -80.5 | 151 | 4 |
| 2023-09-01T00:00 | 31090 | 11 | -41.8 | -80.3 | 142 | 3 |
| 2023-09-01T00:00 | 31112 | 11 | -41.7 | -80.2 | 131 | 3 |
| 2023-09-01T00:00 | 31151 | 11 | -41.6 | -80.1 | 119 | 3 |
| 2023-09-01T00:00 | 31176 | 11 | -41.4 | -80.0 | 110 | 3 |
| 2023-09-01T00:00 | 31203 | 11 | -40.8 | -79.6 | 105 | 3 |
| 2023-09-01T00:00 | 31232 | 11 | -40.7 | -79.5 | 106 | 3 |
| 2023-09-01T00:00 | 31269 | 11 | -40.5 | -79.4 | 112 | 4 |
| 2023-09-01T00:00 | 31278 | 11 | -40.4 | -79.3 | 120 | 4 |
| 2023-09-01T00:00 | 31323 | 10 | -40.3 | -79.2 | 129 | 4 |
| 2023-09-01T00:00 | 31357 | 10 | -40.3 | -79.2 | 137 | 5 |
| 2023-09-01T00:00 | 31366 | 10 | -40.4 | -79.3 | 143 | 5 |
| 2023-09-01T00:00 | 31409 | 10 | -40.5 | -79.4 | 148 | 6 |
| 2023-09-01T00:00 | 31424 | 10 | -40.6 | -79.5 | 152 | 6 |
| 2023-09-01T00:00 | 31473 | 10 | -40.7 | -79.5 | 155 | 7 |
| 2023-09-01T00:00 | 31492 | 10 | -40.9 | -79.7 | 158 | 7 |
| 2023-09-01T00:00 | 31521 | 10 | -41.0 | -79.7 | 161 | 8 |
| 2023-09-01T00:00 | 31557 | 10 | -41.2 | -79.9 | 164 | 8 |
| 2023-09-01T00:00 | 31575 | 10 | -41.0 | -79.7 | 166 | 8 |
| 2023-09-01T00:00 | 31591 | 10 | -40.9 | -79.7 | 168 | 7 |
| 2023-09-01T00:00 | 31620 | 10 | -40.9 | -79.7 | 170 | 7 |
| 2023-09-01T00:00 | 31655 | 10 | -41.0 | -79.7 | 171 | 6 |
| 2023-09-01T00:00 | 31686 | 10 | -41.0 | -79.7 | 173 | 6 |
| 2023-09-01T00:00 | 31715 | 10 | -41.0 | -79.7 | 173 | 5 |
| 2023-09-01T00:00 | 31752 | 10 | -41.1 | -79.8 | 173 | 5 |
| 2023-09-01T00:00 | 31770 | 10 | -41.2 | -79.9 | 170 | 5 |
| 2023-09-01T00:00 | 31801 | 10 | -41.3 | -79.9 | 167 | 4 |
| 2023-09-01T00:00 | 31827 | 10 | -41.3 | -79.9 | 164 | 4 |
| 2023-09-01T00:00 | 31857 | 10 | -41.3 | -79.9 | 162 | 4 |
| 2023-09-01T00:00 | 31887 | 10 | -41.3 | -79.9 | 164 | 3 |
| 2023-09-01T00:00 | 31928 | 10 | -41.2 | -79.9 | 173 | 3 |
| 2023-09-01T00:00 | 31951 | 10 | -40.9 | -79.7 | 190 | 2 |
| 2023-09-01T00:00 | 31966 | 10 | -40.6 | -79.5 | 214 | 2 |
| 2023-09-01T00:00 | 32011 | 9 | -40.4 | -79.3 | 234 | 2 |
| 2023-09-01T00:00 | 32028 | 9 | -40.2 | -79.2 | 249 | 3 |
| 2023-09-01T00:00 | 32052 | 9 | -40.2 | -79.2 | 260 | 3 |
| 2023-09-01T00:00 | 32091 | 9 | -40.2 | -79.2 | 271 | 3 |
| 2023-09-01T00:00 | 32126 | 9 | -40.0 | -79.0 | 281 | 3 |
| 2023-09-01T00:00 | 32138 | 9 | -40.0 | -79.0 | 292 | 3 |
| 2023-09-01T00:00 | 32163 | 9 | -40.0 | -79.0 | 304 | 3 |
| 2023-09-01T00:00 | 32200 | 9 | -39.9 | -79.0 | 317 | 3 |
| 2023-09-01T00:00 | 32230 | 9 | -39.7 | -78.8 | 333 | 3 |
| 2023-09-01T00:00 | 32246 | 9 | -39.6 | -78.8 | 348 | 3 |
| 2023-09-01T00:00 | 32270 | 9 | -39.7 | -78.8 | 1 | 3 |
| 2023-09-01T00:00 | 32291 | 9 | -39.7 | -78.8 | 12 | 3 |
| 2023-09-01T00:00 | 32336 | 9 | -39.5 | -78.7 | 21 | 3 |
| 2023-09-01T00:00 | 32347 | 9 | -39.4 | -78.6 | 29 | 4 |
| 2023-09-01T00:00 | 32367 | 9 | -39.3 | -78.5 | 36 | 4 |
| 2023-09-01T00:00 | 32403 | 9 | -39.3 | -78.5 | 42 | 4 |
| 2023-09-01T00:00 | 32444 | 9 | -39.2 | -78.5 | 48 | 4 |
| 2023-09-01T00:00 | 32447 | 9 | -39.3 | -78.5 | 52 | 5 |
| 2023-09-01T00:00 | 32476 | 9 | -39.1 | -78.4 | 57 | 5 |
| 2023-09-01T00:00 | 32492 | 9 | -39.0 | -78.3 | 62 | 5 |
| 2023-09-01T00:00 | 32533 | 9 | -39.1 | -78.4 | 67 | 5 |
| 2023-09-01T00:00 | 32559 | 9 | -39.1 | -78.4 | 71 | 5 |
| 2023-09-01T00:00 | 32588 | 9 | -39.1 | -78.4 | 76 | 6 |
| 2023-09-01T00:00 | 32606 | 9 | -39.0 | -78.3 | 81 | 6 |
| 2023-09-01T00:00 | 32636 | 9 | -38.7 | -78.1 | 85 | 6 |
| 2023-09-01T00:00 | 32665 | 9 | -38.7 | -78.1 | 89 | 7 |
| 2023-09-01T00:00 | 32695 | 9 | -38.8 | -78.2 | 92 | 7 |
| 2023-09-01T00:00 | 32738 | 9 | -38.9 | -78.3 | 96 | 7 |
| 2023-09-01T00:00 | 32771 | 8 | -39.1 | -78.4 | 102 | 7 |
| 2023-09-01T00:00 | 32807 | 8 | -39.1 | -78.4 | 105 | 7 |
| 2023-09-01T00:00 | 32824 | 8 | -39.2 | -78.5 | 108 | 7 |
| 2023-09-01T00:00 | 32851 | 8 | -39.2 | -78.5 | 111 | 7 |
| 2023-09-01T00:00 | 32888 | 8 | -39.3 | -78.5 | 115 | 7 |
| 2023-09-01T00:00 | 32929 | 8 | -39.5 | -78.7 | 119 | 7 |
| 2023-09-01T00:00 | 32940 | 8 | -39.7 | -78.8 | 122 | 7 |
| 2023-09-01T00:00 | 32965 | 8 | -39.9 | -79.0 | 126 | 7 |
| 2023-09-01T00:00 | 33001 | 8 | -40.1 | -79.1 | 130 | 7 |
| 2023-09-01T00:00 | 33021 | 8 | -40.2 | -79.2 | 134 | 6 |
| 2023-09-01T00:00 | 33043 | 8 | -40.5 | -79.4 | 139 | 6 |
| 2023-09-01T00:00 | 33071 | 8 | -40.6 | -79.5 | 145 | 6 |
| 2023-09-01T00:00 | 33096 | 8 | -40.8 | -79.6 | 150 | 6 |
| 2023-09-01T00:00 | 33137 | 8 | -40.9 | -79.7 | 155 | 5 |
| 2023-09-01T00:00 | 33181 | 8 | -41.1 | -79.8 | 159 | 5 |
| 2023-09-01T00:00 | 33206 | 8 | -41.1 | -79.8 | 162 | 4 |
| 2023-09-01T00:00 | 33221 | 8 | -41.0 | -79.7 | 164 | 4 |
| 2023-09-01T00:00 | 33255 | 8 | -40.7 | -79.5 | 164 | 3 |
| 2023-09-01T00:00 | 33291 | 8 | -40.6 | -79.5 | 161 | 3 |
| 2023-09-01T00:00 | 33305 | 8 | -40.5 | -79.4 | 155 | 3 |
| 2023-09-01T00:00 | 33337 | 8 | -40.5 | -79.4 | 146 | 2 |
| 2023-09-01T00:00 | 33379 | 8 | -40.2 | -79.2 | 135 | 2 |
| 2023-09-01T00:00 | 33415 | 8 | -40.2 | -79.2 | 127 | 2 |
| 2023-09-01T06:00 | 113 | 1000 | 9.2 | 9.2 | 239 | 3 |
| 2023-09-01T06:00 | 143 | 997 | 9.8 | 9.1 | 243 | 5 |
| 2023-09-01T06:00 | 170 | 993 | 10.6 | 9.0 | 244 | 6 |
| 2023-09-01T06:00 | 193 | 990 | 11.9 | 8.8 | 247 | 7 |
| 2023-09-01T06:00 | 222 | 987 | 12.1 | 8.8 | 251 | 8 |
| 2023-09-01T06:00 | 248 | 984 | 12.6 | 8.4 | 255 | 8 |
| 2023-09-01T06:00 | 265 | 982 | 12.4 | 8.5 | 259 | 9 |
| 2023-09-01T06:00 | 288 | 980 | 12.3 | 8.4 | 264 | 8 |
| 2023-09-01T06:00 | 312 | 977 | 12.5 | 8.4 | 268 | 8 |
| 2023-09-01T06:00 | 337 | 974 | 12.4 | 8.5 | 272 | 8 |
| 2023-09-01T06:00 | 362 | 971 | 12.2 | 8.5 | 274 | 9 |
| 2023-09-01T06:00 | 382 | 968 | 12.2 | 8.6 | 276 | 9 |
| 2023-09-01T06:00 | 405 | 966 | 12.4 | 277 | 9 | |
| 2023-09-01T06:00 | 429 | 963 | 12.3 | 8.5 | 277 | 9 |
| 2023-09-01T06:00 | 455 | 960 | 12.1 | 8.3 | 277 | 9 |
| 2023-09-01T06:00 | 479 | 957 | 12.0 | 8.3 | 277 | 9 |
| 2023-09-01T06:00 | 501 | 955 | 11.8 | 8.3 | 277 | 9 |
| 2023-09-01T06:00 | 528 | 952 | 11.5 | 8.2 | 277 | 9 |
| 2023-09-01T06:00 | 557 | 949 | 11.3 | 8.2 | 277 | 9 |
| 2023-09-01T06:00 | 581 | 946 | 11.1 | 8.1 | 276 | 9 |
| 2023-09-01T06:00 | 603 | 943 | 10.9 | 8.0 | 276 | 9 |
| 2023-09-01T06:00 | 631 | 940 | 10.7 | 7.7 | 276 | 9 |
| 2023-09-01T06:00 | 654 | 938 | 10.5 | 7.6 | 276 | 9 |
| 2023-09-01T06:00 | 675 | 935 | 10.3 | 7.4 | 276 | 9 |
| 2023-09-01T06:00 | 701 | 932 | 10.1 | 7.4 | 275 | 9 |
| 2023-09-01T06:00 | 723 | 930 | 9.9 | 7.4 | 276 | 9 |
| 2023-09-01T06:00 | 751 | 927 | 9.6 | 7.3 | 276 | 9 |
| 2023-09-01T06:00 | 776 | 924 | 9.4 | 7.2 | 277 | 10 |
| 2023-09-01T06:00 | 799 | 921 | 9.2 | 7.1 | 279 | 10 |
| 2023-09-01T06:00 | 823 | 919 | 9.0 | 7.1 | 281 | 10 |
| 2023-09-01T06:00 | 848 | 916 | 8.7 | 7.0 | 282 | 10 |
| 2023-09-01T06:00 | 873 | 913 | 8.6 | 7.0 | 282 | 10 |
| 2023-09-01T06:00 | 896 | 911 | 8.4 | 6.7 | 281 | 10 |
| 2023-09-01T06:00 | 918 | 908 | 8.2 | 6.8 | 279 | 10 |
| 2023-09-01T06:00 | 940 | 906 | 8.0 | 6.9 | 276 | 10 |
| 2023-09-01T06:00 | 964 | 903 | 7.8 | 6.8 | 273 | 10 |
| 2023-09-01T06:00 | 991 | 900 | 7.7 | 6.1 | 270 | 10 |
| 2023-09-01T06:00 | 1019 | 897 | 7.5 | 5.5 | 268 | 11 |
| 2023-09-01T06:00 | 1044 | 895 | 7.4 | 5.2 | 266 | 11 |
| 2023-09-01T06:00 | 1069 | 892 | 7.3 | 4.8 | 265 | 11 |
| 2023-09-01T06:00 | 1094 | 889 | 7.1 | 5.2 | 263 | 11 |
| 2023-09-01T06:00 | 1116 | 887 | 6.9 | 5.0 | 263 | 11 |
| 2023-09-01T06:00 | 1140 | 884 | 6.7 | 4.9 | 262 | 11 |
| 2023-09-01T06:00 | 1165 | 881 | 6.5 | 4.9 | 261 | 11 |
| 2023-09-01T06:00 | 1191 | 879 | 6.3 | 4.9 | 260 | 11 |
| 2023-09-01T06:00 | 1213 | 876 | 6.1 | 4.4 | 259 | 10 |
| 2023-09-01T06:00 | 1237 | 874 | 5.9 | 4.2 | 258 | 10 |
| 2023-09-01T06:00 | 1261 | 871 | 5.8 | 3.9 | 257 | 10 |
| 2023-09-01T06:00 | 1284 | 869 | 5.7 | 3.5 | 256 | 10 |
| 2023-09-01T06:00 | 1310 | 866 | 5.6 | 3.7 | 255 | 10 |
| 2023-09-01T06:00 | 1335 | 863 | 5.5 | 3.1 | 254 | 10 |
| 2023-09-01T06:00 | 1358 | 861 | 5.3 | 2.8 | 253 | 10 |
| 2023-09-01T06:00 | 1382 | 858 | 5.1 | 2.5 | 253 | 10 |
| 2023-09-01T06:00 | 1405 | 856 | 5.0 | 2.4 | 253 | 10 |
| 2023-09-01T06:00 | 1424 | 854 | 4.9 | 1.9 | 255 | 10 |
| 2023-09-01T06:00 | 1448 | 852 | 4.7 | 1.4 | 257 | 11 |
| 2023-09-01T06:00 | 1470 | 849 | 4.7 | -0.4 | 260 | 11 |
| 2023-09-01T06:00 | 1493 | 847 | 4.6 | -0.5 | 261 | 12 |
| 2023-09-01T06:00 | 1513 | 845 | 4.5 | -1.8 | 262 | 12 |
| 2023-09-01T06:00 | 1535 | 842 | 4.5 | -2.7 | 264 | 12 |
| 2023-09-01T06:00 | 1558 | 840 | 4.5 | -3.9 | 265 | 13 |
| 2023-09-01T06:00 | 1582 | 837 | 4.4 | -4.9 | 266 | 13 |
| 2023-09-01T06:00 | 1609 | 835 | 4.2 | -4.4 | 267 | 13 |
| 2023-09-01T06:00 | 1631 | 833 | 4.1 | -4.0 | 267 | 13 |
| 2023-09-01T06:00 | 1656 | 830 | 3.9 | -3.8 | 266 | 13 |
| 2023-09-01T06:00 | 1679 | 828 | 3.8 | -4.1 | 265 | 13 |
| 2023-09-01T06:00 | 1703 | 825 | 3.9 | -5.9 | 264 | 13 |
| 2023-09-01T06:00 | 1727 | 823 | 3.8 | -6.6 | 265 | 13 |
| 2023-09-01T06:00 | 1752 | 820 | 3.7 | -7.0 | 268 | 13 |
| 2023-09-01T06:00 | 1779 | 818 | 3.6 | -7.3 | 272 | 13 |
| 2023-09-01T06:00 | 1806 | 815 | 3.5 | -7.9 | 276 | 13 |
| 2023-09-01T06:00 | 1829 | 812 | 3.4 | -8.4 | 279 | 13 |
| 2023-09-01T06:00 | 1853 | 810 | 3.4 | -8.5 | 281 | 13 |
| 2023-09-01T06:00 | 1879 | 808 | 3.3 | -8.6 | 281 | 13 |
| 2023-09-01T06:00 | 1905 | 805 | 3.2 | -8.7 | 280 | 13 |
| 2023-09-01T06:00 | 1929 | 803 | 3.1 | -8.9 | 278 | 13 |
| 2023-09-01T06:00 | 1949 | 801 | 3.0 | -9.3 | 276 | 13 |
| 2023-09-01T06:00 | 1971 | 798 | 2.9 | -10.9 | 273 | 13 |
| 2023-09-01T06:00 | 1993 | 796 | 2.9 | -13.7 | 271 | 13 |
| 2023-09-01T06:00 | 2016 | 794 | 2.8 | -13.3 | 270 | 13 |
| 2023-09-01T06:00 | 2043 | 791 | 2.7 | -13.5 | 271 | 13 |
| 2023-09-01T06:00 | 2067 | 789 | 2.6 | -13.3 | 273 | 13 |
| 2023-09-01T06:00 | 2091 | 787 | 2.5 | -11.6 | 275 | 13 |
| 2023-09-01T06:00 | 2119 | 784 | 2.1 | -8.8 | 278 | 13 |
| 2023-09-01T06:00 | 2141 | 782 | 1.9 | -8.6 | 281 | 13 |
| 2023-09-01T06:00 | 2166 | 779 | 1.6 | -8.4 | 282 | 13 |
| 2023-09-01T06:00 | 2191 | 777 | 1.4 | -7.3 | 282 | 13 |
| 2023-09-01T06:00 | 2221 | 774 | 1.1 | -6.7 | 281 | 13 |
| 2023-09-01T06:00 | 2244 | 772 | 1.1 | -7.0 | 278 | 14 |
| 2023-09-01T06:00 | 2266 | 770 | 1.0 | -7.3 | 276 | 14 |
| 2023-09-01T06:00 | 2291 | 767 | 0.8 | -7.6 | 274 | 15 |
| 2023-09-01T06:00 | 2317 | 765 | 0.6 | -7.9 | 274 | 15 |
| 2023-09-01T06:00 | 2342 | 762 | 0.5 | -8.2 | 273 | 15 |
| 2023-09-01T06:00 | 2369 | 760 | 0.3 | 273 | 15 | |
| 2023-09-01T06:00 | 2400 | 757 | 0.1 | -9.3 | 274 | 15 |
| 2023-09-01T06:00 | 2426 | 754 | -0.1 | -9.9 | 274 | 15 |
| 2023-09-01T06:00 | 2452 | 752 | -0.3 | -8.6 | 274 | 15 |
| 2023-09-01T06:00 | 2479 | 750 | -0.4 | -9.0 | 273 | 15 |
| 2023-09-01T06:00 | 2506 | 747 | -0.5 | -8.3 | 273 | 14 |
| 2023-09-01T06:00 | 2529 | 745 | -0.8 | -7.7 | 273 | 14 |
| 2023-09-01T06:00 | 2556 | 742 | -1.0 | -8.0 | 274 | 14 |
| 2023-09-01T06:00 | 2581 | 740 | -1.1 | -8.5 | 274 | 14 |
| 2023-09-01T06:00 | 2610 | 737 | -1.2 | -8.8 | 275 | 13 |
| 2023-09-01T06:00 | 2638 | 735 | -1.5 | -6.9 | 276 | 13 |
| 2023-09-01T06:00 | 2669 | 732 | -1.7 | -8.2 | 277 | 13 |
| 2023-09-01T06:00 | 2694 | 730 | -1.8 | -8.7 | 278 | 13 |
| 2023-09-01T06:00 | 2723 | 727 | -2.0 | -8.9 | 278 | 13 |
| 2023-09-01T06:00 | 2743 | 725 | -2.1 | -9.7 | 277 | 13 |
| 2023-09-01T06:00 | 2772 | 722 | -2.3 | -10.9 | 277 | 13 |
| 2023-09-01T06:00 | 2801 | 720 | -2.3 | -12.7 | 277 | 14 |
| 2023-09-01T06:00 | 2826 | 718 | -2.5 | -12.3 | 278 | 14 |
| 2023-09-01T06:00 | 2852 | 715 | -2.5 | -13.5 | 279 | 14 |
| 2023-09-01T06:00 | 2875 | 713 | -2.5 | -15.5 | 281 | 14 |
| 2023-09-01T06:00 | 2902 | 711 | -2.6 | -15.6 | 281 | 14 |
| 2023-09-01T06:00 | 2926 | 709 | -2.7 | -16.3 | 281 | 14 |
| 2023-09-01T06:00 | 2949 | 706 | -2.8 | -16.8 | 280 | 14 |
| 2023-09-01T06:00 | 2977 | 704 | -3.0 | -17.7 | 278 | 15 |
| 2023-09-01T06:00 | 3003 | 702 | -3.0 | -18.2 | 278 | 15 |
| 2023-09-01T06:00 | 3028 | 699 | -3.1 | -18.9 | 277 | 15 |
| 2023-09-01T06:00 | 3056 | 697 | -3.2 | -21.0 | 278 | 15 |
| 2023-09-01T06:00 | 3083 | 695 | -3.4 | -22.0 | 278 | 15 |
| 2023-09-01T06:00 | 3107 | 692 | -3.6 | -19.9 | 278 | 15 |
| 2023-09-01T06:00 | 3135 | 690 | -3.8 | -17.1 | 278 | 14 |
| 2023-09-01T06:00 | 3163 | 688 | -3.9 | -15.6 | 278 | 14 |
| 2023-09-01T06:00 | 3189 | 686 | -3.9 | -21.8 | 278 | 14 |
| 2023-09-01T06:00 | 3210 | 684 | -4.2 | -19.3 | 279 | 14 |
| 2023-09-01T06:00 | 3233 | 682 | -4.4 | -18.0 | 280 | 14 |
| 2023-09-01T06:00 | 3256 | 680 | -4.7 | -15.5 | 282 | 15 |
| 2023-09-01T06:00 | 3276 | 678 | -4.8 | -16.9 | 283 | 15 |
| 2023-09-01T06:00 | 3301 | 676 | -4.9 | -15.1 | 285 | 15 |
| 2023-09-01T06:00 | 3325 | 674 | -5.1 | -15.0 | 285 | 15 |
| 2023-09-01T06:00 | 3350 | 672 | -5.3 | -14.8 | 286 | 15 |
| 2023-09-01T06:00 | 3373 | 670 | -5.4 | -14.5 | 285 | 15 |
| 2023-09-01T06:00 | 3398 | 667 | -5.6 | -13.2 | 285 | 15 |
| 2023-09-01T06:00 | 3421 | 665 | -5.7 | -13.0 | 285 | 15 |
| 2023-09-01T06:00 | 3449 | 663 | -5.9 | -12.8 | 285 | 15 |
| 2023-09-01T06:00 | 3471 | 661 | -6.0 | -12.9 | 284 | 15 |
| 2023-09-01T06:00 | 3493 | 659 | -6.1 | -12.9 | 283 | 14 |
| 2023-09-01T06:00 | 3517 | 657 | -6.3 | -13.1 | 281 | 14 |
| 2023-09-01T06:00 | 3539 | 655 | -6.5 | -13.2 | 280 | 14 |
| 2023-09-01T06:00 | 3562 | 654 | -6.7 | -13.4 | 278 | 14 |
| 2023-09-01T06:00 | 3588 | 651 | -6.8 | -14.4 | 278 | 14 |
| 2023-09-01T06:00 | 3615 | 649 | -7.0 | -15.8 | 279 | 14 |
| 2023-09-01T06:00 | 3640 | 647 | -6.9 | -17.8 | 280 | 14 |
| 2023-09-01T06:00 | 3660 | 645 | -6.9 | -17.6 | 281 | 14 |
| 2023-09-01T06:00 | 3683 | 644 | -7.0 | -17.7 | 282 | 14 |
| 2023-09-01T06:00 | 3704 | 642 | -7.0 | -19.6 | 281 | 14 |
| 2023-09-01T06:00 | 3728 | 640 | -7.1 | -20.1 | 281 | 15 |
| 2023-09-01T06:00 | 3752 | 638 | -7.2 | -21.0 | 282 | 15 |
| 2023-09-01T06:00 | 3778 | 636 | -7.4 | -21.0 | 283 | 15 |
| 2023-09-01T06:00 | 3805 | 634 | -7.6 | -20.8 | 285 | 15 |
| 2023-09-01T06:00 | 3831 | 631 | -7.7 | -23.2 | 287 | 15 |
| 2023-09-01T06:00 | 3856 | 629 | -7.8 | -23.5 | 287 | 16 |
| 2023-09-01T06:00 | 3883 | 627 | -7.9 | -24.9 | 288 | 16 |
| 2023-09-01T06:00 | 3912 | 625 | -8.0 | -24.0 | 288 | 16 |
| 2023-09-01T06:00 | 3931 | 623 | -8.1 | -24.7 | 288 | 16 |
| 2023-09-01T06:00 | 3956 | 621 | -8.1 | -27.8 | 289 | 17 |
| 2023-09-01T06:00 | 3979 | 620 | -8.0 | -27.9 | 290 | 17 |
| 2023-09-01T06:00 | 4000 | 618 | -8.1 | -25.2 | 291 | 17 |
| 2023-09-01T06:00 | 4020 | 616 | -8.1 | -26.8 | 292 | 17 |
| 2023-09-01T06:00 | 4039 | 615 | -8.2 | -27.7 | 292 | 17 |
| 2023-09-01T06:00 | 4064 | 613 | -8.3 | -29.3 | 293 | 16 |
| 2023-09-01T06:00 | 4096 | 610 | -8.5 | -31.0 | 293 | 16 |
| 2023-09-01T06:00 | 4124 | 608 | -8.6 | -33.3 | 293 | 16 |
| 2023-09-01T06:00 | 4147 | 606 | -8.7 | -33.3 | 292 | 16 |
| 2023-09-01T06:00 | 4174 | 604 | -8.9 | -31.8 | 291 | 16 |
| 2023-09-01T06:00 | 4198 | 602 | -9.0 | -28.0 | 289 | 16 |
| 2023-09-01T06:00 | 4221 | 600 | -9.2 | -25.8 | 287 | 16 |
| 2023-09-01T06:00 | 4253 | 598 | -9.5 | -24.0 | 286 | 16 |
| 2023-09-01T06:00 | 4284 | 596 | -9.8 | -21.8 | 285 | 16 |
| 2023-09-01T06:00 | 4305 | 594 | -10.0 | -21.1 | 285 | 16 |
| 2023-09-01T06:00 | 4332 | 592 | -10.3 | -20.5 | 285 | 16 |
| 2023-09-01T06:00 | 4350 | 590 | -10.4 | -21.1 | 285 | 16 |
| 2023-09-01T06:00 | 4373 | 589 | -10.6 | -19.3 | 285 | 17 |
| 2023-09-01T06:00 | 4399 | 587 | -10.9 | -17.4 | 284 | 17 |
| 2023-09-01T06:00 | 4426 | 585 | -11.0 | -16.8 | 284 | 17 |
| 2023-09-01T06:00 | 4452 | 583 | -11.1 | -17.0 | 285 | 17 |
| 2023-09-01T06:00 | 4478 | 581 | -11.1 | -17.5 | 286 | 18 |
| 2023-09-01T06:00 | 4502 | 579 | -11.2 | -18.0 | 288 | 18 |
| 2023-09-01T06:00 | 4530 | 577 | -11.3 | -18.1 | 291 | 19 |
| 2023-09-01T06:00 | 4558 | 575 | -11.3 | -18.7 | 293 | 19 |
| 2023-09-01T06:00 | 4586 | 573 | -11.5 | -19.0 | 295 | 19 |
| 2023-09-01T06:00 | 4615 | 570 | -11.7 | -19.2 | 297 | 19 |
| 2023-09-01T06:00 | 4644 | 568 | -11.9 | -19.6 | 297 | 19 |
| 2023-09-01T06:00 | 4673 | 566 | -12.1 | -19.7 | 296 | 19 |
| 2023-09-01T06:00 | 4700 | 564 | -12.3 | -19.9 | 295 | 19 |
| 2023-09-01T06:00 | 4722 | 562 | -12.5 | -20.0 | 294 | 20 |
| 2023-09-01T06:00 | 4751 | 560 | -12.8 | 294 | 20 | |
| 2023-09-01T06:00 | 4774 | 559 | -12.9 | -21.3 | 294 | 20 |
| 2023-09-01T06:00 | 4797 | 557 | -13.1 | -21.6 | 294 | 21 |
| 2023-09-01T06:00 | 4820 | 555 | -13.2 | -21.3 | 295 | 21 |
| 2023-09-01T06:00 | 4841 | 554 | -13.4 | -21.0 | 295 | 21 |
| 2023-09-01T06:00 | 4867 | 552 | -13.6 | -20.9 | 294 | 21 |
| 2023-09-01T06:00 | 4896 | 550 | -13.8 | -21.4 | 294 | 21 |
| 2023-09-01T06:00 | 4919 | 548 | -14.0 | -21.4 | 294 | 21 |
| 2023-09-01T06:00 | 4943 | 546 | -14.2 | -21.7 | 294 | 21 |
| 2023-09-01T06:00 | 4969 | 545 | -14.4 | -23.1 | 294 | 21 |
| 2023-09-01T06:00 | 4993 | 543 | -14.6 | -23.0 | 295 | 21 |
| 2023-09-01T06:00 | 5022 | 541 | -14.8 | -21.1 | 295 | 22 |
| 2023-09-01T06:00 | 5049 | 539 | -15.0 | -20.7 | 296 | 22 |
| 2023-09-01T06:00 | 5071 | 537 | -15.2 | -20.7 | 297 | 23 |
| 2023-09-01T06:00 | 5101 | 535 | -15.4 | -20.9 | 298 | 22 |
| 2023-09-01T06:00 | 5132 | 533 | -15.6 | -21.5 | 299 | 22 |
| 2023-09-01T06:00 | 5160 | 531 | -15.7 | -22.5 | 300 | 22 |
| 2023-09-01T06:00 | 5189 | 529 | -15.9 | -22.6 | 301 | 22 |
| 2023-09-01T06:00 | 5220 | 527 | -16.2 | -22.8 | 301 | 22 |
| 2023-09-01T06:00 | 5244 | 525 | -16.4 | -23.0 | 300 | 22 |
| 2023-09-01T06:00 | 5267 | 523 | -16.5 | -23.6 | 299 | 22 |
| 2023-09-01T06:00 | 5290 | 522 | -16.6 | -24.6 | 298 | 21 |
| 2023-09-01T06:00 | 5313 | 520 | -16.8 | -24.7 | 298 | 21 |
| 2023-09-01T06:00 | 5343 | 518 | -16.9 | -26.1 | 298 | 21 |
| 2023-09-01T06:00 | 5365 | 517 | -17.0 | -26.2 | 299 | 21 |
| 2023-09-01T06:00 | 5389 | 515 | -17.3 | -26.2 | 300 | 21 |
| 2023-09-01T06:00 | 5413 | 513 | -17.4 | 301 | 21 | |
| 2023-09-01T06:00 | 5442 | 511 | -17.7 | -27.5 | 301 | 21 |
| 2023-09-01T06:00 | 5470 | 509 | -17.9 | -27.8 | 301 | 21 |
| 2023-09-01T06:00 | 5496 | 508 | -18.1 | -27.8 | 301 | 21 |
| 2023-09-01T06:00 | 5522 | 506 | -18.4 | -27.9 | 301 | 21 |
| 2023-09-01T06:00 | 5551 | 504 | -18.6 | -28.3 | 300 | 21 |
| 2023-09-01T06:00 | 5587 | 502 | -18.9 | -29.3 | 300 | 21 |
| 2023-09-01T06:00 | 5615 | 500 | -19.1 | -29.7 | 299 | 21 |
| 2023-09-01T06:00 | 5641 | 498 | -19.3 | -29.7 | 299 | 22 |
| 2023-09-01T06:00 | 5668 | 496 | -19.6 | -29.8 | 299 | 22 |
| 2023-09-01T06:00 | 5691 | 495 | -19.8 | -30.0 | 299 | 22 |
| 2023-09-01T06:00 | 5715 | 493 | -20.0 | -30.0 | 299 | 23 |
| 2023-09-01T06:00 | 5741 | 491 | -20.2 | 300 | 23 | |
| 2023-09-01T06:00 | 5768 | 489 | -20.5 | -30.0 | 300 | 23 |
| 2023-09-01T06:00 | 5795 | 488 | -20.7 | -30.3 | 301 | 23 |
| 2023-09-01T06:00 | 5823 | 486 | -21.0 | -30.4 | 301 | 23 |
| 2023-09-01T06:00 | 5850 | 484 | -21.2 | -30.6 | 302 | 23 |
| 2023-09-01T06:00 | 5868 | 483 | -21.3 | -30.8 | 302 | 23 |
| 2023-09-01T06:00 | 5890 | 481 | -21.5 | -31.0 | 302 | 23 |
| 2023-09-01T06:00 | 5914 | 480 | -21.7 | -31.2 | 302 | 23 |
| 2023-09-01T06:00 | 5938 | 478 | -21.9 | -32.1 | 301 | 23 |
| 2023-09-01T06:00 | 5963 | 477 | -22.1 | -32.2 | 301 | 23 |
| 2023-09-01T06:00 | 5987 | 475 | -22.3 | -32.5 | 301 | 23 |
| 2023-09-01T06:00 | 6013 | 473 | -22.5 | -32.6 | 301 | 23 |
| 2023-09-01T06:00 | 6043 | 472 | -22.8 | -33.0 | 301 | 23 |
| 2023-09-01T06:00 | 6066 | 470 | -23.0 | -33.3 | 301 | 23 |
| 2023-09-01T06:00 | 6092 | 468 | -23.2 | -33.4 | 300 | 24 |
| 2023-09-01T06:00 | 6116 | 467 | -23.4 | -33.3 | 300 | 24 |
| 2023-09-01T06:00 | 6140 | 465 | -23.5 | -32.0 | 300 | 24 |
| 2023-09-01T06:00 | 6166 | 464 | -23.8 | -31.6 | 300 | 25 |
| 2023-09-01T06:00 | 6191 | 462 | -24.0 | -31.1 | 301 | 25 |
| 2023-09-01T06:00 | 6222 | 460 | -24.2 | -30.9 | 301 | 25 |
| 2023-09-01T06:00 | 6253 | 458 | -24.4 | -31.3 | 301 | 26 |
| 2023-09-01T06:00 | 6285 | 456 | -24.8 | -31.7 | 301 | 26 |
| 2023-09-01T06:00 | 6307 | 455 | -24.9 | -32.0 | 301 | 27 |
| 2023-09-01T06:00 | 6333 | 453 | -25.0 | -33.8 | 301 | 27 |
| 2023-09-01T06:00 | 6360 | 452 | -25.1 | -34.3 | 301 | 27 |
| 2023-09-01T06:00 | 6382 | 450 | -25.3 | -34.6 | 301 | 27 |
| 2023-09-01T06:00 | 6406 | 449 | -25.5 | -35.4 | 301 | 27 |
| 2023-09-01T06:00 | 6432 | 447 | -25.8 | -36.1 | 301 | 27 |
| 2023-09-01T06:00 | 6461 | 445 | -26.0 | -36.4 | 301 | 27 |
| 2023-09-01T06:00 | 6485 | 444 | -26.2 | -37.0 | 301 | 27 |
| 2023-09-01T06:00 | 6514 | 442 | -26.4 | -37.8 | 301 | 27 |
| 2023-09-01T06:00 | 6549 | 440 | -26.7 | -38.8 | 301 | 28 |
| 2023-09-01T06:00 | 6580 | 438 | -27.0 | -39.6 | 301 | 28 |
| 2023-09-01T06:00 | 6610 | 436 | -27.3 | -40.6 | 301 | 28 |
| 2023-09-01T06:00 | 6638 | 435 | -27.5 | -41.2 | 301 | 28 |
| 2023-09-01T06:00 | 6657 | 433 | -27.7 | -41.4 | 301 | 28 |
| 2023-09-01T06:00 | 6677 | 432 | -27.9 | -40.0 | 301 | 27 |
| 2023-09-01T06:00 | 6699 | 431 | -28.0 | -37.4 | 301 | 27 |
| 2023-09-01T06:00 | 6722 | 429 | -28.2 | -37.2 | 301 | 27 |
| 2023-09-01T06:00 | 6751 | 428 | -28.5 | -37.3 | 301 | 27 |
| 2023-09-01T06:00 | 6779 | 426 | -28.7 | -37.4 | 300 | 27 |
| 2023-09-01T06:00 | 6814 | 424 | -29.0 | -38.0 | 299 | 27 |
| 2023-09-01T06:00 | 6843 | 422 | -29.2 | -40.1 | 298 | 27 |
| 2023-09-01T06:00 | 6869 | 421 | -29.4 | -41.7 | 298 | 27 |
| 2023-09-01T06:00 | 6897 | 419 | -29.6 | -39.8 | 298 | 27 |
| 2023-09-01T06:00 | 6925 | 417 | -29.9 | -39.8 | 298 | 27 |
| 2023-09-01T06:00 | 6954 | 416 | -30.1 | -40.7 | 298 | 27 |
| 2023-09-01T06:00 | 6980 | 414 | -30.3 | -41.6 | 298 | 27 |
| 2023-09-01T06:00 | 7003 | 413 | -30.5 | -41.7 | 298 | 27 |
| 2023-09-01T06:00 | 7022 | 412 | -30.6 | -41.8 | 298 | 27 |
| 2023-09-01T06:00 | 7043 | 410 | -30.8 | -41.8 | 297 | 27 |
| 2023-09-01T06:00 | 7068 | 409 | -31.1 | -41.9 | 297 | 27 |
| 2023-09-01T06:00 | 7097 | 407 | -31.3 | -42.1 | 297 | 26 |
| 2023-09-01T06:00 | 7127 | 406 | -31.6 | -42.2 | 296 | 26 |
| 2023-09-01T06:00 | 7156 | 404 | -31.9 | -42.3 | 296 | 26 |
| 2023-09-01T06:00 | 7179 | 403 | -32.1 | -42.5 | 296 | 26 |
| 2023-09-01T06:00 | 7199 | 402 | -32.3 | -42.5 | 295 | 26 |
| 2023-09-01T06:00 | 7218 | 400 | -32.5 | -42.5 | 295 | 26 |
| 2023-09-01T06:00 | 7239 | 399 | -32.6 | -42.5 | 295 | 26 |
| 2023-09-01T06:00 | 7264 | 398 | -32.9 | -43.0 | 294 | 26 |
| 2023-09-01T06:00 | 7291 | 396 | -33.1 | -44.4 | 294 | 26 |
| 2023-09-01T06:00 | 7312 | 395 | -33.3 | -45.0 | 293 | 26 |
| 2023-09-01T06:00 | 7330 | 394 | -33.5 | -45.6 | 293 | 26 |
| 2023-09-01T06:00 | 7351 | 393 | -33.7 | 292 | 27 | |
| 2023-09-01T06:00 | 7372 | 392 | -33.9 | -44.7 | 292 | 27 |
| 2023-09-01T06:00 | 7392 | 391 | -34.0 | -43.8 | 293 | 27 |
| 2023-09-01T06:00 | 7417 | 389 | -34.3 | -43.9 | 293 | 27 |
| 2023-09-01T06:00 | 7439 | 388 | -34.5 | -44.1 | 293 | 27 |
| 2023-09-01T06:00 | 7460 | 387 | -34.7 | -44.1 | 293 | 27 |
| 2023-09-01T06:00 | 7483 | 386 | -34.9 | -44.0 | 292 | 27 |
| 2023-09-01T06:00 | 7507 | 384 | -35.1 | -44.1 | 292 | 27 |
| 2023-09-01T06:00 | 7533 | 383 | -35.4 | -44.2 | 291 | 27 |
| 2023-09-01T06:00 | 7566 | 381 | -35.7 | -44.4 | 290 | 27 |
| 2023-09-01T06:00 | 7595 | 380 | -35.9 | -44.6 | 289 | 27 |
| 2023-09-01T06:00 | 7616 | 378 | -36.1 | -44.9 | 288 | 27 |
| 2023-09-01T06:00 | 7643 | 377 | -36.4 | 287 | 27 | |
| 2023-09-01T06:00 | 7674 | 375 | -36.6 | -46.0 | 286 | 27 |
| 2023-09-01T06:00 | 7697 | 374 | -36.8 | -48.8 | 286 | 28 |
| 2023-09-01T06:00 | 7719 | 373 | -36.9 | -47.8 | 286 | 28 |
| 2023-09-01T06:00 | 7743 | 371 | -36.9 | -50.3 | 287 | 29 |
| 2023-09-01T06:00 | 7771 | 370 | -36.9 | -51.4 | 288 | 30 |
| 2023-09-01T06:00 | 7797 | 369 | -36.6 | -51.4 | 289 | 31 |
| 2023-09-01T06:00 | 7816 | 367 | -36.6 | -50.2 | 290 | 32 |
| 2023-09-01T06:00 | 7838 | 366 | -36.6 | -48.5 | 291 | 34 |
| 2023-09-01T06:00 | 7861 | 365 | -36.5 | -47.6 | 291 | 35 |
| 2023-09-01T06:00 | 7883 | 364 | -36.4 | -46.9 | 291 | 36 |
| 2023-09-01T06:00 | 7906 | 363 | -36.4 | -44.8 | 291 | 37 |
| 2023-09-01T06:00 | 7938 | 361 | -36.3 | -43.7 | 291 | 37 |
| 2023-09-01T06:00 | 7962 | 360 | -36.4 | -42.0 | 291 | 38 |
| 2023-09-01T06:00 | 7987 | 359 | -36.4 | -40.0 | 291 | 38 |
| 2023-09-01T06:00 | 8008 | 358 | -36.6 | 291 | 38 | |
| 2023-09-01T06:00 | 8029 | 356 | -36.8 | -39.8 | 292 | 39 |
| 2023-09-01T06:00 | 8050 | 355 | -37.0 | -39.7 | 292 | 39 |
| 2023-09-01T06:00 | 8069 | 354 | -37.2 | -39.7 | 292 | 39 |
| 2023-09-01T06:00 | 8093 | 353 | -37.3 | -39.7 | 291 | 39 |
| 2023-09-01T06:00 | 8114 | 352 | -37.4 | -40.8 | 291 | 39 |
| 2023-09-01T06:00 | 8133 | 351 | -37.5 | -41.8 | 291 | 39 |
| 2023-09-01T06:00 | 8152 | 350 | -37.7 | -42.5 | 291 | 39 |
| 2023-09-01T06:00 | 8172 | 349 | -37.8 | -43.6 | 290 | 39 |
| 2023-09-01T06:00 | 8193 | 348 | -38.0 | -44.2 | 290 | 40 |
| 2023-09-01T06:00 | 8217 | 347 | -38.2 | -45.9 | 291 | 40 |
| 2023-09-01T06:00 | 8236 | 346 | -38.3 | -46.6 | 291 | 40 |
| 2023-09-01T06:00 | 8257 | 345 | -38.3 | -45.6 | 291 | 40 |
| 2023-09-01T06:00 | 8276 | 344 | -38.5 | -43.6 | 291 | 41 |
| 2023-09-01T06:00 | 8300 | 343 | -38.6 | -41.2 | 291 | 41 |
| 2023-09-01T06:00 | 8318 | 342 | -38.8 | -41.6 | 291 | 41 |
| 2023-09-01T06:00 | 8341 | 341 | -39.0 | -41.8 | 291 | 41 |
| 2023-09-01T06:00 | 8361 | 340 | -39.2 | -42.3 | 291 | 41 |
| 2023-09-01T06:00 | 8380 | 339 | -39.4 | -42.4 | 291 | 41 |
| 2023-09-01T06:00 | 8401 | 338 | -39.6 | -42.8 | 291 | 41 |
| 2023-09-01T06:00 | 8422 | 337 | -39.8 | -43.0 | 291 | 40 |
| 2023-09-01T06:00 | 8445 | 335 | -40.0 | -43.2 | 291 | 40 |
| 2023-09-01T06:00 | 8467 | 334 | -40.2 | -43.6 | 292 | 40 |
| 2023-09-01T06:00 | 8489 | 333 | -40.3 | -44.2 | 292 | 39 |
| 2023-09-01T06:00 | 8514 | 332 | -40.5 | -47.4 | 292 | 39 |
| 2023-09-01T06:00 | 8537 | 331 | -40.5 | -51.3 | 292 | 39 |
| 2023-09-01T06:00 | 8562 | 330 | -40.6 | -52.1 | 292 | 39 |
| 2023-09-01T06:00 | 8584 | 329 | -40.8 | -50.6 | 292 | 39 |
| 2023-09-01T06:00 | 8605 | 328 | -40.9 | -50.1 | 292 | 39 |
| 2023-09-01T06:00 | 8626 | 327 | -41.1 | -49.7 | 292 | 39 |
| 2023-09-01T06:00 | 8646 | 326 | -41.2 | -47.7 | 292 | 39 |
| 2023-09-01T06:00 | 8665 | 325 | -41.4 | -48.9 | 292 | 39 |
| 2023-09-01T06:00 | 8686 | 324 | -41.5 | -53.1 | 292 | 39 |
| 2023-09-01T06:00 | 8705 | 323 | -41.7 | -54.7 | 292 | 39 |
| 2023-09-01T06:00 | 8729 | 322 | -41.8 | -54.1 | 292 | 39 |
| 2023-09-01T06:00 | 8749 | 321 | -42.0 | -54.0 | 292 | 40 |
| 2023-09-01T06:00 | 8770 | 320 | -42.1 | -54.0 | 292 | 40 |
| 2023-09-01T06:00 | 8789 | 319 | -42.3 | -54.2 | 292 | 39 |
| 2023-09-01T06:00 | 8810 | 318 | -42.4 | -54.7 | 292 | 39 |
| 2023-09-01T06:00 | 8832 | 317 | -42.6 | -54.8 | 292 | 39 |
| 2023-09-01T06:00 | 8852 | 316 | -42.8 | -54.8 | 292 | 39 |
| 2023-09-01T06:00 | 8877 | 315 | -43.0 | -54.9 | 291 | 39 |
| 2023-09-01T06:00 | 8905 | 314 | -43.1 | -55.3 | 291 | 40 |
| 2023-09-01T06:00 | 8933 | 312 | -43.4 | -55.3 | 291 | 40 |
| 2023-09-01T06:00 | 8959 | 311 | -43.6 | -55.1 | 291 | 39 |
| 2023-09-01T06:00 | 8981 | 310 | -43.8 | -54.6 | 291 | 39 |
| 2023-09-01T06:00 | 9002 | 309 | -43.8 | -53.6 | 291 | 39 |
| 2023-09-01T06:00 | 9023 | 308 | -44.0 | -54.4 | 292 | 39 |
| 2023-09-01T06:00 | 9045 | 307 | -44.1 | -56.1 | 292 | 39 |
| 2023-09-01T06:00 | 9066 | 306 | -44.1 | -57.5 | 292 | 38 |
| 2023-09-01T06:00 | 9090 | 305 | -44.1 | -54.7 | 292 | 38 |
| 2023-09-01T06:00 | 9115 | 304 | -44.2 | -52.3 | 292 | 38 |
| 2023-09-01T06:00 | 9137 | 303 | -44.1 | -54.0 | 291 | 38 |
| 2023-09-01T06:00 | 9162 | 302 | -44.0 | -52.6 | 291 | 38 |
| 2023-09-01T06:00 | 9184 | 301 | -44.2 | -53.8 | 290 | 38 |
| 2023-09-01T06:00 | 9205 | 300 | -44.4 | -55.6 | 290 | 38 |
| 2023-09-01T06:00 | 9229 | 299 | -44.5 | -55.9 | 289 | 39 |
| 2023-09-01T06:00 | 9247 | 298 | -44.7 | -56.6 | 289 | 39 |
| 2023-09-01T06:00 | 9270 | 297 | -44.9 | -57.4 | 289 | 39 |
| 2023-09-01T06:00 | 9291 | 296 | -44.9 | -57.6 | 289 | 39 |
| 2023-09-01T06:00 | 9314 | 295 | -45.1 | -58.0 | 289 | 39 |
| 2023-09-01T06:00 | 9338 | 294 | -45.3 | 290 | 39 | |
| 2023-09-01T06:00 | 9361 | 293 | -45.5 | -58.0 | 290 | 39 |
| 2023-09-01T06:00 | 9385 | 292 | -45.7 | -58.0 | 290 | 39 |
| 2023-09-01T06:00 | 9406 | 291 | -46.0 | -58.2 | 290 | 39 |
| 2023-09-01T06:00 | 9428 | 290 | -46.1 | -58.4 | 291 | 39 |
| 2023-09-01T06:00 | 9450 | 289 | -46.3 | -58.8 | 291 | 39 |
| 2023-09-01T06:00 | 9474 | 288 | -46.5 | -58.7 | 291 | 39 |
| 2023-09-01T06:00 | 9500 | 287 | -46.7 | -58.7 | 291 | 39 |
| 2023-09-01T06:00 | 9524 | 286 | -46.8 | -57.9 | 292 | 38 |
| 2023-09-01T06:00 | 9546 | 285 | -47.0 | -57.3 | 292 | 38 |
| 2023-09-01T06:00 | 9572 | 284 | -47.3 | -57.3 | 292 | 38 |
| 2023-09-01T06:00 | 9596 | 283 | -47.5 | -57.4 | 292 | 37 |
| 2023-09-01T06:00 | 9618 | 282 | -47.7 | -56.9 | 293 | 37 |
| 2023-09-01T06:00 | 9639 | 281 | -47.8 | -54.5 | 293 | 37 |
| 2023-09-01T06:00 | 9659 | 280 | -48.0 | -53.3 | 293 | 37 |
| 2023-09-01T06:00 | 9682 | 279 | -48.2 | -53.5 | 293 | 37 |
| 2023-09-01T06:00 | 9702 | 278 | -48.4 | -53.7 | 293 | 37 |
| 2023-09-01T06:00 | 9722 | 277 | -48.5 | -54.3 | 293 | 37 |
| 2023-09-01T06:00 | 9744 | 276 | -48.7 | -55.0 | 293 | 37 |
| 2023-09-01T06:00 | 9767 | 275 | -48.8 | -55.0 | 293 | 37 |
| 2023-09-01T06:00 | 9789 | 275 | -49.0 | -54.7 | 294 | 37 |
| 2023-09-01T06:00 | 9812 | 274 | -49.1 | -54.2 | 294 | 37 |
| 2023-09-01T06:00 | 9832 | 273 | -49.3 | -54.2 | 294 | 37 |
| 2023-09-01T06:00 | 9853 | 272 | -49.4 | -54.6 | 294 | 37 |
| 2023-09-01T06:00 | 9874 | 271 | -49.6 | -55.5 | 295 | 37 |
| 2023-09-01T06:00 | 9896 | 270 | -49.7 | -57.1 | 295 | 36 |
| 2023-09-01T06:00 | 9917 | 269 | -49.7 | -58.5 | 296 | 36 |
| 2023-09-01T06:00 | 9939 | 268 | -49.6 | -58.3 | 296 | 36 |
| 2023-09-01T06:00 | 9962 | 267 | -49.2 | -60.0 | 297 | 36 |
| 2023-09-01T06:00 | 9981 | 267 | -49.0 | -61.1 | 297 | 35 |
| 2023-09-01T06:00 | 10001 | 266 | -49.1 | -60.1 | 298 | 35 |
| 2023-09-01T06:00 | 10022 | 265 | -49.2 | -59.5 | 297 | 34 |
| 2023-09-01T06:00 | 10043 | 264 | -49.0 | -59.4 | 297 | 34 |
| 2023-09-01T06:00 | 10064 | 263 | -48.7 | -60.2 | 297 | 33 |
| 2023-09-01T06:00 | 10087 | 262 | -48.4 | -61.0 | 297 | 33 |
| 2023-09-01T06:00 | 10110 | 261 | -48.5 | -61.5 | 297 | 33 |
| 2023-09-01T06:00 | 10131 | 261 | -48.6 | -61.6 | 297 | 33 |
| 2023-09-01T06:00 | 10156 | 260 | -48.7 | -61.7 | 297 | 32 |
| 2023-09-01T06:00 | 10182 | 259 | -48.8 | -61.9 | 297 | 32 |
| 2023-09-01T06:00 | 10213 | 257 | -49.0 | -62.1 | 296 | 32 |
| 2023-09-01T06:00 | 10238 | 256 | -49.1 | -62.3 | 295 | 32 |
| 2023-09-01T06:00 | 10261 | 255 | -49.2 | -62.4 | 295 | 32 |
| 2023-09-01T06:00 | 10285 | 255 | -49.3 | -62.5 | 294 | 32 |
| 2023-09-01T06:00 | 10310 | 254 | -49.4 | -62.7 | 293 | 32 |
| 2023-09-01T06:00 | 10332 | 253 | -49.4 | -63.0 | 292 | 32 |
| 2023-09-01T06:00 | 10353 | 252 | -49.3 | -63.0 | 291 | 32 |
| 2023-09-01T06:00 | 10373 | 251 | -49.3 | -63.0 | 291 | 32 |
| 2023-09-01T06:00 | 10395 | 250 | -49.3 | -63.0 | 290 | 32 |
| 2023-09-01T06:00 | 10415 | 250 | -49.3 | -62.9 | 290 | 32 |
| 2023-09-01T06:00 | 10436 | 249 | -49.4 | -62.8 | 290 | 32 |
| 2023-09-01T06:00 | 10456 | 248 | -49.5 | -63.0 | 290 | 32 |
| 2023-09-01T06:00 | 10476 | 247 | -49.4 | -63.4 | 290 | 32 |
| 2023-09-01T06:00 | 10499 | 246 | -49.2 | -64.1 | 291 | 31 |
| 2023-09-01T06:00 | 10520 | 246 | -48.8 | -64.5 | 292 | 31 |
| 2023-09-01T06:00 | 10540 | 245 | -48.5 | -65.0 | 293 | 31 |
| 2023-09-01T06:00 | 10560 | 244 | -48.3 | -65.4 | 293 | 30 |
| 2023-09-01T06:00 | 10582 | 243 | -48.3 | -65.6 | 293 | 30 |
| 2023-09-01T06:00 | 10602 | 243 | -48.2 | -65.8 | 293 | 29 |
| 2023-09-01T06:00 | 10622 | 242 | -48.0 | -66.4 | 292 | 29 |
| 2023-09-01T06:00 | 10641 | 241 | -47.8 | -66.9 | 291 | 28 |
| 2023-09-01T06:00 | 10662 | 240 | -47.6 | -67.3 | 290 | 28 |
| 2023-09-01T06:00 | 10681 | 240 | -47.6 | -67.5 | 289 | 28 |
| 2023-09-01T06:00 | 10702 | 239 | -47.6 | -67.7 | 288 | 28 |
| 2023-09-01T06:00 | 10723 | 238 | -47.5 | -67.8 | 286 | 28 |
| 2023-09-01T06:00 | 10744 | 237 | -47.3 | -68.0 | 286 | 28 |
| 2023-09-01T06:00 | 10763 | 237 | -47.0 | -68.3 | 285 | 28 |
| 2023-09-01T06:00 | 10784 | 236 | -47.0 | -68.5 | 285 | 28 |
| 2023-09-01T06:00 | 10801 | 235 | -47.0 | -68.5 | 284 | 27 |
| 2023-09-01T06:00 | 10822 | 235 | -47.1 | -68.7 | 283 | 27 |
| 2023-09-01T06:00 | 10841 | 234 | -47.1 | -68.8 | 282 | 27 |
| 2023-09-01T06:00 | 10862 | 233 | -47.0 | -69.2 | 282 | 28 |
| 2023-09-01T06:00 | 10881 | 232 | -46.6 | -69.6 | 281 | 28 |
| 2023-09-01T06:00 | 10901 | 232 | -46.3 | -69.8 | 281 | 28 |
| 2023-09-01T06:00 | 10922 | 231 | -46.3 | -69.9 | 282 | 28 |
| 2023-09-01T06:00 | 10942 | 230 | -46.5 | -69.9 | 282 | 28 |
| 2023-09-01T06:00 | 10965 | 230 | -46.7 | -69.9 | 283 | 29 |
| 2023-09-01T06:00 | 10983 | 229 | -46.8 | -70.2 | 283 | 29 |
| 2023-09-01T06:00 | 11003 | 228 | -46.9 | -70.2 | 283 | 29 |
| 2023-09-01T06:00 | 11023 | 228 | -47.0 | -70.5 | 283 | 30 |
| 2023-09-01T06:00 | 11044 | 227 | -46.9 | -70.7 | 283 | 30 |
| 2023-09-01T06:00 | 11065 | 226 | -46.7 | -70.9 | 283 | 29 |
| 2023-09-01T06:00 | 11086 | 225 | -46.4 | -71.0 | 284 | 29 |
| 2023-09-01T06:00 | 11108 | 225 | -46.0 | -71.2 | 284 | 28 |
| 2023-09-01T06:00 | 11126 | 224 | -45.9 | -71.6 | 284 | 28 |
| 2023-09-01T06:00 | 11145 | 223 | -45.7 | -71.8 | 285 | 27 |
| 2023-09-01T06:00 | 11167 | 223 | -45.8 | -72.4 | 286 | 27 |
| 2023-09-01T06:00 | 11189 | 222 | -45.6 | -72.4 | 287 | 26 |
| 2023-09-01T06:00 | 11210 | 221 | -45.2 | -72.6 | 288 | 26 |
| 2023-09-01T06:00 | 11232 | 221 | -45.0 | -72.8 | 288 | 26 |
| 2023-09-01T06:00 | 11253 | 220 | -45.0 | -72.8 | 288 | 25 |
| 2023-09-01T06:00 | 11276 | 219 | -45.1 | -73.1 | 287 | 25 |
| 2023-09-01T06:00 | 11295 | 218 | -44.6 | -73.0 | 287 | 25 |
| 2023-09-01T06:00 | 11316 | 218 | -44.4 | -73.2 | 286 | 25 |
| 2023-09-01T06:00 | 11336 | 217 | -44.4 | -73.2 | 286 | 25 |
| 2023-09-01T06:00 | 11356 | 216 | -44.4 | -73.5 | 287 | 25 |
| 2023-09-01T06:00 | 11377 | 216 | -44.1 | -73.6 | 288 | 24 |
| 2023-09-01T06:00 | 11396 | 215 | -43.8 | -73.7 | 289 | 24 |
| 2023-09-01T06:00 | 11419 | 214 | -43.8 | -73.7 | 290 | 24 |
| 2023-09-01T06:00 | 11440 | 214 | -43.7 | -73.6 | 290 | 23 |
| 2023-09-01T06:00 | 11465 | 213 | -43.8 | -73.7 | 291 | 23 |
| 2023-09-01T06:00 | 11490 | 212 | -44.0 | -73.9 | 291 | 23 |
| 2023-09-01T06:00 | 11514 | 211 | -44.1 | -74.3 | 291 | 23 |
| 2023-09-01T06:00 | 11538 | 211 | -44.1 | -74.3 | 290 | 23 |
| 2023-09-01T06:00 | 11563 | 210 | -44.2 | -74.4 | 290 | 23 |
| 2023-09-01T06:00 | 11582 | 209 | -44.3 | -74.1 | 289 | 23 |
| 2023-09-01T06:00 | 11603 | 209 | -44.4 | -74.5 | 289 | 24 |
| 2023-09-01T06:00 | 11622 | 208 | -44.5 | -74.6 | 289 | 23 |
| 2023-09-01T06:00 | 11642 | 207 | -44.6 | -74.7 | 288 | 23 |
| 2023-09-01T06:00 | 11663 | 207 | -44.4 | -74.5 | 288 | 22 |
| 2023-09-01T06:00 | 11682 | 206 | -43.8 | -74.5 | 287 | 22 |
| 2023-09-01T06:00 | 11702 | 206 | -43.8 | -74.5 | 287 | 21 |
| 2023-09-01T06:00 | 11720 | 205 | -43.9 | -75.0 | 286 | 21 |
| 2023-09-01T06:00 | 11739 | 204 | -43.9 | -75.0 | 286 | 21 |
| 2023-09-01T06:00 | 11758 | 204 | -43.5 | -74.7 | 286 | 21 |
| 2023-09-01T06:00 | 11777 | 203 | -43.3 | -75.0 | 286 | 21 |
| 2023-09-01T06:00 | 11796 | 203 | -43.3 | -75.0 | 287 | 22 |
| 2023-09-01T06:00 | 11817 | 202 | -43.4 | -75.0 | 287 | 22 |
| 2023-09-01T06:00 | 11836 | 202 | -43.6 | -74.7 | 287 | 22 |
| 2023-09-01T06:00 | 11854 | 201 | -43.7 | -74.8 | 287 | 22 |
| 2023-09-01T06:00 | 11874 | 200 | -43.8 | -74.9 | 287 | 22 |
| 2023-09-01T06:00 | 11894 | 200 | -43.9 | -75.0 | 287 | 22 |
| 2023-09-01T06:00 | 11912 | 199 | -44.0 | -75.0 | 287 | 21 |
| 2023-09-01T06:00 | 11933 | 199 | -44.0 | -75.0 | 286 | 21 |
| 2023-09-01T06:00 | 11953 | 198 | -43.9 | -75.0 | 285 | 21 |
| 2023-09-01T06:00 | 11972 | 197 | -43.9 | -75.0 | 285 | 21 |
| 2023-09-01T06:00 | 11994 | 197 | -43.9 | -75.0 | 284 | 20 |
| 2023-09-01T06:00 | 12011 | 196 | -44.1 | -75.5 | 283 | 20 |
| 2023-09-01T06:00 | 12033 | 196 | -44.2 | -75.6 | 282 | 20 |
| 2023-09-01T06:00 | 12052 | 195 | -44.4 | -75.8 | 282 | 20 |
| 2023-09-01T06:00 | 12074 | 195 | -44.5 | -75.8 | 281 | 20 |
| 2023-09-01T06:00 | 12092 | 194 | -44.4 | -75.8 | 279 | 20 |
| 2023-09-01T06:00 | 12115 | 193 | -44.2 | -75.6 | 278 | 20 |
| 2023-09-01T06:00 | 12135 | 193 | -44.2 | -75.6 | 277 | 20 |
| 2023-09-01T06:00 | 12154 | 192 | -44.2 | -76.1 | 276 | 20 |
| 2023-09-01T06:00 | 12174 | 192 | -44.3 | -76.2 | 275 | 20 |
| 2023-09-01T06:00 | 12194 | 191 | -44.3 | -76.2 | 275 | 20 |
| 2023-09-01T06:00 | 12213 | 191 | -44.1 | -76.0 | 275 | 19 |
| 2023-09-01T06:00 | 12234 | 190 | -44.1 | -76.0 | 275 | 19 |
| 2023-09-01T06:00 | 12252 | 189 | -44.2 | -76.1 | 274 | 19 |
| 2023-09-01T06:00 | 12275 | 189 | -44.2 | -76.1 | 274 | 19 |
| 2023-09-01T06:00 | 12292 | 188 | -44.3 | -76.2 | 275 | 19 |
| 2023-09-01T06:00 | 12316 | 188 | -44.4 | -76.2 | 276 | 19 |
| 2023-09-01T06:00 | 12335 | 187 | -44.6 | -76.4 | 277 | 19 |
| 2023-09-01T06:00 | 12356 | 187 | -44.5 | -76.3 | 278 | 19 |
| 2023-09-01T06:00 | 12375 | 186 | -44.6 | -76.4 | 279 | 19 |
| 2023-09-01T06:00 | 12398 | 185 | -44.7 | -76.5 | 279 | 19 |
| 2023-09-01T06:00 | 12418 | 185 | -44.7 | -76.5 | 280 | 19 |
| 2023-09-01T06:00 | 12442 | 184 | -44.9 | -76.6 | 280 | 19 |
| 2023-09-01T06:00 | 12465 | 183 | -45.1 | -76.3 | 281 | 19 |
| 2023-09-01T06:00 | 12487 | 183 | -45.3 | -76.4 | 282 | 19 |
| 2023-09-01T06:00 | 12512 | 182 | -45.5 | -76.6 | 282 | 19 |
| 2023-09-01T06:00 | 12538 | 181 | -45.7 | -76.7 | 283 | 19 |
| 2023-09-01T06:00 | 12561 | 181 | -45.9 | -76.9 | 283 | 19 |
| 2023-09-01T06:00 | 12581 | 180 | -46.0 | -77.0 | 282 | 18 |
| 2023-09-01T06:00 | 12604 | 180 | -46.0 | -77.0 | 282 | 18 |
| 2023-09-01T06:00 | 12623 | 179 | -46.1 | -77.0 | 282 | 18 |
| 2023-09-01T06:00 | 12644 | 179 | -46.2 | -77.1 | 282 | 18 |
| 2023-09-01T06:00 | 12663 | 178 | -46.3 | -77.2 | 282 | 18 |
| 2023-09-01T06:00 | 12685 | 178 | -46.4 | -77.3 | 283 | 18 |
| 2023-09-01T06:00 | 12706 | 177 | -46.5 | -77.3 | 284 | 18 |
| 2023-09-01T06:00 | 12727 | 176 | -46.3 | -77.7 | 284 | 18 |
| 2023-09-01T06:00 | 12748 | 176 | -46.4 | -77.7 | 284 | 18 |
| 2023-09-01T06:00 | 12769 | 175 | -46.6 | -77.9 | 284 | 18 |
| 2023-09-01T06:00 | 12790 | 175 | -46.7 | -77.5 | 284 | 18 |
| 2023-09-01T06:00 | 12813 | 174 | -46.8 | -77.6 | 284 | 18 |
| 2023-09-01T06:00 | 12835 | 174 | -46.9 | -77.6 | 284 | 18 |
| 2023-09-01T06:00 | 12854 | 173 | -47.0 | -77.7 | 284 | 18 |
| 2023-09-01T06:00 | 12878 | 172 | -47.1 | -77.8 | 284 | 18 |
| 2023-09-01T06:00 | 12897 | 172 | -47.2 | -77.9 | 285 | 19 |
| 2023-09-01T06:00 | 12918 | 171 | -47.3 | -77.9 | 285 | 19 |
| 2023-09-01T06:00 | 12941 | 171 | -47.5 | -78.1 | 285 | 19 |
| 2023-09-01T06:00 | 12962 | 170 | -47.5 | -78.1 | 285 | 18 |
| 2023-09-01T06:00 | 12982 | 170 | -47.3 | -78.4 | 285 | 18 |
| 2023-09-01T06:00 | 13005 | 169 | -47.4 | -78.5 | 285 | 18 |
| 2023-09-01T06:00 | 13024 | 169 | -47.4 | -78.5 | 285 | 17 |
| 2023-09-01T06:00 | 13047 | 168 | -47.2 | -78.3 | 286 | 17 |
| 2023-09-01T06:00 | 13067 | 168 | -47.0 | -78.2 | 287 | 17 |
| 2023-09-01T06:00 | 13090 | 167 | -47.0 | -78.2 | 287 | 17 |
| 2023-09-01T06:00 | 13112 | 166 | -46.9 | -78.1 | 287 | 16 |
| 2023-09-01T06:00 | 13133 | 166 | -47.1 | -78.3 | 287 | 16 |
| 2023-09-01T06:00 | 13155 | 165 | -47.3 | -78.4 | 287 | 16 |
| 2023-09-01T06:00 | 13177 | 165 | -47.4 | -78.5 | 288 | 15 |
| 2023-09-01T06:00 | 13200 | 164 | -47.3 | -78.4 | 289 | 15 |
| 2023-09-01T06:00 | 13223 | 164 | -47.3 | -78.4 | 289 | 14 |
| 2023-09-01T06:00 | 13245 | 163 | -47.4 | -78.5 | 290 | 14 |
| 2023-09-01T06:00 | 13267 | 163 | -47.6 | -78.6 | 290 | 14 |
| 2023-09-01T06:00 | 13290 | 162 | -47.8 | -78.3 | 290 | 14 |
| 2023-09-01T06:00 | 13310 | 162 | -48.0 | -78.5 | 290 | 13 |
| 2023-09-01T06:00 | 13331 | 161 | -48.2 | -78.6 | 289 | 13 |
| 2023-09-01T06:00 | 13355 | 160 | -48.3 | -78.7 | 288 | 13 |
| 2023-09-01T06:00 | 13378 | 160 | -48.5 | -78.8 | 286 | 13 |
| 2023-09-01T06:00 | 13402 | 159 | -48.6 | -78.9 | 284 | 13 |
| 2023-09-01T06:00 | 13423 | 159 | -48.7 | -79.0 | 282 | 13 |
| 2023-09-01T06:00 | 13444 | 158 | -48.9 | -78.7 | 280 | 13 |
| 2023-09-01T06:00 | 13466 | 158 | -49.0 | -78.8 | 279 | 13 |
| 2023-09-01T06:00 | 13488 | 157 | -49.1 | -78.9 | 278 | 14 |
| 2023-09-01T06:00 | 13510 | 157 | -49.2 | -78.9 | 277 | 14 |
| 2023-09-01T06:00 | 13532 | 156 | -49.3 | -79.0 | 276 | 14 |
| 2023-09-01T06:00 | 13553 | 156 | -49.4 | -79.1 | 275 | 14 |
| 2023-09-01T06:00 | 13578 | 155 | -49.4 | -79.1 | 274 | 14 |
| 2023-09-01T06:00 | 13597 | 155 | -49.4 | -79.1 | 274 | 14 |
| 2023-09-01T06:00 | 13618 | 154 | -49.3 | -79.0 | 275 | 14 |
| 2023-09-01T06:00 | 13640 | 154 | -49.3 | -79.4 | 276 | 15 |
| 2023-09-01T06:00 | 13665 | 153 | -49.3 | -79.4 | 277 | 15 |
| 2023-09-01T06:00 | 13685 | 153 | -49.1 | -79.3 | 278 | 15 |
| 2023-09-01T06:00 | 13706 | 152 | -49.0 | -79.2 | 279 | 15 |
| 2023-09-01T06:00 | 13727 | 152 | -48.9 | -79.1 | 279 | 15 |
| 2023-09-01T06:00 | 13747 | 151 | -48.7 | -78.6 | 279 | 15 |
| 2023-09-01T06:00 | 13770 | 151 | -48.8 | 278 | 15 | |
| 2023-09-01T06:00 | 13791 | 150 | -48.8 | 277 | 15 | |
| 2023-09-01T06:00 | 13813 | 150 | -48.9 | -78.7 | 276 | 14 |
| 2023-09-01T06:00 | 13836 | 149 | -49.1 | -78.9 | 274 | 14 |
| 2023-09-01T06:00 | 13856 | 149 | -49.0 | -78.8 | 273 | 14 |
| 2023-09-01T06:00 | 13878 | 148 | -49.1 | -78.9 | 273 | 14 |
| 2023-09-01T06:00 | 13900 | 148 | -49.1 | -78.9 | 272 | 14 |
| 2023-09-01T06:00 | 13921 | 147 | -49.1 | -78.9 | 273 | 14 |
| 2023-09-01T06:00 | 13939 | 147 | -49.1 | -78.9 | 273 | 14 |
| 2023-09-01T06:00 | 13959 | 146 | -49.3 | -79.0 | 274 | 14 |
| 2023-09-01T06:00 | 13984 | 146 | -49.4 | -79.1 | 275 | 14 |
| 2023-09-01T06:00 | 14004 | 145 | -49.6 | -79.2 | 275 | 14 |
| 2023-09-01T06:00 | 14025 | 145 | -49.7 | -79.3 | 275 | 13 |
| 2023-09-01T06:00 | 14046 | 144 | -49.6 | -79.2 | 274 | 13 |
| 2023-09-01T06:00 | 14065 | 144 | -49.7 | -79.3 | 274 | 13 |
| 2023-09-01T06:00 | 14087 | 144 | -49.8 | -79.4 | 273 | 12 |
| 2023-09-01T06:00 | 14106 | 143 | -49.9 | -79.9 | 273 | 12 |
| 2023-09-01T06:00 | 14125 | 143 | -49.8 | -79.8 | 272 | 12 |
| 2023-09-01T06:00 | 14143 | 142 | -49.7 | -79.7 | 272 | 12 |
| 2023-09-01T06:00 | 14166 | 142 | -49.8 | -79.8 | 272 | 12 |
| 2023-09-01T06:00 | 14187 | 141 | -49.9 | -79.9 | 271 | 11 |
| 2023-09-01T06:00 | 14209 | 141 | -50.0 | -80.0 | 270 | 11 |
| 2023-09-01T06:00 | 14229 | 140 | -50.1 | -80.0 | 270 | 11 |
| 2023-09-01T06:00 | 14249 | 140 | -50.2 | -80.1 | 269 | 11 |
| 2023-09-01T06:00 | 14268 | 140 | -50.2 | -80.1 | 270 | 12 |
| 2023-09-01T06:00 | 14288 | 139 | -50.2 | -80.1 | 270 | 12 |
| 2023-09-01T06:00 | 14307 | 139 | -50.3 | -80.2 | 271 | 12 |
| 2023-09-01T06:00 | 14329 | 138 | -50.3 | -80.2 | 271 | 12 |
| 2023-09-01T06:00 | 14350 | 138 | -50.4 | -80.3 | 271 | 12 |
| 2023-09-01T06:00 | 14367 | 137 | -50.5 | -80.3 | 271 | 12 |
| 2023-09-01T06:00 | 14390 | 137 | -50.6 | -80.4 | 271 | 12 |
| 2023-09-01T06:00 | 14411 | 137 | -50.6 | -80.4 | 271 | 12 |
| 2023-09-01T06:00 | 14431 | 136 | -50.6 | -80.4 | 272 | 12 |
| 2023-09-01T06:00 | 14453 | 136 | -50.6 | -80.4 | 273 | 12 |
| 2023-09-01T06:00 | 14472 | 135 | -50.6 | -80.4 | 274 | 12 |
| 2023-09-01T06:00 | 14490 | 135 | -50.4 | -80.7 | 276 | 12 |
| 2023-09-01T06:00 | 14513 | 134 | -50.3 | -80.6 | 278 | 12 |
| 2023-09-01T06:00 | 14532 | 134 | -50.1 | -81.0 | 281 | 11 |
| 2023-09-01T06:00 | 14554 | 134 | -50.0 | -80.9 | 283 | 11 |
| 2023-09-01T06:00 | 14574 | 133 | -50.1 | -81.0 | 285 | 11 |
| 2023-09-01T06:00 | 14594 | 133 | -50.1 | -81.0 | 288 | 11 |
| 2023-09-01T06:00 | 14616 | 132 | -49.9 | -80.8 | 291 | 10 |
| 2023-09-01T06:00 | 14638 | 132 | -49.7 | -80.7 | 293 | 10 |
| 2023-09-01T06:00 | 14656 | 131 | -49.8 | -80.8 | 295 | 10 |
| 2023-09-01T06:00 | 14679 | 131 | -49.7 | -80.7 | 297 | 10 |
| 2023-09-01T06:00 | 14703 | 131 | -49.7 | -80.7 | 298 | 9 |
| 2023-09-01T06:00 | 14723 | 130 | -49.6 | -80.6 | 298 | 9 |
| 2023-09-01T06:00 | 14745 | 130 | -49.7 | -80.7 | 298 | 8 |
| 2023-09-01T06:00 | 14765 | 129 | -49.5 | -81.1 | 298 | 8 |
| 2023-09-01T06:00 | 14787 | 129 | -49.5 | -80.5 | 296 | 8 |
| 2023-09-01T06:00 | 14809 | 128 | -49.7 | -80.7 | 293 | 7 |
| 2023-09-01T06:00 | 14831 | 128 | -49.8 | -80.8 | 289 | 7 |
| 2023-09-01T06:00 | 14854 | 128 | -49.9 | -80.8 | 285 | 7 |
| 2023-09-01T06:00 | 14873 | 127 | -50.0 | -80.9 | 281 | 7 |
| 2023-09-01T06:00 | 14897 | 127 | -50.2 | -81.0 | 277 | 7 |
| 2023-09-01T06:00 | 14921 | 126 | -50.4 | -81.2 | 273 | 7 |
| 2023-09-01T06:00 | 14944 | 126 | -50.5 | -81.3 | 270 | 8 |
| 2023-09-01T06:00 | 14967 | 125 | -50.6 | -81.3 | 268 | 8 |
| 2023-09-01T06:00 | 14988 | 125 | -50.8 | -81.5 | 268 | 8 |
| 2023-09-01T06:00 | 15008 | 125 | -50.8 | -81.5 | 269 | 8 |
| 2023-09-01T06:00 | 15032 | 124 | -50.6 | -81.3 | 270 | 8 |
| 2023-09-01T06:00 | 15053 | 124 | -50.5 | -81.3 | 272 | 8 |
| 2023-09-01T06:00 | 15074 | 123 | -50.5 | -81.3 | 274 | 8 |
| 2023-09-01T06:00 | 15097 | 123 | -50.4 | -81.7 | 274 | 7 |
| 2023-09-01T06:00 | 15119 | 122 | -50.4 | -81.7 | 273 | 7 |
| 2023-09-01T06:00 | 15143 | 122 | -50.2 | 270 | 7 | |
| 2023-09-01T06:00 | 15164 | 122 | -49.8 | -81.3 | 268 | 7 |
| 2023-09-01T06:00 | 15187 | 121 | -49.8 | -81.3 | 265 | 7 |
| 2023-09-01T06:00 | 15211 | 121 | -49.8 | -81.3 | 263 | 7 |
| 2023-09-01T06:00 | 15233 | 120 | -49.9 | -81.3 | 262 | 7 |
| 2023-09-01T06:00 | 15255 | 120 | -50.0 | -81.4 | 263 | 7 |
| 2023-09-01T06:00 | 15278 | 120 | -50.1 | -81.5 | 263 | 7 |
| 2023-09-01T06:00 | 15300 | 119 | -50.0 | -81.4 | 264 | 7 |
| 2023-09-01T06:00 | 15321 | 119 | -50.1 | -81.5 | 265 | 7 |
| 2023-09-01T06:00 | 15345 | 118 | -50.2 | 265 | 7 | |
| 2023-09-01T06:00 | 15366 | 118 | -50.2 | 267 | 7 | |
| 2023-09-01T06:00 | 15387 | 118 | -50.3 | -81.6 | 268 | 7 |
Only the first 2000 rows were shown. To view the complete dataset, download it as tab-delimited text. You can still view the full matrix in your browser, but be aware that this may crash the browser due to the huge size.
